Time,TemperatureF,DewpointF,PressureIn,WindDirection,WindDirectionDegrees,WindSpeedMPH,WindSpeedGustMPH,Humidity,HourlyPrecipIn,Conditions,Clouds,dailyrainin,SoftwareType,DateUTC
2013-03-02 04:10:00,38.3,28.7,30.18,South,180,1.0,5.0,68,0.00,,---,0.00,VWS V14.00,2013-03-02 12:10:00,
2013-03-02 04:20:00,39.1,29.8,30.17,SSW,205,6.0,6.0,69,0.00,,---,0.00,VWS V14.00,2013-03-02 12:20:00,
2013-03-02 04:21:00,39.1,29.8,30.17,South,191,5.0,6.0,69,0.00,,---,0.00,VWS V14.00,2013-03-02 12:21:00,
2013-03-02 04:22:00,39.5,29.1,30.17,South,191,4.0,6.0,66,0.00,,---,0.00,VWS V14.00,2013-03-02 12:22:00,
2013-03-02 04:23:00,39.5,29.1,30.17,SSW,198,3.0,6.0,66,0.00,,---,0.00,VWS V14.00,2013-03-02 12:23:00,
2013-03-02 04:24:00,39.8,29.4,30.17,South,186,2.0,7.0,66,0.00,,---,0.00,VWS V14.00,2013-03-02 12:24:00,
2013-03-02 04:25:00,39.8,29.4,30.17,SSW,209,6.0,7.0,66,0.00,,---,0.00,VWS V14.00,2013-03-02 12:25:00,
2013-03-02 04:26:00,39.9,29.5,30.17,SSW,208,3.0,7.0,66,0.00,,---,0.00,VWS V14.00,2013-03-02 12:26:00,
2013-03-02 04:27:00,39.9,29.5,30.17,SSW,208,3.0,7.0,66,0.00,,---,0.00,VWS V14.00,2013-03-02 12:27:00,
2013-03-02 04:28:00,39.9,29.5,30.17,SSW,208,3.0,7.0,66,0.00,,---,0.00,VWS V14.00,2013-03-02 12:28:00,
2013-03-02 04:29:00,39.9,29.5,30.17,South,181,5.0,11.0,66,0.00,,---,0.00,VWS V14.00,2013-03-02 12:29:00,
2013-03-02 04:30:00,39.9,29.5,30.17,South,181,4.0,11.0,66,0.00,,---,0.00,VWS V14.00,2013-03-02 12:30:00,
2013-03-02 04:31:00,39.9,29.5,30.17,South,181,4.0,4.0,66,0.00,,---,0.00,VWS V14.00,2013-03-02 12:31:00,
2013-03-02 04:32:00,39.9,29.5,30.17,SSW,193,10.0,16.0,66,0.00,,---,0.00,VWS V14.00,2013-03-02 12:32:00,
2013-03-02 04:33:00,39.9,29.5,30.17,SW,219,16.0,20.0,66,0.00,,---,0.00,VWS V14.00,2013-03-02 12:33:00,
2013-03-02 04:34:00,39.9,29.5,30.17,SW,219,16.0,20.0,66,0.00,,---,0.00,VWS V14.00,2013-03-02 12:34:00,
2013-03-02 04:35:00,39.9,29.5,30.17,SSW,213,8.0,20.0,66,0.00,,---,0.00,VWS V14.00,2013-03-02 12:35:00,
2013-03-02 04:36:00,39.9,29.5,30.17,SSW,203,12.0,20.0,66,0.00,,---,0.00,VWS V14.00,2013-03-02 12:36:00,
2013-03-02 04:37:00,39.9,29.5,30.17,SSW,203,12.0,20.0,66,0.00,,---,0.00,VWS V14.00,2013-03-02 12:37:00,
2013-03-02 04:38:00,39.9,29.5,30.17,South,184,13.0,20.0,66,0.00,,---,0.00,VWS V14.00,2013-03-02 12:38:00,
2013-03-02 04:39:00,39.9,29.5,30.17,South,184,13.0,20.0,66,0.00,,---,0.00,VWS V14.00,2013-03-02 12:39:00,
2013-03-02 04:40:00,39.9,29.5,30.17,South,171,6.0,20.0,66,0.00,,---,0.00,VWS V14.00,2013-03-02 12:40:00,
2013-03-02 04:41:00,39.9,29.5,30.17,South,171,6.0,6.0,66,0.00,,---,0.00,VWS V14.00,2013-03-02 12:41:00,
2013-03-02 04:42:00,39.9,29.5,30.17,South,171,6.0,6.0,66,0.00,,---,0.00,VWS V14.00,2013-03-02 12:42:00,
2013-03-02 04:43:00,39.9,29.5,30.17,South,184,2.0,6.0,66,0.00,,---,0.00,VWS V14.00,2013-03-02 12:43:00,
2013-03-02 04:44:00,39.8,29.4,30.17,South,185,2.0,6.0,66,0.00,,---,0.00,VWS V14.00,2013-03-02 12:44:00,
2013-03-02 04:45:00,39.8,29.4,30.17,South,185,2.0,6.0,66,0.00,,---,0.00,VWS V14.00,2013-03-02 12:45:00,
2013-03-02 04:46:00,39.8,29.4,30.17,South,185,2.0,6.0,66,0.00,,---,0.00,VWS V14.00,2013-03-02 12:46:00,
2013-03-02 04:47:00,39.8,29.4,30.17,South,185,2.0,6.0,66,0.00,,---,0.00,VWS V14.00,2013-03-02 12:47:00,
2013-03-02 04:48:00,39.8,29.4,30.17,South,189,5.0,7.0,66,0.00,,---,0.00,VWS V14.00,2013-03-02 12:48:00,
2013-03-02 04:49:00,39.8,29.4,30.17,South,189,6.0,7.0,66,0.00,,---,0.00,VWS V14.00,2013-03-02 12:49:00,
2013-03-02 04:50:00,39.8,29.4,30.17,South,189,6.0,7.0,66,0.00,,---,0.00,VWS V14.00,2013-03-02 12:50:00,
2013-03-02 04:51:00,39.6,29.2,30.17,SSW,193,4.0,6.0,66,0.00,,---,0.00,VWS V14.00,2013-03-02 12:51:00,
2013-03-02 04:52:00,39.6,29.2,30.17,South,188,6.0,6.0,66,0.00,,---,0.00,VWS V14.00,2013-03-02 12:52:00,
2013-03-02 04:53:00,39.6,29.2,30.17,South,185,4.0,7.0,66,0.00,,---,0.00,VWS V14.00,2013-03-02 12:53:00,
2013-03-02 04:54:00,39.6,29.2,30.17,South,189,12.0,12.0,66,0.00,,---,0.00,VWS V14.00,2013-03-02 12:54:00,
2013-03-02 04:55:00,39.6,29.2,30.17,SSW,192,14.0,14.0,66,0.00,,---,0.00,VWS V14.00,2013-03-02 12:55:00,
2013-03-02 04:56:00,39.6,29.2,30.17,South,188,13.0,14.0,66,0.00,,---,0.00,VWS V14.00,2013-03-02 12:56:00,
2013-03-02 04:57:00,39.6,29.2,30.17,South,188,13.0,14.0,66,0.00,,---,0.00,VWS V14.00,2013-03-02 12:57:00,
2013-03-02 04:58:00,39.6,29.2,30.17,South,188,13.0,14.0,66,0.00,,---,0.00,VWS V14.00,2013-03-02 12:58:00,
2013-03-02 04:59:00,39.6,29.2,30.16,South,188,13.0,14.0,66,0.00,,---,0.00,VWS V14.00,2013-03-02 12:59:00,
2013-03-02 05:00:00,39.6,29.2,30.16,South,188,13.0,14.0,66,0.00,,---,0.00,VWS V14.00,2013-03-02 13:00:00,
2013-03-02 05:01:00,39.6,29.2,30.16,SSW,192,8.0,13.0,66,0.00,,---,0.00,VWS V14.00,2013-03-02 13:01:00,
2013-03-02 05:02:00,39.6,29.2,30.16,SSW,192,8.0,13.0,66,0.00,,---,0.00,VWS V14.00,2013-03-02 13:02:00,
2013-03-02 05:03:00,39.6,29.2,30.16,SSW,192,6.0,13.0,66,0.00,,---,0.00,VWS V14.00,2013-03-02 13:03:00,
2013-03-02 05:04:00,39.6,29.2,30.16,SSW,192,6.0,13.0,66,0.00,,---,0.00,VWS V14.00,2013-03-02 13:04:00,
2013-03-02 05:05:00,39.6,29.2,30.16,SSW,192,6.0,13.0,66,0.00,,---,0.00,VWS V14.00,2013-03-02 13:05:00,
2013-03-02 05:06:00,39.6,29.2,30.16,SSW,192,6.0,13.0,66,0.00,,---,0.00,VWS V14.00,2013-03-02 13:06:00,
2013-03-02 05:07:00,40.2,28.2,30.16,SW,217,11.0,13.0,62,0.00,,---,0.00,VWS V14.00,2013-03-02 13:07:00,
2013-03-02 05:08:00,40.2,28.2,30.16,SSW,202,12.0,17.0,62,0.00,,---,0.00,VWS V14.00,2013-03-02 13:08:00,
2013-03-02 05:09:00,40.2,28.2,30.16,SSW,202,12.0,17.0,62,0.00,,---,0.00,VWS V14.00,2013-03-02 13:09:00,
2013-03-02 05:10:00,40.2,28.2,30.16,South,181,10.0,17.0,62,0.00,,---,0.00,VWS V14.00,2013-03-02 13:10:00,
2013-03-02 05:11:00,40.5,28.9,30.16,South,182,8.0,13.0,63,0.00,,---,0.00,VWS V14.00,2013-03-02 13:11:00,
2013-03-02 05:12:00,40.6,29.0,30.16,South,189,8.0,13.0,63,0.00,,---,0.00,VWS V14.00,2013-03-02 13:12:00,
2013-03-02 05:13:00,40.6,28.6,30.16,SSW,193,14.0,14.0,62,0.00,,---,0.00,VWS V14.00,2013-03-02 13:13:00,
2013-03-02 05:14:00,40.6,28.6,30.16,SSW,193,14.0,14.0,62,0.00,,---,0.00,VWS V14.00,2013-03-02 13:14:00,
2013-03-02 05:15:00,40.8,29.2,30.16,SSW,193,6.0,14.0,63,0.00,,---,0.00,VWS V14.00,2013-03-02 13:15:00,
2013-03-02 05:16:00,40.8,29.2,30.16,SSW,193,6.0,14.0,63,0.00,,---,0.00,VWS V14.00,2013-03-02 13:16:00,
2013-03-02 05:17:00,40.8,29.2,30.16,SSW,193,6.0,14.0,63,0.00,,---,0.00,VWS V14.00,2013-03-02 13:17:00,
2013-03-02 05:18:00,40.8,29.2,30.16,SSW,193,6.0,14.0,63,0.00,,---,0.00,VWS V14.00,2013-03-02 13:18:00,
2013-03-02 05:19:00,40.8,29.2,30.16,SSW,193,6.0,14.0,63,0.00,,---,0.00,VWS V14.00,2013-03-02 13:19:00,
2013-03-02 05:20:00,40.8,29.2,30.16,SSW,193,6.0,14.0,63,0.00,,---,0.00,VWS V14.00,2013-03-02 13:20:00,
2013-03-02 05:21:00,40.8,29.2,30.16,SSW,199,3.0,6.0,63,0.00,,---,0.00,VWS V14.00,2013-03-02 13:21:00,
2013-03-02 05:22:00,40.8,29.2,30.16,SSW,192,5.0,6.0,63,0.00,,---,0.00,VWS V14.00,2013-03-02 13:22:00,
2013-03-02 05:23:00,40.8,29.2,30.16,SSW,192,5.0,6.0,63,0.00,,---,0.00,VWS V14.00,2013-03-02 13:23:00,
2013-03-02 05:24:00,40.8,29.2,30.16,SSW,192,5.0,6.0,63,0.00,,---,0.00,VWS V14.00,2013-03-02 13:24:00,
2013-03-02 05:25:00,40.8,29.2,30.16,SSW,192,5.0,6.0,63,0.00,,---,0.00,VWS V14.00,2013-03-02 13:25:00,
2013-03-02 05:26:00,41.2,28.8,30.16,SSW,203,3.0,6.0,61,0.00,,---,0.00,VWS V14.00,2013-03-02 13:26:00,
2013-03-02 05:27:00,41.2,28.8,30.16,SSW,200,5.0,6.0,61,0.00,,---,0.00,VWS V14.00,2013-03-02 13:27:00,
2013-03-02 05:28:00,41.2,28.8,30.16,SSW,200,5.0,6.0,61,0.00,,---,0.00,VWS V14.00,2013-03-02 13:28:00,
2013-03-02 05:29:00,41.2,28.8,30.16,SSW,200,5.0,6.0,61,0.00,,---,0.00,VWS V14.00,2013-03-02 13:29:00,
2013-03-02 05:30:00,41.2,28.8,30.16,SSW,200,5.0,6.0,61,0.00,,---,0.00,VWS V14.00,2013-03-02 13:30:00,
2013-03-02 05:31:00,41.2,28.8,30.16,SSW,200,5.0,5.0,61,0.00,,---,0.00,VWS V14.00,2013-03-02 13:31:00,
2013-03-02 05:32:00,41.2,28.8,30.16,SSW,200,5.0,5.0,61,0.00,,---,0.00,VWS V14.00,2013-03-02 13:32:00,
2013-03-02 05:33:00,41.2,28.8,30.16,SSW,200,5.0,5.0,61,0.00,,---,0.00,VWS V14.00,2013-03-02 13:33:00,
2013-03-02 05:34:00,41.2,28.8,30.16,SSW,193,6.0,6.0,61,0.00,,---,0.00,VWS V14.00,2013-03-02 13:34:00,
2013-03-02 05:35:00,41.2,28.8,30.16,SSW,193,6.0,6.0,61,0.00,,---,0.00,VWS V14.00,2013-03-02 13:35:00,
2013-03-02 05:36:00,41.2,28.8,30.16,SSW,193,6.0,6.0,61,0.00,,---,0.00,VWS V14.00,2013-03-02 13:36:00,
2013-03-02 05:37:00,41.2,28.8,30.16,SSW,193,6.0,6.0,61,0.00,,---,0.00,VWS V14.00,2013-03-02 13:37:00,
2013-03-02 05:38:00,41.2,28.8,30.16,SSW,193,6.0,6.0,61,0.00,,---,0.00,VWS V14.00,2013-03-02 13:38:00,
2013-03-02 05:39:00,41.3,28.9,30.16,SSW,198,5.0,6.0,61,0.00,,---,0.00,VWS V14.00,2013-03-02 13:39:00,
2013-03-02 05:40:00,41.3,28.9,30.16,SSW,196,5.0,6.0,61,0.00,,---,0.00,VWS V14.00,2013-03-02 13:40:00,
2013-03-02 05:41:00,41.3,28.9,30.16,SSW,196,5.0,5.0,61,0.00,,---,0.00,VWS V14.00,2013-03-02 13:41:00,
2013-03-02 05:42:00,41.3,28.9,30.16,SSW,196,5.0,5.0,61,0.00,,---,0.00,VWS V14.00,2013-03-02 13:42:00,
2013-03-02 05:43:00,41.3,28.9,30.16,SSW,196,5.0,5.0,61,0.00,,---,0.00,VWS V14.00,2013-03-02 13:43:00,
2013-03-02 05:44:00,41.3,28.9,30.16,SSW,198,5.0,5.0,61,0.00,,---,0.00,VWS V14.00,2013-03-02 13:44:00,
2013-03-02 05:45:00,41.3,28.9,30.16,SSW,198,5.0,5.0,61,0.00,,---,0.00,VWS V14.00,2013-03-02 13:45:00,
2013-03-02 05:46:00,41.3,28.9,30.16,South,188,2.0,5.0,61,0.00,,---,0.00,VWS V14.00,2013-03-02 13:46:00,
2013-03-02 05:47:00,41.3,28.9,30.16,South,188,2.0,5.0,61,0.00,,---,0.00,VWS V14.00,2013-03-02 13:47:00,
2013-03-02 05:48:00,41.3,28.9,30.16,South,188,2.0,5.0,61,0.00,,---,0.00,VWS V14.00,2013-03-02 13:48:00,
2013-03-02 05:49:00,41.3,28.9,30.16,South,188,2.0,5.0,61,0.00,,---,0.00,VWS V14.00,2013-03-02 13:49:00,
2013-03-02 05:50:00,41.3,28.9,30.16,South,188,2.0,5.0,61,0.00,,---,0.00,VWS V14.00,2013-03-02 13:50:00,
2013-03-02 05:51:00,40.6,28.2,30.16,South,182,6.0,6.0,61,0.00,,---,0.00,VWS V14.00,2013-03-02 13:51:00,
2013-03-02 05:52:00,40.6,28.2,30.16,South,182,6.0,6.0,61,0.00,,---,0.00,VWS V14.00,2013-03-02 13:52:00,
2013-03-02 05:53:00,40.6,28.2,30.16,South,182,6.0,6.0,61,0.00,,---,0.00,VWS V14.00,2013-03-02 13:53:00,
2013-03-02 05:54:00,40.6,28.2,30.16,SSW,212,8.0,8.0,61,0.00,,---,0.00,VWS V14.00,2013-03-02 13:54:00,
2013-03-02 05:55:00,40.6,28.2,30.16,SSW,212,8.0,8.0,61,0.00,,---,0.00,VWS V14.00,2013-03-02 13:55:00,
2013-03-02 05:56:00,40.6,28.2,30.16,SSW,212,8.0,8.0,61,0.00,,---,0.00,VWS V14.00,2013-03-02 13:56:00,
2013-03-02 05:57:00,40.6,28.2,30.16,SSW,212,8.0,8.0,61,0.00,,---,0.00,VWS V14.00,2013-03-02 13:57:00,
2013-03-02 05:58:00,40.6,28.2,30.16,SSW,212,8.0,8.0,61,0.00,,---,0.00,VWS V14.00,2013-03-02 13:58:00,
2013-03-02 05:59:00,40.6,28.2,30.16,SSW,212,8.0,8.0,61,0.00,,---,0.00,VWS V14.00,2013-03-02 13:59:00,
2013-03-02 06:00:00,40.6,28.2,30.16,SSW,198,5.0,8.0,61,0.00,,---,0.00,VWS V14.00,2013-03-02 14:00:00,
2013-03-02 06:01:00,40.6,28.2,30.16,South,185,9.0,9.0,61,0.00,,---,0.00,VWS V14.00,2013-03-02 14:01:00,
2013-03-02 06:02:00,40.6,28.2,30.16,South,185,9.0,9.0,61,0.00,,---,0.00,VWS V14.00,2013-03-02 14:02:00,
2013-03-02 06:03:00,40.6,28.2,30.16,SSW,213,8.0,9.0,61,0.00,,---,0.00,VWS V14.00,2013-03-02 14:03:00,
2013-03-02 06:04:00,40.6,28.2,30.16,South,184,2.0,9.0,61,0.00,,---,0.00,VWS V14.00,2013-03-02 14:04:00,
2013-03-02 06:05:00,40.6,28.2,30.16,South,184,2.0,9.0,61,0.00,,---,0.00,VWS V14.00,2013-03-02 14:05:00,
2013-03-02 06:06:00,40.8,28.4,30.16,South,188,7.0,9.0,61,0.00,,---,0.00,VWS V14.00,2013-03-02 14:06:00,
2013-03-02 06:07:00,40.8,28.4,30.16,South,188,7.0,9.0,61,0.00,,---,0.00,VWS V14.00,2013-03-02 14:07:00,
2013-03-02 06:08:00,40.8,28.4,30.16,South,188,7.0,9.0,61,0.00,,---,0.00,VWS V14.00,2013-03-02 14:08:00,
2013-03-02 06:09:00,40.8,28.4,30.16,SSW,193,5.0,9.0,61,0.00,,---,0.00,VWS V14.00,2013-03-02 14:09:00,
2013-03-02 06:10:00,40.8,28.4,30.16,SSW,193,5.0,5.0,61,0.00,,---,0.00,VWS V14.00,2013-03-02 14:10:00,
2013-03-02 06:11:00,40.8,28.4,30.16,SSW,193,5.0,5.0,61,0.00,,---,0.00,VWS V14.00,2013-03-02 14:11:00,
2013-03-02 06:12:00,40.8,28.4,30.16,SSW,199,5.0,5.0,61,0.00,,---,0.00,VWS V14.00,2013-03-02 14:12:00,
2013-03-02 06:13:00,40.8,28.4,30.16,SSW,199,5.0,5.0,61,0.00,,---,0.00,VWS V14.00,2013-03-02 14:13:00,
2013-03-02 06:14:00,40.8,28.4,30.17,SSW,199,5.0,5.0,61,0.00,,---,0.00,VWS V14.00,2013-03-02 14:14:00,
2013-03-02 06:15:00,41.8,29.4,30.17,SSW,202,2.0,5.0,61,0.00,,---,0.00,VWS V14.00,2013-03-02 14:15:00,
2013-03-02 06:16:00,41.8,29.4,30.17,SSW,202,2.0,5.0,61,0.00,,---,0.00,VWS V14.00,2013-03-02 14:16:00,
2013-03-02 06:17:00,41.8,29.4,30.17,SSW,206,8.0,8.0,61,0.00,,---,0.00,VWS V14.00,2013-03-02 14:17:00,
2013-03-02 06:18:00,41.8,29.4,30.17,SSW,206,8.0,8.0,61,0.00,,---,0.00,VWS V14.00,2013-03-02 14:18:00,
2013-03-02 06:19:00,41.8,29.4,30.17,SSW,206,8.0,8.0,61,0.00,,---,0.00,VWS V14.00,2013-03-02 14:19:00,
2013-03-02 06:20:00,41.8,29.4,30.17,SSW,206,8.0,8.0,61,0.00,,---,0.00,VWS V14.00,2013-03-02 14:20:00,
2013-03-02 06:21:00,41.8,29.4,30.17,SSW,206,8.0,8.0,61,0.00,,---,0.00,VWS V14.00,2013-03-02 14:21:00,
2013-03-02 06:22:00,41.8,29.4,30.17,SSW,206,6.0,9.0,61,0.00,,---,0.00,VWS V14.00,2013-03-02 14:22:00,
2013-03-02 06:23:00,41.8,29.4,30.17,South,185,10.0,10.0,61,0.00,,---,0.00,VWS V14.00,2013-03-02 14:23:00,
2013-03-02 06:24:00,41.8,29.4,30.17,SSW,213,11.0,11.0,61,0.00,,---,0.00,VWS V14.00,2013-03-02 14:24:00,
2013-03-02 06:25:00,41.8,29.8,30.17,SSW,206,5.0,11.0,62,0.00,,---,0.00,VWS V14.00,2013-03-02 14:25:00,
2013-03-02 06:26:00,41.8,29.8,30.17,SSW,210,5.0,11.0,62,0.00,,---,0.00,VWS V14.00,2013-03-02 14:26:00,
2013-03-02 06:27:00,41.5,29.5,30.17,SSW,198,7.0,11.0,62,0.00,,---,0.00,VWS V14.00,2013-03-02 14:27:00,
2013-03-02 06:28:00,41.5,29.5,30.17,South,179,16.0,16.0,62,0.00,,---,0.00,VWS V14.00,2013-03-02 14:28:00,
2013-03-02 06:29:00,41.5,29.5,30.17,SSW,198,8.0,16.0,62,0.00,,---,0.00,VWS V14.00,2013-03-02 14:29:00,
2013-03-02 06:30:00,41.5,29.5,30.16,SSW,208,9.0,16.0,62,0.00,,---,0.00,VWS V14.00,2013-03-02 14:30:00,
2013-03-02 06:31:00,41.5,29.5,30.16,SSW,208,9.0,9.0,62,0.00,,---,0.00,VWS V14.00,2013-03-02 14:31:00,
2013-03-02 06:32:00,41.5,29.5,30.16,SSW,208,9.0,9.0,62,0.00,,---,0.00,VWS V14.00,2013-03-02 14:32:00,
2013-03-02 06:33:00,41.5,29.5,30.16,South,191,12.0,12.0,62,0.00,,---,0.00,VWS V14.00,2013-03-02 14:33:00,
2013-03-02 06:34:00,41.5,29.5,30.16,SSW,212,12.0,14.0,62,0.00,,---,0.00,VWS V14.00,2013-03-02 14:34:00,
2013-03-02 06:35:00,41.5,29.5,30.16,SSW,212,12.0,14.0,62,0.00,,---,0.00,VWS V14.00,2013-03-02 14:35:00,
2013-03-02 06:36:00,41.5,29.5,30.16,SSW,202,6.0,14.0,62,0.00,,---,0.00,VWS V14.00,2013-03-02 14:36:00,
2013-03-02 06:37:00,41.5,29.5,30.16,SSW,192,7.0,14.0,62,0.00,,---,0.00,VWS V14.00,2013-03-02 14:37:00,
2013-03-02 06:38:00,41.5,29.5,30.16,SW,219,8.0,14.0,62,0.00,,---,0.00,VWS V14.00,2013-03-02 14:38:00,
2013-03-02 06:39:00,41.5,29.5,30.16,SW,219,8.0,14.0,62,0.00,,---,0.00,VWS V14.00,2013-03-02 14:39:00,
2013-03-02 06:40:00,41.5,29.5,30.16,SSW,210,2.0,14.0,62,0.00,,---,0.00,VWS V14.00,2013-03-02 14:40:00,
2013-03-02 06:41:00,41.5,29.5,30.16,SSW,199,8.0,8.0,62,0.00,,---,0.00,VWS V14.00,2013-03-02 14:41:00,
2013-03-02 06:42:00,41.5,29.5,30.16,SSW,199,8.0,8.0,62,0.00,,---,0.00,VWS V14.00,2013-03-02 14:42:00,
2013-03-02 06:43:00,41.5,29.5,30.16,SSW,199,8.0,8.0,62,0.00,,---,0.00,VWS V14.00,2013-03-02 14:43:00,
2013-03-02 06:44:00,41.5,29.5,30.16,SSW,199,8.0,8.0,62,0.00,,---,0.00,VWS V14.00,2013-03-02 14:44:00,
2013-03-02 06:45:00,41.5,29.5,30.16,SSW,199,8.0,8.0,62,0.00,,---,0.00,VWS V14.00,2013-03-02 14:45:00,
2013-03-02 06:46:00,41.5,29.5,30.16,South,188,9.0,9.0,62,0.00,,---,0.00,VWS V14.00,2013-03-02 14:46:00,
2013-03-02 06:47:00,41.9,29.9,30.16,SSW,199,10.0,11.0,62,0.00,,---,0.00,VWS V14.00,2013-03-02 14:47:00,
2013-03-02 06:48:00,41.9,29.9,30.16,South,185,12.0,16.0,62,0.00,,---,0.00,VWS V14.00,2013-03-02 14:48:00,
2013-03-02 06:49:00,41.9,29.9,30.16,WSW,248,2.0,16.0,62,0.00,,---,0.00,VWS V14.00,2013-03-02 14:49:00,
2013-03-02 06:50:00,41.9,29.9,30.16,WSW,248,2.0,16.0,62,0.00,,---,0.00,VWS V14.00,2013-03-02 14:50:00,
2013-03-02 06:51:00,41.9,29.9,30.16,WSW,248,2.0,2.0,62,0.00,,---,0.00,VWS V14.00,2013-03-02 14:51:00,
2013-03-02 06:52:00,42.2,30.1,30.16,SSW,195,5.0,5.0,62,0.00,,---,0.00,VWS V14.00,2013-03-02 14:52:00,
2013-03-02 06:53:00,42.2,30.1,30.16,SSW,195,5.0,5.0,62,0.00,,---,0.00,VWS V14.00,2013-03-02 14:53:00,
2013-03-02 06:54:00,42.2,30.1,30.16,SSW,195,5.0,5.0,62,0.00,,---,0.00,VWS V14.00,2013-03-02 14:54:00,
2013-03-02 06:55:00,42.2,30.1,30.16,SSW,195,5.0,5.0,62,0.00,,---,0.00,VWS V14.00,2013-03-02 14:55:00,
2013-03-02 06:56:00,42.3,30.2,30.16,SSW,212,8.0,11.0,62,0.00,,---,0.00,VWS V14.00,2013-03-02 14:56:00,
2013-03-02 06:57:00,42.5,30.4,30.16,South,188,14.0,14.0,62,0.00,,---,0.00,VWS V14.00,2013-03-02 14:57:00,
2013-03-02 06:58:00,42.5,30.4,30.16,South,188,14.0,14.0,62,0.00,,---,0.00,VWS V14.00,2013-03-02 14:58:00,
2013-03-02 06:59:00,42.5,30.4,30.16,South,186,11.0,14.0,62,0.00,,---,0.00,VWS V14.00,2013-03-02 14:59:00,
2013-03-02 07:00:00,42.5,30.4,30.16,South,186,11.0,14.0,62,0.00,,---,0.00,VWS V14.00,2013-03-02 15:00:00,
2013-03-02 07:01:00,42.5,30.4,30.16,South,186,11.0,11.0,62,0.00,,---,0.00,VWS V14.00,2013-03-02 15:01:00,
2013-03-02 07:02:00,42.6,30.5,30.16,SSW,195,14.0,14.0,62,0.00,,---,0.00,VWS V14.00,2013-03-02 15:02:00,
2013-03-02 07:03:00,42.8,30.7,30.16,SSW,195,10.0,14.0,62,0.00,,---,0.00,VWS V14.00,2013-03-02 15:03:00,
2013-03-02 07:04:00,42.8,30.7,30.16,SSW,195,12.0,14.0,62,0.00,,---,0.00,VWS V14.00,2013-03-02 15:04:00,
2013-03-02 07:05:00,42.8,30.7,30.16,SSW,195,12.0,14.0,62,0.00,,---,0.00,VWS V14.00,2013-03-02 15:05:00,
2013-03-02 07:06:00,42.8,29.5,30.16,South,188,11.0,14.0,59,0.00,,---,0.00,VWS V14.00,2013-03-02 15:06:00,
2013-03-02 07:07:00,43.2,29.0,30.16,SSW,205,7.0,14.0,57,0.00,,---,0.00,VWS V14.00,2013-03-02 15:07:00,
2013-03-02 07:08:00,43.2,29.0,30.16,SSW,205,7.0,14.0,57,0.00,,---,0.00,VWS V14.00,2013-03-02 15:08:00,
2013-03-02 07:09:00,43.2,29.0,30.16,SSW,205,9.0,14.0,57,0.00,,---,0.00,VWS V14.00,2013-03-02 15:09:00,
2013-03-02 07:10:00,43.2,29.0,30.16,SSW,202,11.0,14.0,57,0.00,,---,0.00,VWS V14.00,2013-03-02 15:10:00,
2013-03-02 07:11:00,43.5,29.3,30.16,South,186,17.0,19.0,57,0.00,,---,0.00,VWS V14.00,2013-03-02 15:11:00,
2013-03-02 07:12:00,43.5,29.3,30.16,South,189,11.0,19.0,57,0.00,,---,0.00,VWS V14.00,2013-03-02 15:12:00,
2013-03-02 07:13:00,43.5,29.3,30.16,South,189,11.0,19.0,57,0.00,,---,0.00,VWS V14.00,2013-03-02 15:13:00,
2013-03-02 07:14:00,43.6,29.4,30.16,SSW,195,11.0,19.0,57,0.00,,---,0.00,VWS V14.00,2013-03-02 15:14:00,
2013-03-02 07:15:00,43.6,29.4,30.14,SSW,195,11.0,19.0,57,0.00,,---,0.00,VWS V14.00,2013-03-02 15:15:00,
2013-03-02 07:16:00,43.9,29.7,30.14,SSW,209,6.0,19.0,57,0.00,,---,0.00,VWS V14.00,2013-03-02 15:16:00,
2013-03-02 07:17:00,43.9,29.7,30.14,SSW,203,10.0,19.0,57,0.00,,---,0.00,VWS V14.00,2013-03-02 15:17:00,
2013-03-02 07:18:00,43.9,29.7,30.14,SW,219,9.0,19.0,57,0.00,,---,0.00,VWS V14.00,2013-03-02 15:18:00,
2013-03-02 07:19:00,43.9,29.7,30.14,SW,219,9.0,19.0,57,0.00,,---,0.00,VWS V14.00,2013-03-02 15:19:00,
2013-03-02 07:20:00,43.9,29.7,30.14,SW,219,9.0,19.0,57,0.00,,---,0.00,VWS V14.00,2013-03-02 15:20:00,
2013-03-02 07:21:00,43.9,29.7,30.14,SW,219,9.0,9.0,57,0.00,,---,0.00,VWS V14.00,2013-03-02 15:21:00,
2013-03-02 07:22:00,43.9,29.7,30.14,SW,219,9.0,9.0,57,0.00,,---,0.00,VWS V14.00,2013-03-02 15:22:00,
2013-03-02 07:23:00,43.9,29.7,30.14,SW,219,9.0,9.0,57,0.00,,---,0.00,VWS V14.00,2013-03-02 15:23:00,
2013-03-02 07:24:00,43.9,29.7,30.14,SW,219,9.0,9.0,57,0.00,,---,0.00,VWS V14.00,2013-03-02 15:24:00,
2013-03-02 07:25:00,44.5,30.2,30.14,SW,215,1.0,9.0,57,0.00,,---,0.00,VWS V14.00,2013-03-02 15:25:00,
2013-03-02 07:26:00,44.5,30.2,30.14,SW,215,1.0,9.0,57,0.00,,---,0.00,VWS V14.00,2013-03-02 15:26:00,
2013-03-02 07:27:00,44.5,30.2,30.14,SW,215,1.0,9.0,57,0.00,,---,0.00,VWS V14.00,2013-03-02 15:27:00,
2013-03-02 07:28:00,44.6,30.3,30.14,SSW,195,5.0,9.0,57,0.00,,---,0.00,VWS V14.00,2013-03-02 15:28:00,
2013-03-02 07:29:00,44.8,30.5,30.14,SSW,196,4.0,9.0,57,0.00,,---,0.00,VWS V14.00,2013-03-02 15:29:00,
2013-03-02 07:30:00,44.8,30.5,30.14,SSW,209,3.0,9.0,57,0.00,,---,0.00,VWS V14.00,2013-03-02 15:30:00,
2013-03-02 07:31:00,44.8,30.5,30.14,SSW,209,4.0,4.0,57,0.00,,---,0.00,VWS V14.00,2013-03-02 15:31:00,
2013-03-02 07:32:00,44.8,30.5,30.14,SSW,209,4.0,4.0,57,0.00,,---,0.00,VWS V14.00,2013-03-02 15:32:00,
2013-03-02 07:33:00,44.9,30.6,30.14,South,188,3.0,6.0,57,0.00,,---,0.00,VWS V14.00,2013-03-02 15:33:00,
2013-03-02 07:34:00,45.1,30.4,30.14,SSW,195,5.0,6.0,56,0.00,,---,0.00,VWS V14.00,2013-03-02 15:34:00,
2013-03-02 07:35:00,45.1,30.4,30.14,SSW,208,5.0,8.0,56,0.00,,---,0.00,VWS V14.00,2013-03-02 15:35:00,
2013-03-02 07:36:00,45.1,30.4,30.14,SSW,209,7.0,8.0,56,0.00,,---,0.00,VWS V14.00,2013-03-02 15:36:00,
2013-03-02 07:37:00,45.2,30.5,30.14,SSW,193,10.0,10.0,56,0.00,,---,0.00,VWS V14.00,2013-03-02 15:37:00,
2013-03-02 07:38:00,45.2,30.9,30.14,South,189,5.0,10.0,57,0.00,,---,0.00,VWS V14.00,2013-03-02 15:38:00,
2013-03-02 07:39:00,45.2,30.9,30.14,South,189,5.0,10.0,57,0.00,,---,0.00,VWS V14.00,2013-03-02 15:39:00,
2013-03-02 07:40:00,45.2,30.9,30.14,SSW,199,4.0,10.0,57,0.00,,---,0.00,VWS V14.00,2013-03-02 15:40:00,
2013-03-02 07:41:00,45.5,31.2,30.14,SSW,193,6.0,6.0,57,0.00,,---,0.00,VWS V14.00,2013-03-02 15:41:00,
2013-03-02 07:42:00,45.5,31.2,30.14,South,186,11.0,11.0,57,0.00,,---,0.00,VWS V14.00,2013-03-02 15:42:00,
2013-03-02 07:43:00,45.5,31.2,30.14,South,191,8.0,11.0,57,0.00,,---,0.00,VWS V14.00,2013-03-02 15:43:00,
2013-03-02 07:44:00,45.5,31.2,30.14,South,191,8.0,11.0,57,0.00,,---,0.00,VWS V14.00,2013-03-02 15:44:00,
2013-03-02 07:45:00,45.5,31.2,30.14,South,182,5.0,12.0,57,0.00,,---,0.00,VWS V14.00,2013-03-02 15:45:00,
2013-03-02 07:46:00,45.5,31.2,30.14,SSW,200,5.0,12.0,57,0.00,,---,0.00,VWS V14.00,2013-03-02 15:46:00,
2013-03-02 07:47:00,45.5,31.2,30.14,SSW,203,5.0,12.0,57,0.00,,---,0.00,VWS V14.00,2013-03-02 15:47:00,
2013-03-02 07:48:00,45.5,31.2,30.14,SSW,209,5.0,12.0,57,0.00,,---,0.00,VWS V14.00,2013-03-02 15:48:00,
2013-03-02 07:49:00,45.7,31.4,30.14,SSW,205,7.0,12.0,57,0.00,,---,0.00,VWS V14.00,2013-03-02 15:49:00,
2013-03-02 07:50:00,45.7,31.4,30.14,SSW,203,7.0,8.0,57,0.00,,---,0.00,VWS V14.00,2013-03-02 15:50:00,
2013-03-02 07:51:00,45.7,31.4,30.14,South,189,7.0,10.0,57,0.00,,---,0.00,VWS V14.00,2013-03-02 15:51:00,
2013-03-02 07:52:00,45.7,31.4,30.14,SW,227,8.0,10.0,57,0.00,,---,0.00,VWS V14.00,2013-03-02 15:52:00,
2013-03-02 07:53:00,45.7,30.9,30.14,SSW,193,7.0,10.0,56,0.00,,---,0.00,VWS V14.00,2013-03-02 15:53:00,
2013-03-02 07:54:00,45.7,30.9,30.14,SSW,192,12.0,13.0,56,0.00,,---,0.00,VWS V14.00,2013-03-02 15:54:00,
2013-03-02 07:55:00,45.7,30.9,30.14,SSW,200,13.0,13.0,56,0.00,,---,0.00,VWS V14.00,2013-03-02 15:55:00,
2013-03-02 07:56:00,45.7,30.9,30.14,SSW,210,9.0,14.0,56,0.00,,---,0.00,VWS V14.00,2013-03-02 15:56:00,
2013-03-02 07:57:00,45.7,30.9,30.14,SSW,198,5.0,14.0,56,0.00,,---,0.00,VWS V14.00,2013-03-02 15:57:00,
2013-03-02 07:58:00,45.7,30.9,30.14,SW,229,5.0,14.0,56,0.00,,---,0.00,VWS V14.00,2013-03-02 15:58:00,
2013-03-02 07:59:00,45.7,30.9,30.14,SSW,202,7.0,14.0,56,0.00,,---,0.00,VWS V14.00,2013-03-02 15:59:00,
2013-03-02 08:00:00,45.8,31.0,30.13,SSW,202,4.0,14.0,56,0.00,,---,0.00,VWS V14.00,2013-03-02 16:00:00,
2013-03-02 08:01:00,46.0,30.3,30.13,SSW,202,5.0,10.0,54,0.00,,---,0.00,VWS V14.00,2013-03-02 16:01:00,
2013-03-02 08:02:00,46.1,30.4,30.13,SW,222,6.0,10.0,54,0.00,,---,0.00,VWS V14.00,2013-03-02 16:02:00,
2013-03-02 08:03:00,46.1,30.4,30.13,SSW,192,12.0,12.0,54,0.00,,---,0.00,VWS V14.00,2013-03-02 16:03:00,
2013-03-02 08:04:00,46.2,30.5,30.13,SSW,192,12.0,13.0,54,0.00,,---,0.00,VWS V14.00,2013-03-02 16:04:00,
2013-03-02 08:05:00,46.2,30.5,30.13,SSW,198,5.0,13.0,54,0.00,,---,0.00,VWS V14.00,2013-03-02 16:05:00,
2013-03-02 08:06:00,46.4,30.7,30.13,SSW,198,5.0,13.0,54,0.00,,---,0.00,VWS V14.00,2013-03-02 16:06:00,
2013-03-02 08:07:00,46.4,31.6,30.13,SSW,200,6.0,13.0,56,0.00,,---,0.00,VWS V14.00,2013-03-02 16:07:00,
2013-03-02 08:08:00,46.5,31.7,30.13,SSW,208,3.0,13.0,56,0.00,,---,0.00,VWS V14.00,2013-03-02 16:08:00,
2013-03-02 08:09:00,46.5,30.8,30.13,SSW,205,3.0,13.0,54,0.00,,---,0.00,VWS V14.00,2013-03-02 16:09:00,
2013-03-02 08:10:00,46.4,30.7,30.13,South,189,5.0,13.0,54,0.00,,---,0.00,VWS V14.00,2013-03-02 16:10:00,
2013-03-02 08:11:00,46.4,30.7,30.13,West,281,0.0,5.0,54,0.00,,---,0.00,VWS V14.00,2013-03-02 16:11:00,
2013-03-02 08:12:00,46.5,31.2,30.13,SSW,202,5.0,6.0,55,0.00,,---,0.00,VWS V14.00,2013-03-02 16:12:00,
2013-03-02 08:13:00,46.5,31.2,30.13,SSW,212,7.0,7.0,55,0.00,,---,0.00,VWS V14.00,2013-03-02 16:13:00,
2013-03-02 08:14:00,46.8,31.5,30.12,SSW,192,2.0,8.0,55,0.00,,---,0.00,VWS V14.00,2013-03-02 16:14:00,
2013-03-02 08:15:00,47.0,30.8,30.12,SSW,192,3.0,8.0,53,0.00,,---,0.00,VWS V14.00,2013-03-02 16:15:00,
2013-03-02 08:16:00,47.0,30.3,30.12,SSW,195,3.0,8.0,52,0.00,,---,0.00,VWS V14.00,2013-03-02 16:16:00,
2013-03-02 08:17:00,47.3,30.6,30.12,SSW,195,5.0,8.0,52,0.00,,---,0.00,VWS V14.00,2013-03-02 16:17:00,
2013-03-02 08:18:00,47.4,30.2,30.12,SSW,195,5.0,8.0,51,0.00,,---,0.00,VWS V14.00,2013-03-02 16:18:00,
2013-03-02 08:19:00,47.6,30.9,30.12,SSW,199,5.0,8.0,52,0.00,,---,0.00,VWS V14.00,2013-03-02 16:19:00,
2013-03-02 08:20:00,47.7,31.0,30.12,SSW,199,4.0,8.0,52,0.00,,---,0.00,VWS V14.00,2013-03-02 16:20:00,
2013-03-02 08:21:00,47.9,31.6,30.12,SSW,198,7.0,7.0,53,0.00,,---,0.00,VWS V14.00,2013-03-02 16:21:00,
2013-03-02 08:22:00,48.2,30.5,30.12,SSW,195,5.0,7.0,50,0.00,,---,0.00,VWS V14.00,2013-03-02 16:22:00,
2013-03-02 08:23:00,48.3,30.5,30.12,SSW,199,6.0,7.0,50,0.00,,---,0.00,VWS V14.00,2013-03-02 16:23:00,
2013-03-02 08:24:00,48.5,29.7,30.12,SSW,192,10.0,11.0,48,0.00,,---,0.00,VWS V14.00,2013-03-02 16:24:00,
2013-03-02 08:25:00,48.6,30.8,30.12,SSW,198,7.0,11.0,50,0.00,,---,0.00,VWS V14.00,2013-03-02 16:25:00,
2013-03-02 08:26:00,48.8,31.0,30.12,South,191,6.0,12.0,50,0.00,,---,0.00,VWS V14.00,2013-03-02 16:26:00,
2013-03-02 08:27:00,48.9,31.1,30.12,South,179,7.0,12.0,50,0.00,,---,0.00,VWS V14.00,2013-03-02 16:27:00,
2013-03-02 08:28:00,49.1,31.3,30.12,South,182,6.0,12.0,50,0.00,,---,0.00,VWS V14.00,2013-03-02 16:28:00,
2013-03-02 08:29:00,49.2,31.4,30.10,South,188,5.0,12.0,50,0.00,,---,0.00,VWS V14.00,2013-03-02 16:29:00,
2013-03-02 08:30:00,49.4,31.6,30.10,SSW,193,6.0,12.0,50,0.00,,---,0.00,VWS V14.00,2013-03-02 16:30:00,
2013-03-02 08:31:00,49.4,30.0,30.10,SSW,196,7.0,8.0,47,0.00,,---,0.00,VWS V14.00,2013-03-02 16:31:00,
2013-03-02 08:32:00,49.5,30.1,30.10,South,191,5.0,12.0,47,0.00,,---,0.00,VWS V14.00,2013-03-02 16:32:00,
2013-03-02 08:33:00,49.6,30.2,30.10,South,186,7.0,12.0,47,0.00,,---,0.00,VWS V14.00,2013-03-02 16:33:00,
2013-03-02 08:34:00,49.6,29.7,30.10,SSW,205,11.0,14.0,46,0.00,,---,0.00,VWS V14.00,2013-03-02 16:34:00,
2013-03-02 08:35:00,49.6,28.6,30.10,SSW,198,10.0,14.0,44,0.00,,---,0.00,VWS V14.00,2013-03-02 16:35:00,
2013-03-02 08:36:00,49.8,30.9,30.10,SSW,212,8.0,14.0,48,0.00,,---,0.00,VWS V14.00,2013-03-02 16:36:00,
2013-03-02 08:37:00,49.8,29.9,30.10,SSW,200,8.0,14.0,46,0.00,,---,0.00,VWS V14.00,2013-03-02 16:37:00,
2013-03-02 08:38:00,49.9,30.0,30.10,SSW,198,8.0,14.0,46,0.00,,---,0.00,VWS V14.00,2013-03-02 16:38:00,
2013-03-02 08:39:00,50.1,30.1,30.10,SSW,193,7.0,14.0,46,0.00,,---,0.00,VWS V14.00,2013-03-02 16:39:00,
2013-03-02 08:40:00,50.2,29.7,30.10,South,188,6.0,14.0,45,0.00,,---,0.00,VWS V14.00,2013-03-02 16:40:00,
2013-03-02 08:41:00,50.2,29.7,30.10,South,176,6.0,8.0,45,0.00,,---,0.00,VWS V14.00,2013-03-02 16:41:00,
2013-03-02 08:42:00,50.4,29.9,30.10,SSW,196,9.0,10.0,45,0.00,,---,0.00,VWS V14.00,2013-03-02 16:42:00,
2013-03-02 08:43:00,50.4,29.9,30.10,SSW,209,7.0,11.0,45,0.00,,---,0.00,VWS V14.00,2013-03-02 16:43:00,
2013-03-02 08:44:00,50.4,29.9,30.09,South,191,10.0,11.0,45,0.00,,---,0.00,VWS V14.00,2013-03-02 16:44:00,
2013-03-02 08:45:00,50.4,29.3,30.09,SSW,195,7.0,11.0,44,0.00,,---,0.00,VWS V14.00,2013-03-02 16:45:00,
2013-03-02 08:46:00,50.5,29.4,30.09,SSW,200,7.0,11.0,44,0.00,,---,0.00,VWS V14.00,2013-03-02 16:46:00,
2013-03-02 08:47:00,50.7,30.7,30.09,SSW,195,7.0,11.0,46,0.00,,---,0.00,VWS V14.00,2013-03-02 16:47:00,
2013-03-02 08:48:00,50.8,30.8,30.09,SW,217,10.0,11.0,46,0.00,,---,0.00,VWS V14.00,2013-03-02 16:48:00,
2013-03-02 08:49:00,50.8,30.8,30.09,South,185,11.0,11.0,46,0.00,,---,0.00,VWS V14.00,2013-03-02 16:49:00,
2013-03-02 08:50:00,51.0,30.4,30.09,SSW,193,6.0,11.0,45,0.00,,---,0.00,VWS V14.00,2013-03-02 16:50:00,
2013-03-02 08:51:00,51.0,29.9,30.09,South,179,8.0,11.0,44,0.00,,---,0.00,VWS V14.00,2013-03-02 16:51:00,
2013-03-02 08:52:00,51.0,29.9,30.09,SSW,196,7.0,11.0,44,0.00,,---,0.00,VWS V14.00,2013-03-02 16:52:00,
2013-03-02 08:53:00,51.1,30.5,30.09,South,191,6.0,11.0,45,0.00,,---,0.00,VWS V14.00,2013-03-02 16:53:00,
2013-03-02 08:54:00,51.3,30.7,30.09,South,188,5.0,11.0,45,0.00,,---,0.00,VWS V14.00,2013-03-02 16:54:00,
2013-03-02 08:55:00,51.3,30.7,30.09,SSW,192,10.0,11.0,45,0.00,,---,0.00,VWS V14.00,2013-03-02 16:55:00,
2013-03-02 08:56:00,51.4,30.2,30.09,South,186,10.0,11.0,44,0.00,,---,0.00,VWS V14.00,2013-03-02 16:56:00,
2013-03-02 08:57:00,51.6,28.7,30.09,SSW,196,8.0,11.0,41,0.00,,---,0.00,VWS V14.00,2013-03-02 16:57:00,
2013-03-02 08:58:00,51.4,29.1,30.09,SSW,212,7.0,13.0,42,0.00,,---,0.00,VWS V14.00,2013-03-02 16:58:00,
2013-03-02 08:59:00,51.7,29.9,30.09,SSW,206,6.0,13.0,43,0.00,,---,0.00,VWS V14.00,2013-03-02 16:59:00,
2013-03-02 09:00:00,51.7,29.9,30.07,South,188,4.0,13.0,43,0.00,,---,0.00,VWS V14.00,2013-03-02 17:00:00,
2013-03-02 09:01:00,51.7,29.9,30.07,SSW,198,7.0,12.0,43,0.00,,---,0.00,VWS V14.00,2013-03-02 17:01:00,
2013-03-02 09:02:00,51.9,29.5,30.07,South,189,8.0,12.0,42,0.00,,---,0.00,VWS V14.00,2013-03-02 17:02:00,
2013-03-02 09:03:00,51.9,30.7,30.07,SW,224,6.0,12.0,44,0.00,,---,0.00,VWS V14.00,2013-03-02 17:03:00,
2013-03-02 09:04:00,51.9,30.7,30.07,South,181,6.0,12.0,44,0.00,,---,0.00,VWS V14.00,2013-03-02 17:04:00,
2013-03-02 09:05:00,51.9,30.7,30.07,SW,217,8.0,12.0,44,0.00,,---,0.00,VWS V14.00,2013-03-02 17:05:00,
2013-03-02 09:06:00,52.0,30.2,30.07,South,188,9.0,12.0,43,0.00,,---,0.00,VWS V14.00,2013-03-02 17:06:00,
2013-03-02 09:07:00,52.0,30.8,30.07,South,188,7.0,12.0,44,0.00,,---,0.00,VWS V14.00,2013-03-02 17:07:00,
2013-03-02 09:08:00,52.2,31.0,30.07,SSW,199,5.0,12.0,44,0.00,,---,0.00,VWS V14.00,2013-03-02 17:08:00,
2013-03-02 09:09:00,52.2,31.0,30.07,SSW,195,11.0,13.0,44,0.00,,---,0.00,VWS V14.00,2013-03-02 17:09:00,
2013-03-02 09:10:00,52.0,30.8,30.07,SSW,210,9.0,14.0,44,0.00,,---,0.00,VWS V14.00,2013-03-02 17:10:00,
2013-03-02 09:11:00,52.0,29.6,30.07,SSW,196,8.0,9.0,42,0.00,,---,0.00,VWS V14.00,2013-03-02 17:11:00,
2013-03-02 09:12:00,52.0,29.6,30.07,SSW,208,10.0,12.0,42,0.00,,---,0.00,VWS V14.00,2013-03-02 17:12:00,
2013-03-02 09:13:00,52.0,30.2,30.07,South,191,7.0,12.0,43,0.00,,---,0.00,VWS V14.00,2013-03-02 17:13:00,
2013-03-02 09:14:00,52.0,30.2,30.06,South,186,13.0,13.0,43,0.00,,---,0.00,VWS V14.00,2013-03-02 17:14:00,
2013-03-02 09:15:00,52.0,29.0,30.06,SSW,199,7.0,13.0,41,0.00,,---,0.00,VWS V14.00,2013-03-02 17:15:00,
2013-03-02 09:16:00,52.0,29.0,30.06,SSW,193,8.0,13.0,41,0.00,,---,0.00,VWS V14.00,2013-03-02 17:16:00,
2013-03-02 09:17:00,52.0,29.0,30.06,South,189,10.0,13.0,41,0.00,,---,0.00,VWS V14.00,2013-03-02 17:17:00,
2013-03-02 09:18:00,51.9,29.5,30.06,SSW,195,7.0,13.0,42,0.00,,---,0.00,VWS V14.00,2013-03-02 17:18:00,
2013-03-02 09:19:00,52.0,30.8,30.06,SSW,199,8.0,13.0,44,0.00,,---,0.00,VWS V14.00,2013-03-02 17:19:00,
2013-03-02 09:20:00,52.0,30.8,30.06,SSW,195,10.0,13.0,44,0.00,,---,0.00,VWS V14.00,2013-03-02 17:20:00,
2013-03-02 09:21:00,52.0,30.8,30.06,South,181,7.0,11.0,44,0.00,,---,0.00,VWS V14.00,2013-03-02 17:21:00,
2013-03-02 09:22:00,51.9,30.1,30.06,SW,216,7.0,14.0,43,0.00,,---,0.00,VWS V14.00,2013-03-02 17:22:00,
2013-03-02 09:23:00,51.9,30.1,30.06,South,188,7.0,14.0,43,0.00,,---,0.00,VWS V14.00,2013-03-02 17:23:00,
2013-03-02 09:24:00,51.9,30.7,30.06,SSW,205,10.0,14.0,44,0.00,,---,0.00,VWS V14.00,2013-03-02 17:24:00,
2013-03-02 09:25:00,51.9,30.7,30.06,South,188,3.0,14.0,44,0.00,,---,0.00,VWS V14.00,2013-03-02 17:25:00,
2013-03-02 09:26:00,51.9,30.7,30.06,South,178,4.0,14.0,44,0.00,,---,0.00,VWS V14.00,2013-03-02 17:26:00,
2013-03-02 09:27:00,52.0,29.6,30.06,South,182,6.0,14.0,42,0.00,,---,0.00,VWS V14.00,2013-03-02 17:27:00,
2013-03-02 09:28:00,52.0,29.6,30.06,SSW,199,6.0,14.0,42,0.00,,---,0.00,VWS V14.00,2013-03-02 17:28:00,
2013-03-02 09:29:00,51.9,29.0,30.05,SSW,200,8.0,14.0,41,0.00,,---,0.00,VWS V14.00,2013-03-02 17:29:00,
2013-03-02 09:30:00,51.9,29.0,30.05,SSW,200,10.0,14.0,41,0.00,,---,0.00,VWS V14.00,2013-03-02 17:30:00,
2013-03-02 09:31:00,51.9,31.2,30.05,South,188,7.0,10.0,45,0.00,,---,0.00,VWS V14.00,2013-03-02 17:31:00,
2013-03-02 09:32:00,51.9,31.2,30.05,SW,216,3.0,10.0,45,0.00,,---,0.00,VWS V14.00,2013-03-02 17:32:00,
2013-03-02 09:33:00,51.9,31.2,30.05,SSW,192,10.0,10.0,45,0.00,,---,0.00,VWS V14.00,2013-03-02 17:33:00,
2013-03-02 09:34:00,51.9,30.1,30.05,SW,215,7.0,10.0,43,0.00,,---,0.00,VWS V14.00,2013-03-02 17:34:00,
2013-03-02 09:35:00,51.9,30.1,30.05,SSW,193,6.0,10.0,43,0.00,,---,0.00,VWS V14.00,2013-03-02 17:35:00,
2013-03-02 09:36:00,52.0,30.8,30.05,South,186,6.0,10.0,44,0.00,,---,0.00,VWS V14.00,2013-03-02 17:36:00,
2013-03-02 09:37:00,52.0,29.6,30.05,South,184,5.0,10.0,42,0.00,,---,0.00,VWS V14.00,2013-03-02 17:37:00,
2013-03-02 09:38:00,52.0,29.6,30.05,SSW,205,11.0,11.0,42,0.00,,---,0.00,VWS V14.00,2013-03-02 17:38:00,
2013-03-02 09:39:00,51.9,29.5,30.05,South,186,4.0,12.0,42,0.00,,---,0.00,VWS V14.00,2013-03-02 17:39:00,
2013-03-02 09:40:00,51.9,29.5,30.05,South,191,12.0,12.0,42,0.00,,---,0.00,VWS V14.00,2013-03-02 17:40:00,
2013-03-02 09:41:00,51.9,29.5,30.05,SSW,198,9.0,12.0,42,0.00,,---,0.00,VWS V14.00,2013-03-02 17:41:00,
2013-03-02 09:42:00,51.9,29.5,30.05,SSW,210,6.0,12.0,42,0.00,,---,0.00,VWS V14.00,2013-03-02 17:42:00,
2013-03-02 09:43:00,51.9,29.0,30.05,SW,219,6.0,12.0,41,0.00,,---,0.00,VWS V14.00,2013-03-02 17:43:00,
2013-03-02 09:44:00,51.9,29.0,30.05,SW,217,3.0,12.0,41,0.00,,---,0.00,VWS V14.00,2013-03-02 17:44:00,
2013-03-02 09:45:00,51.9,30.1,30.05,SSW,210,5.0,12.0,43,0.00,,---,0.00,VWS V14.00,2013-03-02 17:45:00,
2013-03-02 09:46:00,52.0,29.6,30.05,SSW,196,5.0,12.0,42,0.00,,---,0.00,VWS V14.00,2013-03-02 17:46:00,
2013-03-02 09:47:00,52.0,30.2,30.05,SSW,202,7.0,12.0,43,0.00,,---,0.00,VWS V14.00,2013-03-02 17:47:00,
2013-03-02 09:48:00,52.0,29.0,30.05,SSW,192,4.0,12.0,41,0.00,,---,0.00,VWS V14.00,2013-03-02 17:48:00,
2013-03-02 09:49:00,52.2,31.0,30.05,South,182,7.0,12.0,44,0.00,,---,0.00,VWS V14.00,2013-03-02 17:49:00,
2013-03-02 09:50:00,52.2,29.8,30.05,SW,219,5.0,12.0,42,0.00,,---,0.00,VWS V14.00,2013-03-02 17:50:00,
2013-03-02 09:51:00,52.2,29.8,30.05,SSW,200,5.0,7.0,42,0.00,,---,0.00,VWS V14.00,2013-03-02 17:51:00,
2013-03-02 09:52:00,52.3,29.9,30.05,SSW,198,7.0,10.0,42,0.00,,---,0.00,VWS V14.00,2013-03-02 17:52:00,
2013-03-02 09:53:00,52.3,29.3,30.05,South,188,7.0,10.0,41,0.00,,---,0.00,VWS V14.00,2013-03-02 17:53:00,
2013-03-02 09:54:00,52.3,29.3,30.05,SSW,196,5.0,10.0,41,0.00,,---,0.00,VWS V14.00,2013-03-02 17:54:00,
2013-03-02 09:55:00,52.3,29.3,30.05,South,191,8.0,10.0,41,0.00,,---,0.00,VWS V14.00,2013-03-02 17:55:00,
2013-03-02 09:56:00,52.3,29.3,30.05,South,189,3.0,10.0,41,0.00,,---,0.00,VWS V14.00,2013-03-02 17:56:00,
2013-03-02 09:57:00,52.3,29.3,30.05,South,182,10.0,10.0,41,0.00,,---,0.00,VWS V14.00,2013-03-02 17:57:00,
2013-03-02 09:58:00,52.3,29.3,30.05,SW,219,7.0,10.0,41,0.00,,---,0.00,VWS V14.00,2013-03-02 17:58:00,
2013-03-02 09:59:00,52.2,29.2,30.04,SSW,203,7.0,10.0,41,0.00,,---,0.00,VWS V14.00,2013-03-02 17:59:00,
2013-03-02 10:00:00,52.2,29.2,30.04,SSW,202,5.0,10.0,41,0.00,,---,0.00,VWS V14.00,2013-03-02 18:00:00,
2013-03-02 10:01:00,52.3,29.9,30.04,SSW,195,8.0,10.0,42,0.00,,---,0.00,VWS V14.00,2013-03-02 18:01:00,
2013-03-02 10:02:00,52.2,29.2,30.04,SSW,208,5.0,10.0,41,0.00,,---,0.00,VWS V14.00,2013-03-02 18:02:00,
2013-03-02 10:03:00,52.3,29.9,30.04,SSW,205,6.0,10.0,42,0.00,,---,0.00,VWS V14.00,2013-03-02 18:03:00,
2013-03-02 10:04:00,52.3,29.9,30.04,South,191,13.0,13.0,42,0.00,,---,0.00,VWS V14.00,2013-03-02 18:04:00,
2013-03-02 10:05:00,52.3,29.9,30.04,South,191,7.0,13.0,42,0.00,,---,0.00,VWS V14.00,2013-03-02 18:05:00,
2013-03-02 10:06:00,52.3,29.9,30.04,SSW,198,5.0,13.0,42,0.00,,---,0.00,VWS V14.00,2013-03-02 18:06:00,
2013-03-02 10:07:00,52.3,30.5,30.04,SSW,196,7.0,13.0,43,0.00,,---,0.00,VWS V14.00,2013-03-02 18:07:00,
2013-03-02 10:08:00,52.3,30.5,30.04,South,174,7.0,13.0,43,0.00,,---,0.00,VWS V14.00,2013-03-02 18:08:00,
2013-03-02 10:09:00,52.3,29.3,30.04,SSW,196,10.0,13.0,41,0.00,,---,0.00,VWS V14.00,2013-03-02 18:09:00,
2013-03-02 10:10:00,52.3,29.9,30.04,South,191,7.0,13.0,42,0.00,,---,0.00,VWS V14.00,2013-03-02 18:10:00,
2013-03-02 10:11:00,52.3,29.9,30.04,SSW,205,8.0,11.0,42,0.00,,---,0.00,VWS V14.00,2013-03-02 18:11:00,
2013-03-02 10:12:00,52.3,31.0,30.04,South,184,7.0,11.0,44,0.00,,---,0.00,VWS V14.00,2013-03-02 18:12:00,
2013-03-02 10:13:00,52.3,31.0,30.04,SSW,192,8.0,11.0,44,0.00,,---,0.00,VWS V14.00,2013-03-02 18:13:00,
2013-03-02 10:14:00,52.2,31.0,30.04,South,188,8.0,11.0,44,0.00,,---,0.00,VWS V14.00,2013-03-02 18:14:00,
2013-03-02 10:15:00,52.2,31.0,30.04,South,191,6.0,11.0,44,0.00,,---,0.00,VWS V14.00,2013-03-02 18:15:00,
2013-03-02 10:16:00,52.2,28.6,30.04,SSW,195,7.0,11.0,40,0.00,,---,0.00,VWS V14.00,2013-03-02 18:16:00,
2013-03-02 10:17:00,52.3,28.7,30.04,SSW,196,10.0,11.0,40,0.00,,---,0.00,VWS V14.00,2013-03-02 18:17:00,
2013-03-02 10:18:00,52.2,29.8,30.04,SSW,195,5.0,11.0,42,0.00,,---,0.00,VWS V14.00,2013-03-02 18:18:00,
2013-03-02 10:19:00,52.3,29.9,30.04,South,189,7.0,11.0,42,0.00,,---,0.00,VWS V14.00,2013-03-02 18:19:00,
2013-03-02 10:20:00,52.5,30.7,30.04,SSW,209,7.0,11.0,43,0.00,,---,0.00,VWS V14.00,2013-03-02 18:20:00,
2013-03-02 10:21:00,52.5,30.7,30.04,SSW,206,7.0,10.0,43,0.00,,---,0.00,VWS V14.00,2013-03-02 18:21:00,
2013-03-02 10:22:00,52.5,30.7,30.04,South,182,6.0,10.0,43,0.00,,---,0.00,VWS V14.00,2013-03-02 18:22:00,
2013-03-02 10:23:00,52.5,30.7,30.04,South,185,5.0,10.0,43,0.00,,---,0.00,VWS V14.00,2013-03-02 18:23:00,
2013-03-02 10:24:00,52.5,30.7,30.04,South,185,7.0,10.0,43,0.00,,---,0.00,VWS V14.00,2013-03-02 18:24:00,
2013-03-02 10:25:00,52.5,30.7,30.04,South,189,6.0,10.0,43,0.00,,---,0.00,VWS V14.00,2013-03-02 18:25:00,
2013-03-02 10:26:00,52.5,31.2,30.04,South,176,6.0,10.0,44,0.00,,---,0.00,VWS V14.00,2013-03-02 18:26:00,
2013-03-02 10:27:00,52.5,29.5,30.04,SSW,206,7.0,12.0,41,0.00,,---,0.00,VWS V14.00,2013-03-02 18:27:00,
2013-03-02 10:28:00,52.5,30.7,30.04,SSW,192,6.0,12.0,43,0.00,,---,0.00,VWS V14.00,2013-03-02 18:28:00,
2013-03-02 10:29:00,52.5,30.7,30.04,SSW,202,11.0,12.0,43,0.00,,---,0.00,VWS V14.00,2013-03-02 18:29:00,
2013-03-02 10:30:00,52.5,30.7,30.03,SW,224,8.0,12.0,43,0.00,,---,0.00,VWS V14.00,2013-03-02 18:30:00,
2013-03-02 10:31:00,52.5,30.7,30.03,South,188,7.0,13.0,43,0.00,,---,0.00,VWS V14.00,2013-03-02 18:31:00,
2013-03-02 10:32:00,52.3,30.5,30.03,SSW,198,6.0,14.0,43,0.00,,---,0.00,VWS V14.00,2013-03-02 18:32:00,
2013-03-02 10:33:00,52.5,30.7,30.03,South,176,7.0,14.0,43,0.00,,---,0.00,VWS V14.00,2013-03-02 18:33:00,
2013-03-02 10:34:00,52.3,30.5,30.03,SSW,196,10.0,14.0,43,0.00,,---,0.00,VWS V14.00,2013-03-02 18:34:00,
2013-03-02 10:35:00,52.3,30.5,30.03,SSW,193,6.0,14.0,43,0.00,,---,0.00,VWS V14.00,2013-03-02 18:35:00,
2013-03-02 10:36:00,52.3,30.5,30.03,SSW,193,4.0,14.0,43,0.00,,---,0.00,VWS V14.00,2013-03-02 18:36:00,
2013-03-02 10:37:00,52.5,30.7,30.03,South,189,8.0,14.0,43,0.00,,---,0.00,VWS V14.00,2013-03-02 18:37:00,
2013-03-02 10:38:00,52.5,29.5,30.03,SSW,196,5.0,14.0,41,0.00,,---,0.00,VWS V14.00,2013-03-02 18:38:00,
2013-03-02 10:39:00,52.6,29.6,30.03,SSW,193,5.0,14.0,41,0.00,,---,0.00,VWS V14.00,2013-03-02 18:39:00,
2013-03-02 10:40:00,52.6,29.6,30.03,South,184,5.0,14.0,41,0.00,,---,0.00,VWS V14.00,2013-03-02 18:40:00,
2013-03-02 10:41:00,52.6,30.8,30.03,South,186,8.0,8.0,43,0.00,,---,0.00,VWS V14.00,2013-03-02 18:41:00,
2013-03-02 10:42:00,52.6,30.8,30.03,SSW,195,12.0,12.0,43,0.00,,---,0.00,VWS V14.00,2013-03-02 18:42:00,
2013-03-02 10:43:00,52.6,30.8,30.03,SW,217,6.0,12.0,43,0.00,,---,0.00,VWS V14.00,2013-03-02 18:43:00,
2013-03-02 10:44:00,52.6,30.2,30.03,SSW,213,5.0,12.0,42,0.00,,---,0.00,VWS V14.00,2013-03-02 18:44:00,
2013-03-02 10:45:00,52.6,31.3,30.03,SSW,192,7.0,12.0,44,0.00,,---,0.00,VWS V14.00,2013-03-02 18:45:00,
2013-03-02 10:46:00,52.6,31.3,30.03,SSW,195,10.0,12.0,44,0.00,,---,0.00,VWS V14.00,2013-03-02 18:46:00,
2013-03-02 10:47:00,52.6,30.2,30.03,South,186,5.0,12.0,42,0.00,,---,0.00,VWS V14.00,2013-03-02 18:47:00,
2013-03-02 10:48:00,52.5,30.1,30.03,SSW,193,7.0,12.0,42,0.00,,---,0.00,VWS V14.00,2013-03-02 18:48:00,
2013-03-02 10:49:00,52.5,30.1,30.03,South,179,8.0,12.0,42,0.00,,---,0.00,VWS V14.00,2013-03-02 18:49:00,
2013-03-02 10:50:00,52.6,30.2,30.03,SSW,193,5.0,12.0,42,0.00,,---,0.00,VWS V14.00,2013-03-02 18:50:00,
2013-03-02 10:51:00,52.6,30.2,30.03,SSW,193,7.0,8.0,42,0.00,,---,0.00,VWS V14.00,2013-03-02 18:51:00,
2013-03-02 10:52:00,52.6,29.6,30.03,SW,226,6.0,8.0,41,0.00,,---,0.00,VWS V14.00,2013-03-02 18:52:00,
2013-03-02 10:53:00,52.8,30.9,30.03,SSW,209,7.0,8.0,43,0.00,,---,0.00,VWS V14.00,2013-03-02 18:53:00,
2013-03-02 10:54:00,52.8,30.9,30.03,South,178,7.0,10.0,43,0.00,,---,0.00,VWS V14.00,2013-03-02 18:54:00,
2013-03-02 10:55:00,52.8,30.9,30.03,SSW,203,5.0,10.0,43,0.00,,---,0.00,VWS V14.00,2013-03-02 18:55:00,
2013-03-02 10:56:00,52.8,29.8,30.03,SSW,196,12.0,17.0,41,0.00,,---,0.00,VWS V14.00,2013-03-02 18:56:00,
2013-03-02 10:57:00,52.6,29.6,30.03,South,174,5.0,17.0,41,0.00,,---,0.00,VWS V14.00,2013-03-02 18:57:00,
2013-03-02 10:58:00,52.6,29.6,30.03,SSW,192,8.0,17.0,41,0.00,,---,0.00,VWS V14.00,2013-03-02 18:58:00,
2013-03-02 10:59:00,52.8,29.8,30.03,South,191,6.0,17.0,41,0.00,,---,0.00,VWS V14.00,2013-03-02 18:59:00,
2013-03-02 11:00:00,52.8,30.4,30.03,South,184,7.0,17.0,42,0.00,,---,0.00,VWS V14.00,2013-03-02 19:00:00,
2013-03-02 11:01:00,52.8,30.4,30.03,South,191,6.0,7.0,42,0.00,,---,0.00,VWS V14.00,2013-03-02 19:01:00,
2013-03-02 11:02:00,52.8,29.2,30.03,SSW,193,7.0,7.0,40,0.00,,---,0.00,VWS V14.00,2013-03-02 19:02:00,
2013-03-02 11:03:00,52.8,29.2,30.03,South,171,6.0,7.0,40,0.00,,---,0.00,VWS V14.00,2013-03-02 19:03:00,
2013-03-02 11:04:00,52.8,29.2,30.03,SSW,202,3.0,10.0,40,0.00,,---,0.00,VWS V14.00,2013-03-02 19:04:00,
2013-03-02 11:05:00,52.8,29.2,30.03,SSW,203,6.0,10.0,40,0.00,,---,0.00,VWS V14.00,2013-03-02 19:05:00,
2013-03-02 11:06:00,52.8,29.8,30.03,SSW,193,8.0,10.0,41,0.00,,---,0.00,VWS V14.00,2013-03-02 19:06:00,
2013-03-02 11:07:00,52.8,29.8,30.03,South,191,3.0,10.0,41,0.00,,---,0.00,VWS V14.00,2013-03-02 19:07:00,
2013-03-02 11:08:00,52.8,29.8,30.03,South,175,7.0,10.0,41,0.00,,---,0.00,VWS V14.00,2013-03-02 19:08:00,
2013-03-02 11:09:00,52.9,29.9,30.03,South,189,7.0,10.0,41,0.00,,---,0.00,VWS V14.00,2013-03-02 19:09:00,
2013-03-02 11:10:00,52.9,29.9,30.03,South,188,7.0,10.0,41,0.00,,---,0.00,VWS V14.00,2013-03-02 19:10:00,
2013-03-02 11:11:00,52.8,30.4,30.03,South,191,6.0,8.0,42,0.00,,---,0.00,VWS V14.00,2013-03-02 19:11:00,
2013-03-02 11:12:00,52.8,30.4,30.03,SSW,206,5.0,8.0,42,0.00,,---,0.00,VWS V14.00,2013-03-02 19:12:00,
2013-03-02 11:13:00,52.8,30.4,30.03,South,185,6.0,8.0,42,0.00,,---,0.00,VWS V14.00,2013-03-02 19:13:00,
2013-03-02 11:14:00,52.8,30.4,30.03,South,182,5.0,8.0,42,0.00,,---,0.00,VWS V14.00,2013-03-02 19:14:00,
2013-03-02 11:15:00,52.8,30.4,30.03,South,185,5.0,8.0,42,0.00,,---,0.00,VWS V14.00,2013-03-02 19:15:00,
2013-03-02 11:16:00,52.8,29.2,30.03,South,188,8.0,8.0,40,0.00,,---,0.00,VWS V14.00,2013-03-02 19:16:00,
2013-03-02 11:17:00,52.8,29.2,30.03,SSW,202,5.0,8.0,40,0.00,,---,0.00,VWS V14.00,2013-03-02 19:17:00,
2013-03-02 11:18:00,52.8,27.9,30.03,SSW,209,5.0,8.0,38,0.00,,---,0.00,VWS V14.00,2013-03-02 19:18:00,
2013-03-02 11:19:00,52.9,29.2,30.03,SSW,200,4.0,8.0,40,0.00,,---,0.00,VWS V14.00,2013-03-02 19:19:00,
2013-03-02 11:20:00,52.9,28.6,30.03,South,179,2.0,8.0,39,0.00,,---,0.00,VWS V14.00,2013-03-02 19:20:00,
2013-03-02 11:21:00,52.9,28.6,30.03,South,186,5.0,7.0,39,0.00,,---,0.00,VWS V14.00,2013-03-02 19:21:00,
2013-03-02 11:22:00,53.1,27.5,30.03,South,186,5.0,7.0,37,0.00,,---,0.00,VWS V14.00,2013-03-02 19:22:00,
2013-03-02 11:23:00,53.1,27.5,30.03,South,186,2.0,7.0,37,0.00,,---,0.00,VWS V14.00,2013-03-02 19:23:00,
2013-03-02 11:24:00,53.1,26.2,30.03,NW,318,2.0,7.0,35,0.00,,---,0.00,VWS V14.00,2013-03-02 19:24:00,
2013-03-02 11:25:00,53.1,25.5,30.03,WNW,299,0.0,7.0,34,0.00,,---,0.00,VWS V14.00,2013-03-02 19:25:00,
2013-03-02 11:26:00,53.2,24.9,30.03,West,267,2.0,7.0,33,0.00,,---,0.00,VWS V14.00,2013-03-02 19:26:00,
2013-03-02 11:27:00,53.2,26.3,30.03,SSW,205,5.0,7.0,35,0.00,,---,0.00,VWS V14.00,2013-03-02 19:27:00,
2013-03-02 11:28:00,53.2,24.9,30.03,South,188,4.0,10.0,33,0.00,,---,0.00,VWS V14.00,2013-03-02 19:28:00,
2013-03-02 11:29:00,53.2,24.9,30.03,South,186,3.0,10.0,33,0.00,,---,0.00,VWS V14.00,2013-03-02 19:29:00,
2013-03-02 11:30:00,53.2,24.9,30.03,WSW,256,2.0,10.0,33,0.00,,---,0.00,VWS V14.00,2013-03-02 19:30:00,
2013-03-02 11:31:00,53.2,26.3,30.03,SSE,165,2.0,4.0,35,0.00,,---,0.00,VWS V14.00,2013-03-02 19:31:00,
2013-03-02 11:32:00,53.2,24.1,30.03,South,179,6.0,6.0,32,0.00,,---,0.00,VWS V14.00,2013-03-02 19:32:00,
2013-03-02 11:33:00,53.2,25.6,30.03,South,184,4.0,8.0,34,0.00,,---,0.00,VWS V14.00,2013-03-02 19:33:00,
2013-03-02 11:34:00,53.2,25.6,30.03,South,186,0.0,8.0,34,0.00,,---,0.00,VWS V14.00,2013-03-02 19:34:00,
2013-03-02 11:35:00,53.2,26.3,30.03,South,186,5.0,8.0,35,0.00,,---,0.00,VWS V14.00,2013-03-02 19:35:00,
2013-03-02 11:36:00,53.2,24.9,30.03,South,186,3.0,8.0,33,0.00,,---,0.00,VWS V14.00,2013-03-02 19:36:00,
2013-03-02 11:37:00,53.1,24.0,30.03,South,191,5.0,8.0,32,0.00,,---,0.00,VWS V14.00,2013-03-02 19:37:00,
2013-03-02 11:38:00,53.1,25.5,30.03,South,189,2.0,8.0,34,0.00,,---,0.00,VWS V14.00,2013-03-02 19:38:00,
2013-03-02 11:39:00,53.1,24.8,30.03,West,265,2.0,8.0,33,0.00,,---,0.00,VWS V14.00,2013-03-02 19:39:00,
2013-03-02 11:40:00,53.1,24.8,30.03,WSW,244,3.0,8.0,33,0.00,,---,0.00,VWS V14.00,2013-03-02 19:40:00,
2013-03-02 11:41:00,53.1,24.8,30.03,NNW,333,3.0,3.0,33,0.00,,---,0.00,VWS V14.00,2013-03-02 19:41:00,
2013-03-02 11:42:00,53.1,25.5,30.03,South,191,6.0,6.0,34,0.00,,---,0.00,VWS V14.00,2013-03-02 19:42:00,
2013-03-02 11:43:00,52.9,25.3,30.03,SSW,199,4.0,6.0,34,0.00,,---,0.00,VWS V14.00,2013-03-02 19:43:00,
2013-03-02 11:44:00,52.9,26.0,30.03,SSW,206,2.0,6.0,35,0.00,,---,0.00,VWS V14.00,2013-03-02 19:44:00,
2013-03-02 11:45:00,52.9,25.3,30.03,SSW,203,2.0,6.0,34,0.00,,---,0.00,VWS V14.00,2013-03-02 19:45:00,
2013-03-02 11:46:00,52.9,25.3,30.03,NNW,335,2.0,6.0,34,0.00,,---,0.00,VWS V14.00,2013-03-02 19:46:00,
2013-03-02 11:47:00,52.9,25.3,30.03,NNW,335,0.0,6.0,34,0.00,,---,0.00,VWS V14.00,2013-03-02 19:47:00,
2013-03-02 11:48:00,52.9,26.7,30.03,NNW,332,1.0,6.0,36,0.00,,---,0.00,VWS V14.00,2013-03-02 19:48:00,
2013-03-02 11:49:00,52.8,25.2,30.03,SSW,200,2.0,6.0,34,0.00,,---,0.00,VWS V14.00,2013-03-02 19:49:00,
2013-03-02 11:50:00,52.8,26.6,30.03,West,270,5.0,6.0,36,0.00,,---,0.00,VWS V14.00,2013-03-02 19:50:00,
2013-03-02 11:51:00,52.8,25.2,30.03,NNW,339,5.0,5.0,34,0.00,,---,0.00,VWS V14.00,2013-03-02 19:51:00,
2013-03-02 11:52:00,52.8,25.2,30.03,SE,131,2.0,6.0,34,0.00,,---,0.00,VWS V14.00,2013-03-02 19:52:00,
2013-03-02 11:53:00,52.8,26.6,30.03,SSE,162,2.0,6.0,36,0.00,,---,0.00,VWS V14.00,2013-03-02 19:53:00,
2013-03-02 11:54:00,52.8,25.9,30.03,SSE,165,1.0,6.0,35,0.00,,---,0.00,VWS V14.00,2013-03-02 19:54:00,
2013-03-02 11:55:00,52.6,25.0,30.03,South,181,3.0,6.0,34,0.00,,---,0.00,VWS V14.00,2013-03-02 19:55:00,
2013-03-02 11:56:00,52.6,26.4,30.03,SE,141,2.0,6.0,36,0.00,,---,0.00,VWS V14.00,2013-03-02 19:56:00,
2013-03-02 11:57:00,52.5,25.7,30.03,South,185,8.0,8.0,35,0.00,,---,0.00,VWS V14.00,2013-03-02 19:57:00,
2013-03-02 11:58:00,52.3,25.5,30.03,SSE,157,5.0,11.0,35,0.00,,---,0.00,VWS V14.00,2013-03-02 19:58:00,
2013-03-02 11:59:00,52.3,26.2,30.03,South,184,6.0,11.0,36,0.00,,---,0.00,VWS V14.00,2013-03-02 19:59:00,
2013-03-02 12:00:00,52.3,25.5,30.03,South,179,7.0,11.0,35,0.00,,---,0.00,VWS V14.00,2013-03-02 20:00:00,
2013-03-02 12:01:00,52.2,24.7,30.03,SSW,192,4.0,7.0,34,0.00,,---,0.00,VWS V14.00,2013-03-02 20:01:00,
2013-03-02 12:02:00,52.0,25.2,30.03,SSW,195,6.0,7.0,35,0.00,,---,0.00,VWS V14.00,2013-03-02 20:02:00,
2013-03-02 12:03:00,52.0,25.9,30.03,SSW,195,5.0,7.0,36,0.00,,---,0.00,VWS V14.00,2013-03-02 20:03:00,
2013-03-02 12:04:00,52.0,25.2,30.03,South,189,6.0,7.0,35,0.00,,---,0.00,VWS V14.00,2013-03-02 20:04:00,
2013-03-02 12:05:00,51.9,25.1,30.03,SSW,193,3.0,7.0,35,0.00,,---,0.00,VWS V14.00,2013-03-02 20:05:00,
2013-03-02 12:06:00,51.9,25.8,30.03,SE,136,0.0,7.0,36,0.00,,---,0.00,VWS V14.00,2013-03-02 20:06:00,
2013-03-02 12:07:00,51.9,27.1,30.03,South,182,2.0,7.0,38,0.00,,---,0.00,VWS V14.00,2013-03-02 20:07:00,
2013-03-02 12:08:00,51.9,25.8,30.03,South,184,2.0,7.0,36,0.00,,---,0.00,VWS V14.00,2013-03-02 20:08:00,
2013-03-02 12:09:00,51.9,25.8,30.03,South,185,5.0,7.0,36,0.00,,---,0.00,VWS V14.00,2013-03-02 20:09:00,
2013-03-02 12:10:00,51.7,25.6,30.03,South,178,8.0,8.0,36,0.00,,---,0.00,VWS V14.00,2013-03-02 20:10:00,
2013-03-02 12:11:00,51.7,25.6,30.03,South,182,8.0,8.0,36,0.00,,---,0.00,VWS V14.00,2013-03-02 20:11:00,
2013-03-02 12:12:00,51.7,26.3,30.03,South,184,5.0,8.0,37,0.00,,---,0.00,VWS V14.00,2013-03-02 20:12:00,
2013-03-02 12:13:00,51.6,26.2,30.03,South,189,7.0,8.0,37,0.00,,---,0.00,VWS V14.00,2013-03-02 20:13:00,
2013-03-02 12:14:00,51.6,26.2,30.03,South,188,5.0,8.0,37,0.00,,---,0.00,VWS V14.00,2013-03-02 20:14:00,
2013-03-02 12:15:00,51.6,26.8,30.03,SSW,192,5.0,8.0,38,0.00,,---,0.00,VWS V14.00,2013-03-02 20:15:00,
2013-03-02 12:16:00,51.6,26.2,30.03,South,186,10.0,10.0,37,0.00,,---,0.00,VWS V14.00,2013-03-02 20:16:00,
2013-03-02 12:17:00,51.4,26.0,30.03,South,189,5.0,10.0,37,0.00,,---,0.00,VWS V14.00,2013-03-02 20:17:00,
2013-03-02 12:18:00,51.4,26.7,30.03,SSW,198,7.0,10.0,38,0.00,,---,0.00,VWS V14.00,2013-03-02 20:18:00,
2013-03-02 12:19:00,51.4,26.7,30.03,SSW,195,7.0,10.0,38,0.00,,---,0.00,VWS V14.00,2013-03-02 20:19:00,
2013-03-02 12:20:00,51.3,26.6,30.03,SSW,213,6.0,10.0,38,0.00,,---,0.00,VWS V14.00,2013-03-02 20:20:00,
2013-03-02 12:21:00,51.3,25.9,30.03,SSW,196,2.0,10.0,37,0.00,,---,0.00,VWS V14.00,2013-03-02 20:21:00,
2013-03-02 12:22:00,51.3,25.9,30.03,SSW,193,7.0,10.0,37,0.00,,---,0.00,VWS V14.00,2013-03-02 20:22:00,
2013-03-02 12:23:00,51.3,25.3,30.03,SSW,192,4.0,10.0,36,0.00,,---,0.00,VWS V14.00,2013-03-02 20:23:00,
2013-03-02 12:24:00,51.3,25.3,30.03,South,188,7.0,10.0,36,0.00,,---,0.00,VWS V14.00,2013-03-02 20:24:00,
2013-03-02 12:25:00,51.3,26.6,30.03,South,188,6.0,10.0,38,0.00,,---,0.00,VWS V14.00,2013-03-02 20:25:00,
2013-03-02 12:26:00,51.3,27.2,30.03,South,181,2.0,10.0,39,0.00,,---,0.00,VWS V14.00,2013-03-02 20:26:00,
2013-03-02 12:27:00,51.3,27.2,30.03,South,181,3.0,10.0,39,0.00,,---,0.00,VWS V14.00,2013-03-02 20:27:00,
2013-03-02 12:28:00,51.3,26.6,30.03,South,182,5.0,10.0,38,0.00,,---,0.00,VWS V14.00,2013-03-02 20:28:00,
2013-03-02 12:29:00,51.3,26.6,30.03,South,182,7.0,10.0,38,0.00,,---,0.00,VWS V14.00,2013-03-02 20:29:00,
2013-03-02 12:30:00,51.1,26.4,30.03,South,178,3.0,11.0,38,0.00,,---,0.00,VWS V14.00,2013-03-02 20:30:00,
2013-03-02 12:31:00,51.1,27.0,30.03,South,189,6.0,7.0,39,0.00,,---,0.00,VWS V14.00,2013-03-02 20:31:00,
2013-03-02 12:32:00,51.1,25.8,30.03,SSW,208,6.0,10.0,37,0.00,,---,0.00,VWS V14.00,2013-03-02 20:32:00,
2013-03-02 12:33:00,51.1,25.8,30.03,South,176,10.0,10.0,37,0.00,,---,0.00,VWS V14.00,2013-03-02 20:33:00,
2013-03-02 12:34:00,51.1,26.4,30.03,South,179,6.0,10.0,38,0.00,,---,0.00,VWS V14.00,2013-03-02 20:34:00,
2013-03-02 12:35:00,51.1,26.4,30.03,SSE,168,5.0,10.0,38,0.00,,---,0.00,VWS V14.00,2013-03-02 20:35:00,
2013-03-02 12:36:00,51.1,25.8,30.03,South,178,5.0,10.0,37,0.00,,---,0.00,VWS V14.00,2013-03-02 20:36:00,
2013-03-02 12:37:00,51.0,26.3,30.03,South,182,4.0,10.0,38,0.00,,---,0.00,VWS V14.00,2013-03-02 20:37:00,
2013-03-02 12:38:00,51.0,25.7,30.03,South,184,2.0,10.0,37,0.00,,---,0.00,VWS V14.00,2013-03-02 20:38:00,
2013-03-02 12:39:00,51.0,27.5,30.03,South,184,0.0,10.0,40,0.00,,---,0.00,VWS V14.00,2013-03-02 20:39:00,
2013-03-02 12:40:00,51.0,27.5,30.03,South,184,3.0,10.0,40,0.00,,---,0.00,VWS V14.00,2013-03-02 20:40:00,
2013-03-02 12:41:00,51.0,28.1,30.03,NNW,337,0.0,6.0,41,0.00,,---,0.00,VWS V14.00,2013-03-02 20:41:00,
2013-03-02 12:42:00,51.0,26.3,30.03,NNW,337,1.0,6.0,38,0.00,,---,0.00,VWS V14.00,2013-03-02 20:42:00,
2013-03-02 12:43:00,51.0,27.5,30.03,SSW,203,2.0,6.0,40,0.00,,---,0.00,VWS V14.00,2013-03-02 20:43:00,
2013-03-02 12:44:00,51.0,26.9,30.03,SSW,203,0.0,6.0,39,0.00,,---,0.00,VWS V14.00,2013-03-02 20:44:00,
2013-03-02 12:45:00,51.0,27.5,30.03,SSW,203,0.0,6.0,40,0.00,,---,0.00,VWS V14.00,2013-03-02 20:45:00,
2013-03-02 12:46:00,51.0,27.5,30.03,SSW,203,0.0,6.0,40,0.00,,---,0.00,VWS V14.00,2013-03-02 20:46:00,
2013-03-02 12:47:00,51.0,26.9,30.03,SW,229,0.0,6.0,39,0.00,,---,0.00,VWS V14.00,2013-03-02 20:47:00,
2013-03-02 12:48:00,51.0,27.5,30.03,SW,229,0.0,6.0,40,0.00,,---,0.00,VWS V14.00,2013-03-02 20:48:00,
2013-03-02 12:49:00,51.0,27.5,30.03,SW,229,2.0,6.0,40,0.00,,---,0.00,VWS V14.00,2013-03-02 20:49:00,
2013-03-02 12:50:00,51.0,27.5,30.03,SW,229,0.0,6.0,40,0.00,,---,0.00,VWS V14.00,2013-03-02 20:50:00,
2013-03-02 12:51:00,50.8,27.4,30.03,SW,229,1.0,2.0,40,0.00,,---,0.00,VWS V14.00,2013-03-02 20:51:00,
2013-03-02 12:52:00,50.8,26.8,30.03,SW,216,0.0,5.0,39,0.00,,---,0.00,VWS V14.00,2013-03-02 20:52:00,
2013-03-02 12:53:00,50.8,26.1,30.03,SW,216,0.0,5.0,38,0.00,,---,0.00,VWS V14.00,2013-03-02 20:53:00,
2013-03-02 12:54:00,50.8,27.4,30.03,SW,216,2.0,5.0,40,0.00,,---,0.00,VWS V14.00,2013-03-02 20:54:00,
2013-03-02 12:55:00,50.8,26.8,30.03,SSW,213,5.0,5.0,39,0.00,,---,0.00,VWS V14.00,2013-03-02 20:55:00,
2013-03-02 12:56:00,50.8,27.4,30.03,South,191,4.0,7.0,40,0.00,,---,0.00,VWS V14.00,2013-03-02 20:56:00,
2013-03-02 12:57:00,50.7,25.4,30.03,SSW,195,6.0,7.0,37,0.00,,---,0.00,VWS V14.00,2013-03-02 20:57:00,
2013-03-02 12:58:00,50.7,25.4,30.03,South,188,3.0,7.0,37,0.00,,---,0.00,VWS V14.00,2013-03-02 20:58:00,
2013-03-02 12:59:00,50.7,25.4,30.03,South,184,4.0,7.0,37,0.00,,---,0.00,VWS V14.00,2013-03-02 20:59:00,
2013-03-02 13:00:00,50.7,26.0,30.03,South,184,0.0,7.0,38,0.00,,---,0.00,VWS V14.00,2013-03-02 21:00:00,
2013-03-02 13:01:00,50.7,26.0,30.03,South,184,0.0,2.0,38,0.00,,---,0.00,VWS V14.00,2013-03-02 21:01:00,
2013-03-02 13:02:00,50.7,26.7,30.03,South,185,0.0,5.0,39,0.00,,---,0.00,VWS V14.00,2013-03-02 21:02:00,
2013-03-02 13:03:00,50.5,26.5,30.03,South,184,0.0,5.0,39,0.00,,---,0.00,VWS V14.00,2013-03-02 21:03:00,
2013-03-02 13:04:00,50.5,25.9,30.03,South,185,0.0,5.0,38,0.00,,---,0.00,VWS V14.00,2013-03-02 21:04:00,
2013-03-02 13:05:00,50.5,25.9,30.03,South,185,2.0,5.0,38,0.00,,---,0.00,VWS V14.00,2013-03-02 21:05:00,
2013-03-02 13:06:00,50.5,25.9,30.03,South,179,2.0,5.0,38,0.00,,---,0.00,VWS V14.00,2013-03-02 21:06:00,
2013-03-02 13:07:00,50.5,27.1,30.03,South,181,1.0,5.0,40,0.00,,---,0.00,VWS V14.00,2013-03-02 21:07:00,
2013-03-02 13:08:00,50.4,26.4,30.03,WNW,287,0.0,6.0,39,0.00,,---,0.00,VWS V14.00,2013-03-02 21:08:00,
2013-03-02 13:09:00,50.4,25.8,30.03,SSW,212,2.0,6.0,38,0.00,,---,0.00,VWS V14.00,2013-03-02 21:09:00,
2013-03-02 13:10:00,50.4,24.5,30.03,SSW,203,5.0,10.0,36,0.00,,---,0.00,VWS V14.00,2013-03-02 21:10:00,
2013-03-02 13:11:00,50.4,25.1,30.03,South,171,1.0,6.0,37,0.00,,---,0.00,VWS V14.00,2013-03-02 21:11:00,
2013-03-02 13:12:00,50.2,25.6,30.03,South,171,0.0,6.0,38,0.00,,---,0.00,VWS V14.00,2013-03-02 21:12:00,
2013-03-02 13:13:00,50.2,25.6,30.03,South,171,1.0,6.0,38,0.00,,---,0.00,VWS V14.00,2013-03-02 21:13:00,
2013-03-02 13:14:00,50.2,25.6,30.02,SSE,168,0.0,6.0,38,0.00,,---,0.00,VWS V14.00,2013-03-02 21:14:00,
2013-03-02 13:15:00,50.1,24.2,30.02,SSE,168,1.0,6.0,36,0.00,,---,0.00,VWS V14.00,2013-03-02 21:15:00,
2013-03-02 13:16:00,50.1,26.1,30.02,SSE,168,0.0,6.0,39,0.00,,---,0.00,VWS V14.00,2013-03-02 21:16:00,
2013-03-02 13:17:00,50.1,26.1,30.02,SSE,168,0.0,6.0,39,0.00,,---,0.00,VWS V14.00,2013-03-02 21:17:00,
2013-03-02 13:18:00,50.1,25.5,30.02,South,169,1.0,6.0,38,0.00,,---,0.00,VWS V14.00,2013-03-02 21:18:00,
2013-03-02 13:19:00,49.9,25.3,30.02,SSW,206,2.0,6.0,38,0.00,,---,0.00,VWS V14.00,2013-03-02 21:19:00,
2013-03-02 13:20:00,49.9,26.0,30.02,NNE,23,3.0,6.0,39,0.00,,---,0.00,VWS V14.00,2013-03-02 21:20:00,
2013-03-02 13:21:00,49.9,26.0,30.02,North,354,0.0,2.0,39,0.00,,---,0.00,VWS V14.00,2013-03-02 21:21:00,
2013-03-02 13:22:00,49.9,26.0,30.02,NNW,336,2.0,5.0,39,0.00,,---,0.00,VWS V14.00,2013-03-02 21:22:00,
2013-03-02 13:23:00,49.8,25.9,30.02,South,178,3.0,6.0,39,0.00,,---,0.00,VWS V14.00,2013-03-02 21:23:00,
2013-03-02 13:24:00,49.6,25.0,30.02,South,191,4.0,7.0,38,0.00,,---,0.00,VWS V14.00,2013-03-02 21:24:00,
2013-03-02 13:25:00,49.6,24.4,30.02,South,191,2.0,7.0,37,0.00,,---,0.00,VWS V14.00,2013-03-02 21:25:00,
2013-03-02 13:26:00,49.5,25.6,30.02,SSW,193,2.0,7.0,39,0.00,,---,0.00,VWS V14.00,2013-03-02 21:26:00,
2013-03-02 13:27:00,49.5,26.2,30.02,South,189,2.0,7.0,40,0.00,,---,0.00,VWS V14.00,2013-03-02 21:27:00,
2013-03-02 13:28:00,49.5,26.2,30.02,South,189,3.0,7.0,40,0.00,,---,0.00,VWS V14.00,2013-03-02 21:28:00,
2013-03-02 13:29:00,49.4,26.1,30.01,West,271,1.0,7.0,40,0.00,,---,0.00,VWS V14.00,2013-03-02 21:29:00,
2013-03-02 13:30:00,49.4,26.1,30.01,West,271,1.0,7.0,40,0.00,,---,0.00,VWS V14.00,2013-03-02 21:30:00,
2013-03-02 13:31:00,49.4,25.5,30.01,West,272,0.0,3.0,39,0.00,,---,0.00,VWS V14.00,2013-03-02 21:31:00,
2013-03-02 13:32:00,49.4,25.5,30.01,West,272,1.0,3.0,39,0.00,,---,0.00,VWS V14.00,2013-03-02 21:32:00,
2013-03-02 13:33:00,49.2,25.3,30.01,WSW,257,2.0,3.0,39,0.00,,---,0.00,VWS V14.00,2013-03-02 21:33:00,
2013-03-02 13:34:00,49.2,25.3,30.01,SSW,199,2.0,6.0,39,0.00,,---,0.00,VWS V14.00,2013-03-02 21:34:00,
2013-03-02 13:35:00,49.1,25.8,30.01,SSW,198,2.0,6.0,40,0.00,,---,0.00,VWS V14.00,2013-03-02 21:35:00,
2013-03-02 13:36:00,49.1,24.6,30.01,SSW,198,0.0,6.0,38,0.00,,---,0.00,VWS V14.00,2013-03-02 21:36:00,
2013-03-02 13:37:00,49.1,24.6,30.01,SSW,196,2.0,6.0,38,0.00,,---,0.00,VWS V14.00,2013-03-02 21:37:00,
2013-03-02 13:38:00,49.1,25.8,30.01,SSW,195,3.0,6.0,40,0.00,,---,0.00,VWS V14.00,2013-03-02 21:38:00,
2013-03-02 13:39:00,49.1,25.8,30.01,SSW,193,3.0,6.0,40,0.00,,---,0.00,VWS V14.00,2013-03-02 21:39:00,
2013-03-02 13:40:00,48.9,25.0,30.01,SSW,193,2.0,6.0,39,0.00,,---,0.00,VWS V14.00,2013-03-02 21:40:00,
2013-03-02 13:41:00,48.9,26.2,30.01,South,185,3.0,5.0,41,0.00,,---,0.00,VWS V14.00,2013-03-02 21:41:00,
2013-03-02 13:42:00,48.9,25.7,30.01,South,185,2.0,5.0,40,0.00,,---,0.00,VWS V14.00,2013-03-02 21:42:00,
2013-03-02 13:43:00,48.9,25.7,30.01,South,181,4.0,5.0,40,0.00,,---,0.00,VWS V14.00,2013-03-02 21:43:00,
2013-03-02 13:44:00,48.9,25.0,30.01,SSW,195,3.0,6.0,39,0.00,,---,0.00,VWS V14.00,2013-03-02 21:44:00,
2013-03-02 13:45:00,48.8,25.6,30.01,South,189,7.0,7.0,40,0.00,,---,0.00,VWS V14.00,2013-03-02 21:45:00,
2013-03-02 13:46:00,48.8,25.6,30.01,SSW,193,6.0,8.0,40,0.00,,---,0.00,VWS V14.00,2013-03-02 21:46:00,
2013-03-02 13:47:00,48.8,26.2,30.01,SSW,192,6.0,8.0,41,0.00,,---,0.00,VWS V14.00,2013-03-02 21:47:00,
2013-03-02 13:48:00,48.8,25.0,30.01,South,191,2.0,8.0,39,0.00,,---,0.00,VWS V14.00,2013-03-02 21:48:00,
2013-03-02 13:49:00,48.8,25.0,30.01,South,179,9.0,10.0,39,0.00,,---,0.00,VWS V14.00,2013-03-02 21:49:00,
2013-03-02 13:50:00,48.8,25.0,30.01,SSW,203,6.0,10.0,39,0.00,,---,0.00,VWS V14.00,2013-03-02 21:50:00,
2013-03-02 13:51:00,48.6,24.8,30.01,SSW,206,7.0,8.0,39,0.00,,---,0.00,VWS V14.00,2013-03-02 21:51:00,
2013-03-02 13:52:00,48.6,24.8,30.01,South,186,7.0,8.0,39,0.00,,---,0.00,VWS V14.00,2013-03-02 21:52:00,
2013-03-02 13:53:00,48.6,26.0,30.01,South,188,3.0,8.0,41,0.00,,---,0.00,VWS V14.00,2013-03-02 21:53:00,
2013-03-02 13:54:00,48.5,25.3,30.01,SSW,200,3.0,8.0,40,0.00,,---,0.00,VWS V14.00,2013-03-02 21:54:00,
2013-03-02 13:55:00,48.5,25.3,30.01,SSW,195,5.0,8.0,40,0.00,,---,0.00,VWS V14.00,2013-03-02 21:55:00,
2013-03-02 13:56:00,48.5,25.9,30.01,South,186,10.0,10.0,41,0.00,,---,0.00,VWS V14.00,2013-03-02 21:56:00,
2013-03-02 13:57:00,48.5,25.9,30.01,SSW,193,7.0,10.0,41,0.00,,---,0.00,VWS V14.00,2013-03-02 21:57:00,
2013-03-02 13:58:00,48.5,25.9,30.01,South,182,6.0,10.0,41,0.00,,---,0.00,VWS V14.00,2013-03-02 21:58:00,
2013-03-02 13:59:00,48.5,25.9,30.01,South,184,7.0,10.0,41,0.00,,---,0.00,VWS V14.00,2013-03-02 21:59:00,
2013-03-02 14:00:00,48.5,25.9,30.01,SSW,205,7.0,10.0,41,0.00,,---,0.00,VWS V14.00,2013-03-02 22:00:00,
2013-03-02 14:01:00,48.3,25.7,30.01,SSW,195,4.0,7.0,41,0.00,,---,0.00,VWS V14.00,2013-03-02 22:01:00,
2013-03-02 14:02:00,48.3,25.7,30.01,South,186,10.0,10.0,41,0.00,,---,0.00,VWS V14.00,2013-03-02 22:02:00,
2013-03-02 14:03:00,48.2,25.6,30.01,South,188,4.0,10.0,41,0.00,,---,0.00,VWS V14.00,2013-03-02 22:03:00,
2013-03-02 14:04:00,48.2,26.2,30.01,South,191,6.0,10.0,42,0.00,,---,0.00,VWS V14.00,2013-03-02 22:04:00,
2013-03-02 14:05:00,48.2,26.2,30.01,SSW,196,6.0,10.0,42,0.00,,---,0.00,VWS V14.00,2013-03-02 22:05:00,
2013-03-02 14:06:00,48.2,26.2,30.01,South,182,6.0,10.0,42,0.00,,---,0.00,VWS V14.00,2013-03-02 22:06:00,
2013-03-02 14:07:00,48.2,26.2,30.01,SSW,195,8.0,10.0,42,0.00,,---,0.00,VWS V14.00,2013-03-02 22:07:00,
2013-03-02 14:08:00,48.0,24.9,30.01,SSW,205,6.0,10.0,40,0.00,,---,0.00,VWS V14.00,2013-03-02 22:08:00,
2013-03-02 14:09:00,48.0,24.9,30.01,South,182,3.0,10.0,40,0.00,,---,0.00,VWS V14.00,2013-03-02 22:09:00,
2013-03-02 14:10:00,48.0,24.9,30.01,South,176,5.0,10.0,40,0.00,,---,0.00,VWS V14.00,2013-03-02 22:10:00,
2013-03-02 14:11:00,48.0,24.9,30.01,SSW,195,4.0,5.0,40,0.00,,---,0.00,VWS V14.00,2013-03-02 22:11:00,
2013-03-02 14:12:00,47.9,24.8,30.01,SSW,196,5.0,5.0,40,0.00,,---,0.00,VWS V14.00,2013-03-02 22:12:00,
2013-03-02 14:13:00,47.9,25.4,30.01,SSW,198,2.0,5.0,41,0.00,,---,0.00,VWS V14.00,2013-03-02 22:13:00,
2013-03-02 14:14:00,47.9,25.4,30.01,SSW,198,5.0,5.0,41,0.00,,---,0.00,VWS V14.00,2013-03-02 22:14:00,
2013-03-02 14:15:00,47.9,25.4,30.03,South,188,6.0,7.0,41,0.00,,---,0.00,VWS V14.00,2013-03-02 22:15:00,
2013-03-02 14:16:00,47.9,25.9,30.03,SSW,192,5.0,8.0,42,0.00,,---,0.00,VWS V14.00,2013-03-02 22:16:00,
2013-03-02 14:17:00,47.7,25.8,30.03,South,188,5.0,8.0,42,0.00,,---,0.00,VWS V14.00,2013-03-02 22:17:00,
2013-03-02 14:18:00,47.7,26.3,30.03,South,188,3.0,8.0,43,0.00,,---,0.00,VWS V14.00,2013-03-02 22:18:00,
2013-03-02 14:19:00,47.6,26.2,30.03,South,191,5.0,8.0,43,0.00,,---,0.00,VWS V14.00,2013-03-02 22:19:00,
2013-03-02 14:20:00,47.6,26.2,30.03,South,188,5.0,8.0,43,0.00,,---,0.00,VWS V14.00,2013-03-02 22:20:00,
2013-03-02 14:21:00,47.6,26.2,30.03,South,179,6.0,10.0,43,0.00,,---,0.00,VWS V14.00,2013-03-02 22:21:00,
2013-03-02 14:22:00,47.6,26.2,30.03,South,184,2.0,10.0,43,0.00,,---,0.00,VWS V14.00,2013-03-02 22:22:00,
2013-03-02 14:23:00,47.4,26.0,30.03,South,188,3.0,10.0,43,0.00,,---,0.00,VWS V14.00,2013-03-02 22:23:00,
2013-03-02 14:24:00,47.4,26.0,30.03,South,188,3.0,10.0,43,0.00,,---,0.00,VWS V14.00,2013-03-02 22:24:00,
2013-03-02 14:25:00,47.4,26.0,30.03,South,189,8.0,10.0,43,0.00,,---,0.00,VWS V14.00,2013-03-02 22:25:00,
2013-03-02 14:26:00,47.4,26.0,30.03,South,191,2.0,10.0,43,0.00,,---,0.00,VWS V14.00,2013-03-02 22:26:00,
2013-03-02 14:27:00,47.4,26.0,30.03,South,191,2.0,10.0,43,0.00,,---,0.00,VWS V14.00,2013-03-02 22:27:00,
2013-03-02 14:28:00,47.4,26.0,30.03,South,189,7.0,10.0,43,0.00,,---,0.00,VWS V14.00,2013-03-02 22:28:00,
2013-03-02 14:29:00,47.4,26.0,30.04,South,189,7.0,12.0,43,0.00,,---,0.00,VWS V14.00,2013-03-02 22:29:00,
2013-03-02 14:30:00,47.4,26.0,30.04,South,182,7.0,12.0,43,0.00,,---,0.00,VWS V14.00,2013-03-02 22:30:00,
2013-03-02 14:31:00,47.4,26.0,30.04,South,185,4.0,7.0,43,0.00,,---,0.00,VWS V14.00,2013-03-02 22:31:00,
2013-03-02 14:32:00,47.3,26.0,30.04,SSW,195,5.0,7.0,43,0.00,,---,0.00,VWS V14.00,2013-03-02 22:32:00,
2013-03-02 14:33:00,47.3,26.0,30.04,SSW,196,1.0,7.0,43,0.00,,---,0.00,VWS V14.00,2013-03-02 22:33:00,
2013-03-02 14:34:00,47.1,25.2,30.04,South,188,7.0,8.0,42,0.00,,---,0.00,VWS V14.00,2013-03-02 22:34:00,
2013-03-02 14:35:00,47.1,25.8,30.04,SSW,199,2.0,10.0,43,0.00,,---,0.00,VWS V14.00,2013-03-02 22:35:00,
2013-03-02 14:36:00,47.1,25.2,30.04,SSW,200,2.0,10.0,42,0.00,,---,0.00,VWS V14.00,2013-03-02 22:36:00,
2013-03-02 14:37:00,47.0,26.2,30.04,SSW,193,7.0,10.0,44,0.00,,---,0.00,VWS V14.00,2013-03-02 22:37:00,
2013-03-02 14:38:00,47.0,26.2,30.04,South,191,5.0,10.0,44,0.00,,---,0.00,VWS V14.00,2013-03-02 22:38:00,
2013-03-02 14:39:00,47.0,26.2,30.04,South,189,7.0,10.0,44,0.00,,---,0.00,VWS V14.00,2013-03-02 22:39:00,
2013-03-02 14:40:00,47.0,25.7,30.04,SW,219,6.0,10.0,43,0.00,,---,0.00,VWS V14.00,2013-03-02 22:40:00,
2013-03-02 14:41:00,47.0,25.7,30.04,SSW,208,10.0,10.0,43,0.00,,---,0.00,VWS V14.00,2013-03-02 22:41:00,
2013-03-02 14:42:00,47.0,25.7,30.04,South,186,9.0,10.0,43,0.00,,---,0.00,VWS V14.00,2013-03-02 22:42:00,
2013-03-02 14:43:00,47.0,25.7,30.04,SSW,202,7.0,10.0,43,0.00,,---,0.00,VWS V14.00,2013-03-02 22:43:00,
2013-03-02 14:44:00,47.0,25.7,30.04,SSW,198,6.0,10.0,43,0.00,,---,0.00,VWS V14.00,2013-03-02 22:44:00,
2013-03-02 14:45:00,47.0,25.7,30.04,South,191,2.0,10.0,43,0.00,,---,0.00,VWS V14.00,2013-03-02 22:45:00,
2013-03-02 14:46:00,46.8,25.5,30.04,SSW,202,2.0,10.0,43,0.00,,---,0.00,VWS V14.00,2013-03-02 22:46:00,
2013-03-02 14:47:00,46.8,25.5,30.04,SSW,193,6.0,10.0,43,0.00,,---,0.00,VWS V14.00,2013-03-02 22:47:00,
2013-03-02 14:48:00,46.8,25.5,30.04,SSW,193,3.0,10.0,43,0.00,,---,0.00,VWS V14.00,2013-03-02 22:48:00,
2013-03-02 14:49:00,46.8,25.5,30.04,SSW,193,2.0,10.0,43,0.00,,---,0.00,VWS V14.00,2013-03-02 22:49:00,
2013-03-02 14:50:00,46.7,26.0,30.04,SSW,193,4.0,10.0,44,0.00,,---,0.00,VWS V14.00,2013-03-02 22:50:00,
2013-03-02 14:51:00,46.7,26.5,30.04,South,191,4.0,7.0,45,0.00,,---,0.00,VWS V14.00,2013-03-02 22:51:00,
2013-03-02 14:52:00,46.5,25.8,30.04,SSW,195,3.0,7.0,44,0.00,,---,0.00,VWS V14.00,2013-03-02 22:52:00,
2013-03-02 14:53:00,46.5,25.8,30.04,SSW,195,6.0,7.0,44,0.00,,---,0.00,VWS V14.00,2013-03-02 22:53:00,
2013-03-02 14:54:00,46.5,25.8,30.04,SW,223,4.0,7.0,44,0.00,,---,0.00,VWS V14.00,2013-03-02 22:54:00,
2013-03-02 14:55:00,46.5,25.8,30.04,South,185,5.0,11.0,44,0.00,,---,0.00,VWS V14.00,2013-03-02 22:55:00,
2013-03-02 14:56:00,46.4,27.3,30.04,South,186,2.0,11.0,47,0.00,,---,0.00,VWS V14.00,2013-03-02 22:56:00,
2013-03-02 14:57:00,46.4,27.8,30.04,South,186,2.0,11.0,48,0.00,,---,0.00,VWS V14.00,2013-03-02 22:57:00,
2013-03-02 14:58:00,46.2,27.6,30.04,South,186,1.0,11.0,48,0.00,,---,0.00,VWS V14.00,2013-03-02 22:58:00,
2013-03-02 14:59:00,46.2,27.6,30.04,South,186,2.0,11.0,48,0.00,,---,0.00,VWS V14.00,2013-03-02 22:59:00,
2013-03-02 15:00:00,46.1,28.5,30.04,SSW,198,1.0,11.0,50,0.00,,---,0.00,VWS V14.00,2013-03-02 23:00:00,
2013-03-02 15:01:00,46.1,29.5,30.04,SSW,192,2.0,4.0,52,0.00,,---,0.00,VWS V14.00,2013-03-02 23:01:00,
2013-03-02 15:02:00,46.0,29.4,30.04,SSW,192,2.0,4.0,52,0.00,,---,0.00,VWS V14.00,2013-03-02 23:02:00,
2013-03-02 15:03:00,46.0,29.4,30.04,SSW,192,3.0,4.0,52,0.00,,---,0.00,VWS V14.00,2013-03-02 23:03:00,
2013-03-02 15:04:00,45.8,29.2,30.04,SSW,192,5.0,6.0,52,0.00,,---,0.00,VWS V14.00,2013-03-02 23:04:00,
2013-03-02 15:05:00,45.8,29.2,30.04,South,191,5.0,6.0,52,0.00,,---,0.00,VWS V14.00,2013-03-02 23:05:00,
2013-03-02 15:06:00,45.7,30.0,30.04,SSW,192,5.0,6.0,54,0.00,,---,0.00,VWS V14.00,2013-03-02 23:06:00,
2013-03-02 15:07:00,45.7,29.6,30.04,SSW,192,1.0,6.0,53,0.00,,---,0.00,VWS V14.00,2013-03-02 23:07:00,
2013-03-02 15:08:00,45.5,29.8,30.04,SSW,198,6.0,7.0,54,0.00,,---,0.00,VWS V14.00,2013-03-02 23:08:00,
2013-03-02 15:09:00,45.4,29.7,30.04,SSW,192,5.0,7.0,54,0.00,,---,0.00,VWS V14.00,2013-03-02 23:09:00,
2013-03-02 15:10:00,45.4,30.2,30.04,SSW,192,4.0,7.0,55,0.00,,---,0.00,VWS V14.00,2013-03-02 23:10:00,
2013-03-02 15:11:00,45.4,30.2,30.04,South,191,3.0,5.0,55,0.00,,---,0.00,VWS V14.00,2013-03-02 23:11:00,
2013-03-02 15:12:00,45.2,30.0,30.04,South,191,4.0,5.0,55,0.00,,---,0.00,VWS V14.00,2013-03-02 23:12:00,
2013-03-02 15:13:00,45.2,30.9,30.04,South,189,5.0,6.0,57,0.00,,---,0.00,VWS V14.00,2013-03-02 23:13:00,
2013-03-02 15:14:00,45.1,30.8,30.05,South,189,3.0,6.0,57,0.00,,---,0.00,VWS V14.00,2013-03-02 23:14:00,
2013-03-02 15:15:00,44.9,30.6,30.05,South,188,4.0,6.0,57,0.00,,---,0.00,VWS V14.00,2013-03-02 23:15:00,
2013-03-02 15:16:00,44.9,30.6,30.05,South,188,4.0,6.0,57,0.00,,---,0.00,VWS V14.00,2013-03-02 23:16:00,
2013-03-02 15:17:00,44.8,30.5,30.05,SSW,195,2.0,6.0,57,0.00,,---,0.00,VWS V14.00,2013-03-02 23:17:00,
2013-03-02 15:18:00,44.8,31.4,30.05,South,186,5.0,6.0,59,0.00,,---,0.00,VWS V14.00,2013-03-02 23:18:00,
2013-03-02 15:19:00,44.6,30.8,30.05,South,189,3.0,7.0,58,0.00,,---,0.00,VWS V14.00,2013-03-02 23:19:00,
2013-03-02 15:20:00,44.6,30.8,30.05,SSW,192,7.0,7.0,58,0.00,,---,0.00,VWS V14.00,2013-03-02 23:20:00,
2013-03-02 15:21:00,44.6,31.2,30.05,South,188,7.0,7.0,59,0.00,,---,0.00,VWS V14.00,2013-03-02 23:21:00,
2013-03-02 15:22:00,44.6,30.3,30.05,South,176,2.0,7.0,57,0.00,,---,0.00,VWS V14.00,2013-03-02 23:22:00,
2013-03-02 15:23:00,44.5,30.2,30.05,South,176,3.0,7.0,57,0.00,,---,0.00,VWS V14.00,2013-03-02 23:23:00,
2013-03-02 15:24:00,44.5,30.7,30.05,South,178,2.0,7.0,58,0.00,,---,0.00,VWS V14.00,2013-03-02 23:24:00,
2013-03-02 15:25:00,44.5,30.7,30.05,South,179,4.0,7.0,58,0.00,,---,0.00,VWS V14.00,2013-03-02 23:25:00,
2013-03-02 15:26:00,44.5,30.7,30.05,South,179,5.0,7.0,58,0.00,,---,0.00,VWS V14.00,2013-03-02 23:26:00,
2013-03-02 15:27:00,44.5,30.7,30.05,South,189,5.0,7.0,58,0.00,,---,0.00,VWS V14.00,2013-03-02 23:27:00,
2013-03-02 15:28:00,44.5,31.1,30.05,South,186,3.0,7.0,59,0.00,,---,0.00,VWS V14.00,2013-03-02 23:28:00,
2013-03-02 15:29:00,44.3,30.9,30.05,South,184,4.0,7.0,59,0.00,,---,0.00,VWS V14.00,2013-03-02 23:29:00,
2013-03-02 15:30:00,44.3,30.9,30.06,South,184,2.0,7.0,59,0.00,,---,0.00,VWS V14.00,2013-03-02 23:30:00,
2013-03-02 15:31:00,44.3,30.9,30.06,SSW,192,5.0,11.0,59,0.00,,---,0.00,VWS V14.00,2013-03-02 23:31:00,
2013-03-02 15:32:00,44.3,31.3,30.06,SSW,192,6.0,11.0,60,0.00,,---,0.00,VWS V14.00,2013-03-02 23:32:00,
2013-03-02 15:33:00,44.3,31.3,30.06,SSW,212,5.0,11.0,60,0.00,,---,0.00,VWS V14.00,2013-03-02 23:33:00,
2013-03-02 15:34:00,44.2,31.2,30.06,SSW,193,6.0,12.0,60,0.00,,---,0.00,VWS V14.00,2013-03-02 23:34:00,
2013-03-02 15:35:00,44.2,31.2,30.06,South,189,5.0,12.0,60,0.00,,---,0.00,VWS V14.00,2013-03-02 23:35:00,
2013-03-02 15:36:00,44.2,31.2,30.06,South,189,3.0,12.0,60,0.00,,---,0.00,VWS V14.00,2013-03-02 23:36:00,
2013-03-02 15:37:00,44.2,31.2,30.06,South,189,6.0,12.0,60,0.00,,---,0.00,VWS V14.00,2013-03-02 23:37:00,
2013-03-02 15:38:00,44.1,31.1,30.06,South,184,7.0,12.0,60,0.00,,---,0.00,VWS V14.00,2013-03-02 23:38:00,
2013-03-02 15:39:00,44.1,31.1,30.06,South,171,5.0,12.0,60,0.00,,---,0.00,VWS V14.00,2013-03-02 23:39:00,
2013-03-02 15:40:00,44.1,31.1,30.06,South,174,4.0,12.0,60,0.00,,---,0.00,VWS V14.00,2013-03-02 23:40:00,
2013-03-02 15:41:00,44.1,31.1,30.06,South,175,2.0,4.0,60,0.00,,---,0.00,VWS V14.00,2013-03-02 23:41:00,
2013-03-02 15:42:00,44.1,31.1,30.06,South,176,6.0,6.0,60,0.00,,---,0.00,VWS V14.00,2013-03-02 23:42:00,
2013-03-02 15:43:00,44.1,31.9,30.06,South,189,8.0,8.0,62,0.00,,---,0.00,VWS V14.00,2013-03-02 23:43:00,
2013-03-02 15:44:00,43.9,31.7,30.06,SW,215,5.0,8.0,62,0.00,,---,0.00,VWS V14.00,2013-03-02 23:44:00,
2013-03-02 15:45:00,43.9,31.7,30.06,South,179,6.0,8.0,62,0.00,,---,0.00,VWS V14.00,2013-03-02 23:45:00,
2013-03-02 15:46:00,43.9,31.7,30.06,SSW,196,6.0,8.0,62,0.00,,---,0.00,VWS V14.00,2013-03-02 23:46:00,
2013-03-02 15:47:00,43.8,31.6,30.06,South,191,7.0,8.0,62,0.00,,---,0.00,VWS V14.00,2013-03-02 23:47:00,
2013-03-02 15:48:00,43.8,31.6,30.06,South,181,8.0,8.0,62,0.00,,---,0.00,VWS V14.00,2013-03-02 23:48:00,
2013-03-02 15:49:00,43.8,31.6,30.06,SSW,203,4.0,8.0,62,0.00,,---,0.00,VWS V14.00,2013-03-02 23:49:00,
2013-03-02 15:50:00,43.8,31.6,30.06,SSW,203,4.0,8.0,62,0.00,,---,0.00,VWS V14.00,2013-03-02 23:50:00,
2013-03-02 15:51:00,43.8,31.6,30.06,SSW,199,6.0,6.0,62,0.00,,---,0.00,VWS V14.00,2013-03-02 23:51:00,
2013-03-02 15:52:00,43.8,31.6,30.06,South,191,3.0,6.0,62,0.00,,---,0.00,VWS V14.00,2013-03-02 23:52:00,
2013-03-02 15:53:00,43.5,31.4,30.06,SSW,193,3.0,6.0,62,0.00,,---,0.00,VWS V14.00,2013-03-02 23:53:00,
2013-03-02 15:54:00,43.5,31.4,30.06,South,186,7.0,7.0,62,0.00,,---,0.00,VWS V14.00,2013-03-02 23:54:00,
2013-03-02 15:55:00,43.5,31.4,30.06,South,176,6.0,12.0,62,0.00,,---,0.00,VWS V14.00,2013-03-02 23:55:00,
2013-03-02 15:56:00,43.5,31.4,30.06,South,178,7.0,12.0,62,0.00,,---,0.00,VWS V14.00,2013-03-02 23:56:00,
2013-03-02 15:57:00,43.3,31.2,30.06,SSW,198,6.0,12.0,62,0.00,,---,0.00,VWS V14.00,2013-03-02 23:57:00,
2013-03-02 15:58:00,43.3,31.2,30.06,SSW,196,5.0,12.0,62,0.00,,---,0.00,VWS V14.00,2013-03-02 23:58:00,
2013-03-02 15:59:00,43.3,31.2,30.06,South,188,3.0,12.0,62,0.00,,---,0.00,VWS V14.00,2013-03-02 23:59:00,
2013-03-02 16:00:00,43.3,31.6,30.07,SSW,198,3.0,12.0,63,0.00,,---,0.00,VWS V14.00,2013-03-03 00:00:00,
2013-03-02 16:01:00,43.3,31.6,30.07,South,184,6.0,6.0,63,0.00,,---,0.00,VWS V14.00,2013-03-03 00:01:00,
2013-03-02 16:02:00,43.2,31.1,30.07,South,184,2.0,6.0,62,0.00,,---,0.00,VWS V14.00,2013-03-03 00:02:00,
2013-03-02 16:03:00,43.2,31.1,30.07,South,184,2.0,6.0,62,0.00,,---,0.00,VWS V14.00,2013-03-03 00:03:00,
2013-03-02 16:04:00,43.1,31.0,30.07,South,184,4.0,6.0,62,0.00,,---,0.00,VWS V14.00,2013-03-03 00:04:00,
2013-03-02 16:05:00,43.1,31.0,30.07,South,184,4.0,6.0,62,0.00,,---,0.00,VWS V14.00,2013-03-03 00:05:00,
2013-03-02 16:06:00,43.1,31.0,30.07,South,184,4.0,6.0,62,0.00,,---,0.00,VWS V14.00,2013-03-03 00:06:00,
2013-03-02 16:07:00,43.1,31.0,30.07,SSW,196,5.0,6.0,62,0.00,,---,0.00,VWS V14.00,2013-03-03 00:07:00,
2013-03-02 16:08:00,42.9,30.8,30.07,SSW,193,5.0,6.0,62,0.00,,---,0.00,VWS V14.00,2013-03-03 00:08:00,
2013-03-02 16:09:00,42.9,30.8,30.07,South,191,7.0,7.0,62,0.00,,---,0.00,VWS V14.00,2013-03-03 00:09:00,
2013-03-02 16:10:00,42.8,30.7,30.07,SSW,193,3.0,7.0,62,0.00,,---,0.00,VWS V14.00,2013-03-03 00:10:00,
2013-03-02 16:11:00,42.8,31.1,30.07,SSW,193,3.0,4.0,63,0.00,,---,0.00,VWS V14.00,2013-03-03 00:11:00,
2013-03-02 16:12:00,42.8,31.1,30.07,SSW,195,4.0,4.0,63,0.00,,---,0.00,VWS V14.00,2013-03-03 00:12:00,
2013-03-02 16:13:00,42.8,31.1,30.07,South,176,7.0,7.0,63,0.00,,---,0.00,VWS V14.00,2013-03-03 00:13:00,
2013-03-02 16:14:00,42.8,31.1,30.06,South,176,7.0,7.0,63,0.00,,---,0.00,VWS V14.00,2013-03-03 00:14:00,
2013-03-02 16:15:00,42.8,31.1,30.06,SSW,203,5.0,7.0,63,0.00,,---,0.00,VWS V14.00,2013-03-03 00:15:00,
2013-03-02 16:16:00,42.6,30.9,30.06,SSW,205,3.0,7.0,63,0.00,,---,0.00,VWS V14.00,2013-03-03 00:16:00,
2013-03-02 16:17:00,42.5,31.2,30.06,SSW,203,3.0,7.0,64,0.00,,---,0.00,VWS V14.00,2013-03-03 00:17:00,
2013-03-02 16:18:00,42.5,31.2,30.06,SSW,195,5.0,7.0,64,0.00,,---,0.00,VWS V14.00,2013-03-03 00:18:00,
2013-03-02 16:19:00,42.5,30.4,30.06,SSW,193,5.0,7.0,62,0.00,,---,0.00,VWS V14.00,2013-03-03 00:19:00,
2013-03-02 16:20:00,42.5,30.4,30.06,SSW,193,4.0,7.0,62,0.00,,---,0.00,VWS V14.00,2013-03-03 00:20:00,
2013-03-02 16:21:00,42.5,31.2,30.06,SSW,192,4.0,5.0,64,0.00,,---,0.00,VWS V14.00,2013-03-03 00:21:00,
2013-03-02 16:22:00,42.5,31.2,30.06,SSW,193,3.0,6.0,64,0.00,,---,0.00,VWS V14.00,2013-03-03 00:22:00,
2013-03-02 16:23:00,42.3,31.0,30.06,SSW,195,3.0,6.0,64,0.00,,---,0.00,VWS V14.00,2013-03-03 00:23:00,
2013-03-02 16:24:00,42.3,31.0,30.06,SSW,195,2.0,6.0,64,0.00,,---,0.00,VWS V14.00,2013-03-03 00:24:00,
2013-03-02 16:25:00,42.3,31.0,30.06,SSW,193,5.0,6.0,64,0.00,,---,0.00,VWS V14.00,2013-03-03 00:25:00,
2013-03-02 16:26:00,42.3,31.0,30.06,SSW,193,5.0,6.0,64,0.00,,---,0.00,VWS V14.00,2013-03-03 00:26:00,
2013-03-02 16:27:00,42.3,31.0,30.06,SSW,196,5.0,11.0,64,0.00,,---,0.00,VWS V14.00,2013-03-03 00:27:00,
2013-03-02 16:28:00,42.3,31.4,30.06,SSW,195,6.0,11.0,65,0.00,,---,0.00,VWS V14.00,2013-03-03 00:28:00,
2013-03-02 16:29:00,42.2,31.3,30.06,South,184,7.0,11.0,65,0.00,,---,0.00,VWS V14.00,2013-03-03 00:29:00,
2013-03-02 16:30:00,42.2,31.3,30.06,South,184,7.0,11.0,65,0.00,,---,0.00,VWS V14.00,2013-03-03 00:30:00,
2013-03-02 16:31:00,42.2,30.9,30.06,South,191,7.0,8.0,64,0.00,,---,0.00,VWS V14.00,2013-03-03 00:31:00,
2013-03-02 16:32:00,42.2,30.9,30.06,SSW,192,5.0,8.0,64,0.00,,---,0.00,VWS V14.00,2013-03-03 00:32:00,
2013-03-02 16:33:00,42.2,30.9,30.06,SSW,192,2.0,8.0,64,0.00,,---,0.00,VWS V14.00,2013-03-03 00:33:00,
2013-03-02 16:34:00,42.2,30.9,30.06,SSW,192,6.0,8.0,64,0.00,,---,0.00,VWS V14.00,2013-03-03 00:34:00,
2013-03-02 16:35:00,42.2,30.9,30.06,SSW,193,6.0,8.0,64,0.00,,---,0.00,VWS V14.00,2013-03-03 00:35:00,
2013-03-02 16:36:00,42.2,30.9,30.06,SSW,193,6.0,8.0,64,0.00,,---,0.00,VWS V14.00,2013-03-03 00:36:00,
2013-03-02 16:37:00,42.2,30.5,30.06,South,174,7.0,8.0,63,0.00,,---,0.00,VWS V14.00,2013-03-03 00:37:00,
2013-03-02 16:38:00,42.2,30.5,30.06,South,191,4.0,8.0,63,0.00,,---,0.00,VWS V14.00,2013-03-03 00:38:00,
2013-03-02 16:39:00,42.2,31.7,30.06,South,178,7.0,8.0,66,0.00,,---,0.00,VWS V14.00,2013-03-03 00:39:00,
2013-03-02 16:40:00,42.2,31.7,30.06,South,178,3.0,4.0,66,0.00,,---,0.00,VWS V14.00,2013-03-03 00:40:00,
2013-03-02 16:41:00,42.1,31.6,30.06,SSW,200,7.0,7.0,66,0.00,,---,0.00,VWS V14.00,2013-03-03 00:41:00,
2013-03-02 16:42:00,42.1,31.2,30.06,SSW,200,6.0,7.0,65,0.00,,---,0.00,VWS V14.00,2013-03-03 00:42:00,
2013-03-02 16:43:00,42.1,31.2,30.06,SSW,200,3.0,7.0,65,0.00,,---,0.00,VWS V14.00,2013-03-03 00:43:00,
2013-03-02 16:44:00,41.9,31.0,30.05,SSW,198,5.0,7.0,65,0.00,,---,0.00,VWS V14.00,2013-03-03 00:44:00,
2013-03-02 16:45:00,41.9,31.0,30.05,SSW,198,4.0,7.0,65,0.00,,---,0.00,VWS V14.00,2013-03-03 00:45:00,
2013-03-02 16:46:00,41.9,31.0,30.05,SSW,198,4.0,7.0,65,0.00,,---,0.00,VWS V14.00,2013-03-03 00:46:00,
2013-03-02 16:47:00,41.9,31.0,30.05,South,191,2.0,7.0,65,0.00,,---,0.00,VWS V14.00,2013-03-03 00:47:00,
2013-03-02 16:48:00,41.9,31.0,30.05,SSW,195,5.0,7.0,65,0.00,,---,0.00,VWS V14.00,2013-03-03 00:48:00,
2013-03-02 16:49:00,41.9,31.0,30.05,SSW,193,5.0,7.0,65,0.00,,---,0.00,VWS V14.00,2013-03-03 00:49:00,
2013-03-02 16:50:00,41.8,30.9,30.05,SSW,193,6.0,7.0,65,0.00,,---,0.00,VWS V14.00,2013-03-03 00:50:00,
2013-03-02 16:51:00,41.8,30.9,30.05,SSW,192,2.0,6.0,65,0.00,,---,0.00,VWS V14.00,2013-03-03 00:51:00,
2013-03-02 16:52:00,41.8,30.9,30.05,South,191,5.0,6.0,65,0.00,,---,0.00,VWS V14.00,2013-03-03 00:52:00,
2013-03-02 16:53:00,41.8,31.3,30.05,South,191,5.0,6.0,66,0.00,,---,0.00,VWS V14.00,2013-03-03 00:53:00,
2013-03-02 16:54:00,41.8,31.3,30.05,South,189,2.0,6.0,66,0.00,,---,0.00,VWS V14.00,2013-03-03 00:54:00,
2013-03-02 16:55:00,41.6,31.1,30.05,SSW,200,5.0,7.0,66,0.00,,---,0.00,VWS V14.00,2013-03-03 00:55:00,
2013-03-02 16:56:00,41.6,31.1,30.05,SSW,199,5.0,7.0,66,0.00,,---,0.00,VWS V14.00,2013-03-03 00:56:00,
2013-03-02 16:57:00,41.6,31.1,30.05,SSW,199,5.0,7.0,66,0.00,,---,0.00,VWS V14.00,2013-03-03 00:57:00,
2013-03-02 16:58:00,41.6,31.1,30.05,South,176,3.0,7.0,66,0.00,,---,0.00,VWS V14.00,2013-03-03 00:58:00,
2013-03-02 16:59:00,41.6,31.1,30.05,South,178,5.0,7.0,66,0.00,,---,0.00,VWS V14.00,2013-03-03 00:59:00,
2013-03-02 17:00:00,41.6,31.1,30.05,SSW,208,3.0,7.0,66,0.00,,---,0.00,VWS V14.00,2013-03-03 01:00:00,
2013-03-02 17:01:00,41.6,31.1,30.05,SSW,203,3.0,5.0,66,0.00,,---,0.00,VWS V14.00,2013-03-03 01:01:00,
2013-03-02 17:02:00,41.5,30.2,30.05,SSW,200,5.0,6.0,64,0.00,,---,0.00,VWS V14.00,2013-03-03 01:02:00,
2013-03-02 17:03:00,41.5,30.2,30.05,SSW,200,2.0,6.0,64,0.00,,---,0.00,VWS V14.00,2013-03-03 01:03:00,
2013-03-02 17:04:00,41.5,31.0,30.05,SSW,196,3.0,6.0,66,0.00,,---,0.00,VWS V14.00,2013-03-03 01:04:00,
2013-03-02 17:05:00,41.5,30.6,30.05,SSW,195,5.0,6.0,65,0.00,,---,0.00,VWS V14.00,2013-03-03 01:05:00,
2013-03-02 17:06:00,41.3,31.2,30.05,SSW,192,5.0,6.0,67,0.00,,---,0.00,VWS V14.00,2013-03-03 01:06:00,
2013-03-02 17:07:00,41.3,31.2,30.05,SSW,192,5.0,6.0,67,0.00,,---,0.00,VWS V14.00,2013-03-03 01:07:00,
2013-03-02 17:08:00,41.3,31.2,30.05,SSW,192,5.0,6.0,67,0.00,,---,0.00,VWS V14.00,2013-03-03 01:08:00,
2013-03-02 17:09:00,41.3,31.2,30.05,SSW,202,3.0,7.0,67,0.00,,---,0.00,VWS V14.00,2013-03-03 01:09:00,
2013-03-02 17:10:00,41.3,31.2,30.05,SSW,205,5.0,7.0,67,0.00,,---,0.00,VWS V14.00,2013-03-03 01:10:00,
2013-03-02 17:11:00,41.3,31.2,30.05,SSW,195,4.0,6.0,67,0.00,,---,0.00,VWS V14.00,2013-03-03 01:11:00,
2013-03-02 17:12:00,41.3,31.2,30.05,SSW,195,2.0,6.0,67,0.00,,---,0.00,VWS V14.00,2013-03-03 01:12:00,
2013-03-02 17:13:00,41.3,30.8,30.05,SSW,195,3.0,6.0,66,0.00,,---,0.00,VWS V14.00,2013-03-03 01:13:00,
2013-03-02 17:14:00,41.3,30.8,30.05,South,185,2.0,6.0,66,0.00,,---,0.00,VWS V14.00,2013-03-03 01:14:00,
2013-03-02 17:15:00,41.2,30.7,30.05,South,185,5.0,6.0,66,0.00,,---,0.00,VWS V14.00,2013-03-03 01:15:00,
2013-03-02 17:16:00,41.2,31.1,30.05,SSW,192,5.0,7.0,67,0.00,,---,0.00,VWS V14.00,2013-03-03 01:16:00,
2013-03-02 17:17:00,41.2,30.7,30.05,SSW,202,4.0,7.0,66,0.00,,---,0.00,VWS V14.00,2013-03-03 01:17:00,
2013-03-02 17:18:00,41.2,30.7,30.05,SSW,200,2.0,7.0,66,0.00,,---,0.00,VWS V14.00,2013-03-03 01:18:00,
2013-03-02 17:19:00,41.2,30.7,30.05,SSW,193,5.0,7.0,66,0.00,,---,0.00,VWS V14.00,2013-03-03 01:19:00,
2013-03-02 17:20:00,41.1,30.6,30.05,SSW,192,5.0,7.0,66,0.00,,---,0.00,VWS V14.00,2013-03-03 01:20:00,
2013-03-02 17:21:00,41.1,30.6,30.05,SSW,192,5.0,5.0,66,0.00,,---,0.00,VWS V14.00,2013-03-03 01:21:00,
2013-03-02 17:22:00,41.1,30.6,30.05,South,188,7.0,7.0,66,0.00,,---,0.00,VWS V14.00,2013-03-03 01:22:00,
2013-03-02 17:23:00,41.2,31.1,30.05,South,188,2.0,7.0,67,0.00,,---,0.00,VWS V14.00,2013-03-03 01:23:00,
2013-03-02 17:24:00,41.2,31.1,30.05,South,188,5.0,7.0,67,0.00,,---,0.00,VWS V14.00,2013-03-03 01:24:00,
2013-03-02 17:25:00,41.2,31.1,30.05,South,188,5.0,7.0,67,0.00,,---,0.00,VWS V14.00,2013-03-03 01:25:00,
2013-03-02 17:26:00,41.1,31.0,30.05,South,191,6.0,7.0,67,0.00,,---,0.00,VWS V14.00,2013-03-03 01:26:00,
2013-03-02 17:27:00,41.1,31.0,30.05,SSW,192,4.0,7.0,67,0.00,,---,0.00,VWS V14.00,2013-03-03 01:27:00,
2013-03-02 17:28:00,41.1,31.0,30.05,SSW,193,3.0,7.0,67,0.00,,---,0.00,VWS V14.00,2013-03-03 01:28:00,
2013-03-02 17:29:00,41.1,30.6,30.05,SSW,192,2.0,7.0,66,0.00,,---,0.00,VWS V14.00,2013-03-03 01:29:00,
2013-03-02 17:30:00,41.1,30.6,30.05,SSW,192,2.0,7.0,66,0.00,,---,0.00,VWS V14.00,2013-03-03 01:30:00,
2013-03-02 17:31:00,41.1,30.6,30.05,SSW,205,5.0,5.0,66,0.00,,---,0.00,VWS V14.00,2013-03-03 01:31:00,
2013-03-02 17:32:00,41.1,30.6,30.05,SSW,203,5.0,5.0,66,0.00,,---,0.00,VWS V14.00,2013-03-03 01:32:00,
2013-03-02 17:33:00,41.1,31.0,30.05,SSW,205,2.0,5.0,67,0.00,,---,0.00,VWS V14.00,2013-03-03 01:33:00,
2013-03-02 17:34:00,41.1,31.0,30.05,SSW,205,4.0,5.0,67,0.00,,---,0.00,VWS V14.00,2013-03-03 01:34:00,
2013-03-02 17:35:00,41.1,31.0,30.05,SSW,196,3.0,7.0,67,0.00,,---,0.00,VWS V14.00,2013-03-03 01:35:00,
2013-03-02 17:36:00,40.9,30.8,30.05,SSW,196,3.0,7.0,67,0.00,,---,0.00,VWS V14.00,2013-03-03 01:36:00,
2013-03-02 17:37:00,40.9,30.8,30.05,SSW,196,6.0,7.0,67,0.00,,---,0.00,VWS V14.00,2013-03-03 01:37:00,
2013-03-02 17:38:00,40.9,30.8,30.05,South,186,5.0,7.0,67,0.00,,---,0.00,VWS V14.00,2013-03-03 01:38:00,
2013-03-02 17:39:00,40.9,30.4,30.05,South,188,4.0,7.0,66,0.00,,---,0.00,VWS V14.00,2013-03-03 01:39:00,
2013-03-02 17:40:00,40.9,30.4,30.05,South,189,5.0,7.0,66,0.00,,---,0.00,VWS V14.00,2013-03-03 01:40:00,
2013-03-02 17:41:00,40.9,30.4,30.05,South,189,5.0,6.0,66,0.00,,---,0.00,VWS V14.00,2013-03-03 01:41:00,
2013-03-02 17:42:00,40.9,30.8,30.05,SSW,192,2.0,6.0,67,0.00,,---,0.00,VWS V14.00,2013-03-03 01:42:00,
2013-03-02 17:43:00,40.8,30.7,30.05,SSW,195,3.0,6.0,67,0.00,,---,0.00,VWS V14.00,2013-03-03 01:43:00,
2013-03-02 17:44:00,40.8,30.7,30.05,SSW,195,4.0,6.0,67,0.00,,---,0.00,VWS V14.00,2013-03-03 01:44:00,
2013-03-02 17:45:00,40.8,30.3,30.05,SSW,196,3.0,6.0,66,0.00,,---,0.00,VWS V14.00,2013-03-03 01:45:00,
2013-03-02 17:46:00,40.6,30.1,30.05,SSW,198,6.0,6.0,66,0.00,,---,0.00,VWS V14.00,2013-03-03 01:46:00,
2013-03-02 17:47:00,40.6,30.1,30.05,SSW,198,6.0,6.0,66,0.00,,---,0.00,VWS V14.00,2013-03-03 01:47:00,
2013-03-02 17:48:00,40.6,30.1,30.05,SSW,202,5.0,6.0,66,0.00,,---,0.00,VWS V14.00,2013-03-03 01:48:00,
2013-03-02 17:49:00,40.6,30.1,30.05,SSW,203,7.0,7.0,66,0.00,,---,0.00,VWS V14.00,2013-03-03 01:49:00,
2013-03-02 17:50:00,40.6,30.1,30.05,SSW,205,6.0,7.0,66,0.00,,---,0.00,VWS V14.00,2013-03-03 01:50:00,
2013-03-02 17:51:00,40.6,30.1,30.05,SSW,200,5.0,7.0,66,0.00,,---,0.00,VWS V14.00,2013-03-03 01:51:00,
2013-03-02 17:52:00,40.6,30.1,30.05,SSW,195,5.0,7.0,66,0.00,,---,0.00,VWS V14.00,2013-03-03 01:52:00,
2013-03-02 17:53:00,40.6,30.1,30.05,SSW,209,7.0,7.0,66,0.00,,---,0.00,VWS V14.00,2013-03-03 01:53:00,
2013-03-02 17:54:00,40.6,30.1,30.05,SSW,202,8.0,8.0,66,0.00,,---,0.00,VWS V14.00,2013-03-03 01:54:00,
2013-03-02 17:55:00,40.6,30.1,30.05,SSW,202,8.0,8.0,66,0.00,,---,0.00,VWS V14.00,2013-03-03 01:55:00,
2013-03-02 17:56:00,40.6,30.1,30.05,SSW,202,8.0,8.0,66,0.00,,---,0.00,VWS V14.00,2013-03-03 01:56:00,
2013-03-02 17:57:00,40.6,30.1,30.05,SSW,202,7.0,8.0,66,0.00,,---,0.00,VWS V14.00,2013-03-03 01:57:00,
2013-03-02 17:58:00,40.6,30.1,30.05,SSW,202,7.0,8.0,66,0.00,,---,0.00,VWS V14.00,2013-03-03 01:58:00,
2013-03-02 17:59:00,40.6,30.1,30.04,SSW,202,7.0,8.0,66,0.00,,---,0.00,VWS V14.00,2013-03-03 01:59:00,
2013-03-02 18:00:00,40.6,30.1,30.04,South,189,7.0,8.0,66,0.00,,---,0.00,VWS V14.00,2013-03-03 02:00:00,
2013-03-02 18:01:00,40.6,30.1,30.04,South,189,7.0,7.0,66,0.00,,---,0.00,VWS V14.00,2013-03-03 02:01:00,
2013-03-02 18:02:00,40.6,30.1,30.04,South,189,7.0,7.0,66,0.00,,---,0.00,VWS V14.00,2013-03-03 02:02:00,
2013-03-02 18:03:00,40.6,30.1,30.04,SSW,196,11.0,11.0,66,0.00,,---,0.00,VWS V14.00,2013-03-03 02:03:00,
2013-03-02 18:04:00,40.6,30.1,30.04,SSW,199,9.0,11.0,66,0.00,,---,0.00,VWS V14.00,2013-03-03 02:04:00,
2013-03-02 18:05:00,40.6,30.5,30.04,SSW,195,10.0,12.0,67,0.00,,---,0.00,VWS V14.00,2013-03-03 02:05:00,
2013-03-02 18:06:00,40.6,30.5,30.04,South,191,6.0,12.0,67,0.00,,---,0.00,VWS V14.00,2013-03-03 02:06:00,
2013-03-02 18:07:00,40.6,29.8,30.04,South,184,6.0,12.0,65,0.00,,---,0.00,VWS V14.00,2013-03-03 02:07:00,
2013-03-02 18:08:00,40.5,29.7,30.04,South,181,12.0,12.0,65,0.00,,---,0.00,VWS V14.00,2013-03-03 02:08:00,
2013-03-02 18:09:00,40.5,29.7,30.04,SSW,213,11.0,12.0,65,0.00,,---,0.00,VWS V14.00,2013-03-03 02:09:00,
2013-03-02 18:10:00,40.5,29.7,30.04,South,185,10.0,12.0,65,0.00,,---,0.00,VWS V14.00,2013-03-03 02:10:00,
2013-03-02 18:11:00,40.5,29.7,30.04,SSW,208,7.0,10.0,65,0.00,,---,0.00,VWS V14.00,2013-03-03 02:11:00,
2013-03-02 18:12:00,40.5,29.7,30.04,SSW,192,7.0,10.0,65,0.00,,---,0.00,VWS V14.00,2013-03-03 02:12:00,
2013-03-02 18:13:00,40.3,29.9,30.04,South,191,12.0,14.0,66,0.00,,---,0.00,VWS V14.00,2013-03-03 02:13:00,
2013-03-02 18:14:00,40.3,29.5,30.04,SSW,196,11.0,14.0,65,0.00,,---,0.00,VWS V14.00,2013-03-03 02:14:00,
2013-03-02 18:15:00,40.3,29.5,30.04,SSW,196,11.0,14.0,65,0.00,,---,0.00,VWS V14.00,2013-03-03 02:15:00,
2013-03-02 18:16:00,40.3,29.5,30.04,SSW,203,7.0,14.0,65,0.00,,---,0.00,VWS V14.00,2013-03-03 02:16:00,
2013-03-02 18:17:00,40.3,29.5,30.04,SSW,195,7.0,14.0,65,0.00,,---,0.00,VWS V14.00,2013-03-03 02:17:00,
2013-03-02 18:18:00,40.3,29.5,30.04,SSW,199,12.0,14.0,65,0.00,,---,0.00,VWS V14.00,2013-03-03 02:18:00,
2013-03-02 18:19:00,40.3,29.5,30.04,South,184,8.0,14.0,65,0.00,,---,0.00,VWS V14.00,2013-03-03 02:19:00,
2013-03-02 18:20:00,40.3,29.5,30.04,South,184,8.0,14.0,65,0.00,,---,0.00,VWS V14.00,2013-03-03 02:20:00,
2013-03-02 18:21:00,40.3,29.5,30.04,SSW,198,11.0,11.0,65,0.00,,---,0.00,VWS V14.00,2013-03-03 02:21:00,
2013-03-02 18:22:00,40.3,29.5,30.04,SSW,198,11.0,11.0,65,0.00,,---,0.00,VWS V14.00,2013-03-03 02:22:00,
2013-03-02 18:23:00,39.9,29.1,30.04,South,186,6.0,11.0,65,0.00,,---,0.00,VWS V14.00,2013-03-03 02:23:00,
2013-03-02 18:24:00,39.9,29.1,30.04,South,185,13.0,13.0,65,0.00,,---,0.00,VWS V14.00,2013-03-03 02:24:00,
2013-03-02 18:25:00,39.9,29.1,30.04,South,185,13.0,13.0,65,0.00,,---,0.00,VWS V14.00,2013-03-03 02:25:00,
2013-03-02 18:26:00,39.9,29.1,30.04,South,185,13.0,13.0,65,0.00,,---,0.00,VWS V14.00,2013-03-03 02:26:00,
2013-03-02 18:27:00,39.9,29.1,30.04,SSW,199,12.0,13.0,65,0.00,,---,0.00,VWS V14.00,2013-03-03 02:27:00,
2013-03-02 18:28:00,39.9,29.1,30.04,SSW,210,6.0,13.0,65,0.00,,---,0.00,VWS V14.00,2013-03-03 02:28:00,
2013-03-02 18:29:00,39.9,29.1,30.04,SSW,210,6.0,13.0,65,0.00,,---,0.00,VWS V14.00,2013-03-03 02:29:00,
2013-03-02 18:30:00,39.9,29.1,30.04,SSW,210,6.0,13.0,65,0.00,,---,0.00,VWS V14.00,2013-03-03 02:30:00,
2013-03-02 18:31:00,39.8,29.0,30.04,South,189,8.0,8.0,65,0.00,,---,0.00,VWS V14.00,2013-03-03 02:31:00,
2013-03-02 18:32:00,39.8,29.4,30.04,SSW,192,6.0,8.0,66,0.00,,---,0.00,VWS V14.00,2013-03-03 02:32:00,
2013-03-02 18:33:00,39.8,29.4,30.04,SSW,192,6.0,8.0,66,0.00,,---,0.00,VWS V14.00,2013-03-03 02:33:00,
2013-03-02 18:34:00,39.8,29.4,30.04,SSW,192,6.0,8.0,66,0.00,,---,0.00,VWS V14.00,2013-03-03 02:34:00,
2013-03-02 18:35:00,39.8,29.4,30.04,SSW,192,6.0,8.0,66,0.00,,---,0.00,VWS V14.00,2013-03-03 02:35:00,
2013-03-02 18:36:00,39.8,29.4,30.04,SSW,192,6.0,8.0,66,0.00,,---,0.00,VWS V14.00,2013-03-03 02:36:00,
2013-03-02 18:37:00,39.6,29.2,30.04,SSW,206,5.0,8.0,66,0.00,,---,0.00,VWS V14.00,2013-03-03 02:37:00,
2013-03-02 18:38:00,39.6,29.2,30.04,SSW,206,5.0,8.0,66,0.00,,---,0.00,VWS V14.00,2013-03-03 02:38:00,
2013-03-02 18:39:00,39.6,29.2,30.04,SSW,206,5.0,8.0,66,0.00,,---,0.00,VWS V14.00,2013-03-03 02:39:00,
2013-03-02 18:40:00,39.6,29.2,30.04,SSW,206,5.0,8.0,66,0.00,,---,0.00,VWS V14.00,2013-03-03 02:40:00,
2013-03-02 18:41:00,39.5,29.1,30.04,SSW,198,5.0,5.0,66,0.00,,---,0.00,VWS V14.00,2013-03-03 02:41:00,
2013-03-02 18:42:00,39.5,29.1,30.04,SSW,198,5.0,5.0,66,0.00,,---,0.00,VWS V14.00,2013-03-03 02:42:00,
2013-03-02 18:43:00,39.5,29.1,30.04,SSW,198,5.0,5.0,66,0.00,,---,0.00,VWS V14.00,2013-03-03 02:43:00,
2013-03-02 18:44:00,39.5,29.1,30.04,South,191,6.0,6.0,66,0.00,,---,0.00,VWS V14.00,2013-03-03 02:44:00,
2013-03-02 18:45:00,39.5,30.2,30.04,SSW,199,5.0,7.0,69,0.00,,---,0.00,VWS V14.00,2013-03-03 02:45:00,
2013-03-02 18:46:00,39.2,29.9,30.04,SSW,195,6.0,7.0,69,0.00,,---,0.00,VWS V14.00,2013-03-03 02:46:00,
2013-03-02 18:47:00,39.2,29.9,30.04,SSW,195,6.0,7.0,69,0.00,,---,0.00,VWS V14.00,2013-03-03 02:47:00,
2013-03-02 18:48:00,39.2,29.9,30.04,SSW,192,7.0,7.0,69,0.00,,---,0.00,VWS V14.00,2013-03-03 02:48:00,
2013-03-02 18:49:00,39.2,29.9,30.04,SSW,192,12.0,12.0,69,0.00,,---,0.00,VWS V14.00,2013-03-03 02:49:00,
2013-03-02 18:50:00,39.2,29.9,30.04,SSW,192,12.0,12.0,69,0.00,,---,0.00,VWS V14.00,2013-03-03 02:50:00,
2013-03-02 18:51:00,39.2,29.9,30.04,South,189,12.0,12.0,69,0.00,,---,0.00,VWS V14.00,2013-03-03 02:51:00,
2013-03-02 18:52:00,39.2,29.9,30.04,South,188,12.0,12.0,69,0.00,,---,0.00,VWS V14.00,2013-03-03 02:52:00,
2013-03-02 18:53:00,39.2,29.9,30.04,SW,226,7.0,12.0,69,0.00,,---,0.00,VWS V14.00,2013-03-03 02:53:00,
2013-03-02 18:54:00,39.2,29.9,30.04,SSW,198,11.0,12.0,69,0.00,,---,0.00,VWS V14.00,2013-03-03 02:54:00,
2013-03-02 18:55:00,39.2,29.9,30.04,SSW,198,11.0,12.0,69,0.00,,---,0.00,VWS V14.00,2013-03-03 02:55:00,
2013-03-02 18:56:00,39.2,29.9,30.04,SSW,198,11.0,12.0,69,0.00,,---,0.00,VWS V14.00,2013-03-03 02:56:00,
2013-03-02 18:57:00,39.2,29.9,30.04,SSW,200,12.0,12.0,69,0.00,,---,0.00,VWS V14.00,2013-03-03 02:57:00,
2013-03-02 18:58:00,39.2,29.9,30.04,SSW,203,12.0,12.0,69,0.00,,---,0.00,VWS V14.00,2013-03-03 02:58:00,
2013-03-02 18:59:00,39.2,29.9,30.03,SSW,206,12.0,17.0,69,0.00,,---,0.00,VWS V14.00,2013-03-03 02:59:00,
2013-03-02 19:00:00,39.2,29.9,30.03,SSW,203,10.0,17.0,69,0.00,,---,0.00,VWS V14.00,2013-03-03 03:00:00,
2013-03-02 19:01:00,39.2,29.9,30.03,SSW,200,10.0,10.0,69,0.00,,---,0.00,VWS V14.00,2013-03-03 03:01:00,
2013-03-02 19:02:00,39.1,29.8,30.03,SW,215,7.0,10.0,69,0.00,,---,0.00,VWS V14.00,2013-03-03 03:02:00,
2013-03-02 19:03:00,39.1,29.8,30.03,SW,215,7.0,10.0,69,0.00,,---,0.00,VWS V14.00,2013-03-03 03:03:00,
2013-03-02 19:04:00,39.1,29.8,30.03,South,188,8.0,10.0,69,0.00,,---,0.00,VWS V14.00,2013-03-03 03:04:00,
2013-03-02 19:05:00,39.1,29.8,30.03,South,188,8.0,10.0,69,0.00,,---,0.00,VWS V14.00,2013-03-03 03:05:00,
2013-03-02 19:06:00,39.1,29.8,30.03,SSW,200,8.0,10.0,69,0.00,,---,0.00,VWS V14.00,2013-03-03 03:06:00,
2013-03-02 19:07:00,39.1,29.8,30.03,SSW,200,8.0,10.0,69,0.00,,---,0.00,VWS V14.00,2013-03-03 03:07:00,
2013-03-02 19:08:00,38.9,29.6,30.03,South,184,8.0,10.0,69,0.00,,---,0.00,VWS V14.00,2013-03-03 03:08:00,
2013-03-02 19:09:00,38.9,29.6,30.03,South,184,8.0,10.0,69,0.00,,---,0.00,VWS V14.00,2013-03-03 03:09:00,
2013-03-02 19:10:00,38.9,30.0,30.03,SSW,205,10.0,11.0,70,0.00,,---,0.00,VWS V14.00,2013-03-03 03:10:00,
2013-03-02 19:11:00,38.9,30.0,30.03,SSW,205,10.0,10.0,70,0.00,,---,0.00,VWS V14.00,2013-03-03 03:11:00,
2013-03-02 19:12:00,38.9,30.0,30.03,SSW,205,10.0,10.0,70,0.00,,---,0.00,VWS V14.00,2013-03-03 03:12:00,
2013-03-02 19:13:00,38.9,28.9,30.03,South,179,8.0,10.0,67,0.00,,---,0.00,VWS V14.00,2013-03-03 03:13:00,
2013-03-02 19:14:00,38.9,28.9,30.03,South,185,12.0,12.0,67,0.00,,---,0.00,VWS V14.00,2013-03-03 03:14:00,
2013-03-02 19:15:00,38.9,29.6,30.03,South,188,12.0,14.0,69,0.00,,---,0.00,VWS V14.00,2013-03-03 03:15:00,
2013-03-02 19:16:00,38.9,29.6,30.03,SSW,192,10.0,14.0,69,0.00,,---,0.00,VWS V14.00,2013-03-03 03:16:00,
2013-03-02 19:17:00,38.9,29.6,30.03,South,184,10.0,14.0,69,0.00,,---,0.00,VWS V14.00,2013-03-03 03:17:00,
2013-03-02 19:18:00,38.9,29.6,30.03,SSW,196,10.0,14.0,69,0.00,,---,0.00,VWS V14.00,2013-03-03 03:18:00,
2013-03-02 19:19:00,39.1,29.8,30.03,SSW,203,10.0,14.0,69,0.00,,---,0.00,VWS V14.00,2013-03-03 03:19:00,
2013-03-02 19:20:00,39.1,29.8,30.03,SSW,203,10.0,14.0,69,0.00,,---,0.00,VWS V14.00,2013-03-03 03:20:00,
2013-03-02 19:21:00,39.1,29.8,30.03,SSW,203,10.0,10.0,69,0.00,,---,0.00,VWS V14.00,2013-03-03 03:21:00,
2013-03-02 19:22:00,38.9,29.6,30.03,South,175,12.0,12.0,69,0.00,,---,0.00,VWS V14.00,2013-03-03 03:22:00,
2013-03-02 19:23:00,38.9,29.6,30.03,South,185,7.0,12.0,69,0.00,,---,0.00,VWS V14.00,2013-03-03 03:23:00,
2013-03-02 19:24:00,38.9,29.2,30.03,SW,234,5.0,12.0,68,0.00,,---,0.00,VWS V14.00,2013-03-03 03:24:00,
2013-03-02 19:25:00,39.1,29.5,30.03,South,189,7.0,12.0,68,0.00,,---,0.00,VWS V14.00,2013-03-03 03:25:00,
2013-03-02 19:26:00,39.1,29.5,30.03,SSW,212,9.0,13.0,68,0.00,,---,0.00,VWS V14.00,2013-03-03 03:26:00,
2013-03-02 19:27:00,39.1,29.5,30.03,SSW,212,9.0,13.0,68,0.00,,---,0.00,VWS V14.00,2013-03-03 03:27:00,
2013-03-02 19:28:00,39.1,29.5,30.03,SSW,212,9.0,13.0,68,0.00,,---,0.00,VWS V14.00,2013-03-03 03:28:00,
2013-03-02 19:29:00,39.1,29.5,30.03,SSW,213,5.0,13.0,68,0.00,,---,0.00,VWS V14.00,2013-03-03 03:29:00,
2013-03-02 19:30:00,39.1,29.5,30.03,SSW,213,5.0,13.0,68,0.00,,---,0.00,VWS V14.00,2013-03-03 03:30:00,
2013-03-02 19:31:00,39.1,29.5,30.03,SSW,213,5.0,5.0,68,0.00,,---,0.00,VWS V14.00,2013-03-03 03:31:00,
2013-03-02 19:32:00,39.1,29.5,30.03,SSW,192,11.0,11.0,68,0.00,,---,0.00,VWS V14.00,2013-03-03 03:32:00,
2013-03-02 19:33:00,39.3,29.6,30.03,South,191,14.0,16.0,68,0.00,,---,0.00,VWS V14.00,2013-03-03 03:33:00,
2013-03-02 19:34:00,39.3,29.6,30.03,SW,222,11.0,16.0,68,0.00,,---,0.00,VWS V14.00,2013-03-03 03:34:00,
2013-03-02 19:35:00,39.3,29.6,30.03,SSW,195,19.0,19.0,68,0.00,,---,0.00,VWS V14.00,2013-03-03 03:35:00,
2013-03-02 19:36:00,39.3,29.3,30.03,SSW,196,13.0,19.0,67,0.00,,---,0.00,VWS V14.00,2013-03-03 03:36:00,
2013-03-02 19:37:00,39.3,29.3,30.03,South,186,10.0,19.0,67,0.00,,---,0.00,VWS V14.00,2013-03-03 03:37:00,
2013-03-02 19:38:00,39.2,29.2,30.03,SW,224,5.0,19.0,67,0.00,,---,0.00,VWS V14.00,2013-03-03 03:38:00,
2013-03-02 19:39:00,39.2,29.2,30.03,SSW,196,10.0,19.0,67,0.00,,---,0.00,VWS V14.00,2013-03-03 03:39:00,
2013-03-02 19:40:00,39.2,29.2,30.03,SSW,196,13.0,19.0,67,0.00,,---,0.00,VWS V14.00,2013-03-03 03:40:00,
2013-03-02 19:41:00,39.2,29.2,30.03,SSW,193,16.0,16.0,67,0.00,,---,0.00,VWS V14.00,2013-03-03 03:41:00,
2013-03-02 19:42:00,39.1,29.1,30.03,South,189,14.0,16.0,67,0.00,,---,0.00,VWS V14.00,2013-03-03 03:42:00,
2013-03-02 19:43:00,39.1,29.1,30.03,South,188,10.0,16.0,67,0.00,,---,0.00,VWS V14.00,2013-03-03 03:43:00,
2013-03-02 19:44:00,39.1,29.1,30.03,South,188,10.0,16.0,67,0.00,,---,0.00,VWS V14.00,2013-03-03 03:44:00,
2013-03-02 19:45:00,38.9,28.9,30.02,SSW,195,13.0,16.0,67,0.00,,---,0.00,VWS V14.00,2013-03-03 03:45:00,
2013-03-02 19:46:00,38.9,28.9,30.02,South,191,10.0,16.0,67,0.00,,---,0.00,VWS V14.00,2013-03-03 03:46:00,
2013-03-02 19:47:00,38.9,28.9,30.02,SSW,195,11.0,16.0,67,0.00,,---,0.00,VWS V14.00,2013-03-03 03:47:00,
2013-03-02 19:48:00,38.9,28.9,30.02,SSW,199,8.0,16.0,67,0.00,,---,0.00,VWS V14.00,2013-03-03 03:48:00,
2013-03-02 19:49:00,38.8,28.8,30.02,SSW,193,14.0,16.0,67,0.00,,---,0.00,VWS V14.00,2013-03-03 03:49:00,
2013-03-02 19:50:00,38.8,28.8,30.02,SSW,193,14.0,16.0,67,0.00,,---,0.00,VWS V14.00,2013-03-03 03:50:00,
2013-03-02 19:51:00,38.8,28.8,30.02,SSW,195,13.0,14.0,67,0.00,,---,0.00,VWS V14.00,2013-03-03 03:51:00,
2013-03-02 19:52:00,38.8,28.8,30.02,SSW,198,12.0,14.0,67,0.00,,---,0.00,VWS V14.00,2013-03-03 03:52:00,
2013-03-02 19:53:00,38.8,28.8,30.02,SSW,195,8.0,14.0,67,0.00,,---,0.00,VWS V14.00,2013-03-03 03:53:00,
2013-03-02 19:54:00,38.8,28.8,30.02,SSW,195,8.0,14.0,67,0.00,,---,0.00,VWS V14.00,2013-03-03 03:54:00,
2013-03-02 19:55:00,38.8,28.8,30.02,SSW,199,8.0,14.0,67,0.00,,---,0.00,VWS V14.00,2013-03-03 03:55:00,
2013-03-02 19:56:00,38.8,28.8,30.02,SSW,196,11.0,14.0,67,0.00,,---,0.00,VWS V14.00,2013-03-03 03:56:00,
2013-03-02 19:57:00,38.8,29.5,30.02,South,186,10.0,14.0,69,0.00,,---,0.00,VWS V14.00,2013-03-03 03:57:00,
2013-03-02 19:58:00,38.8,29.5,30.02,SSW,193,8.0,14.0,69,0.00,,---,0.00,VWS V14.00,2013-03-03 03:58:00,
2013-03-02 19:59:00,38.8,29.5,30.01,SSW,193,8.0,14.0,69,0.00,,---,0.00,VWS V14.00,2013-03-03 03:59:00,
2013-03-02 20:00:00,38.3,29.0,30.01,SSW,203,13.0,14.0,69,0.00,,---,0.00,VWS V14.00,2013-03-03 04:00:00,
2013-03-02 20:01:00,38.5,29.2,30.01,SSW,203,11.0,14.0,69,0.00,,---,0.00,VWS V14.00,2013-03-03 04:01:00,
2013-03-02 20:02:00,38.5,29.2,30.01,SSW,199,11.0,14.0,69,0.00,,---,0.00,VWS V14.00,2013-03-03 04:02:00,
2013-03-02 20:03:00,38.5,29.2,30.01,SSW,195,14.0,14.0,69,0.00,,---,0.00,VWS V14.00,2013-03-03 04:03:00,
2013-03-02 20:04:00,38.5,29.2,30.01,SSW,192,10.0,14.0,69,0.00,,---,0.00,VWS V14.00,2013-03-03 04:04:00,
2013-03-02 20:05:00,38.3,29.0,30.01,SSW,213,12.0,14.0,69,0.00,,---,0.00,VWS V14.00,2013-03-03 04:05:00,
2013-03-02 20:06:00,38.5,29.2,30.01,South,185,13.0,14.0,69,0.00,,---,0.00,VWS V14.00,2013-03-03 04:06:00,
2013-03-02 20:07:00,38.5,29.2,30.01,South,189,14.0,14.0,69,0.00,,---,0.00,VWS V14.00,2013-03-03 04:07:00,
2013-03-02 20:08:00,38.5,29.2,30.01,South,188,12.0,14.0,69,0.00,,---,0.00,VWS V14.00,2013-03-03 04:08:00,
2013-03-02 20:09:00,38.5,29.2,30.01,SW,229,7.0,14.0,69,0.00,,---,0.00,VWS V14.00,2013-03-03 04:09:00,
2013-03-02 20:10:00,38.5,29.2,30.01,South,191,19.0,19.0,69,0.00,,---,0.00,VWS V14.00,2013-03-03 04:10:00,
2013-03-02 20:11:00,38.5,29.2,30.01,SSW,200,12.0,19.0,69,0.00,,---,0.00,VWS V14.00,2013-03-03 04:11:00,
2013-03-02 20:12:00,38.5,28.5,30.01,South,191,12.0,19.0,67,0.00,,---,0.00,VWS V14.00,2013-03-03 04:12:00,
2013-03-02 20:13:00,38.5,28.5,30.01,South,186,12.0,19.0,67,0.00,,---,0.00,VWS V14.00,2013-03-03 04:13:00,
2013-03-02 20:14:00,38.5,28.5,30.01,SSW,205,7.0,19.0,67,0.00,,---,0.00,VWS V14.00,2013-03-03 04:14:00,
2013-03-02 20:15:00,38.5,28.5,29.99,SSW,210,11.0,19.0,67,0.00,,---,0.00,VWS V14.00,2013-03-03 04:15:00,
2013-03-02 20:16:00,38.5,28.5,29.99,SSW,195,10.0,19.0,67,0.00,,---,0.00,VWS V14.00,2013-03-03 04:16:00,
2013-03-02 20:17:00,38.5,28.5,29.99,SSW,199,13.0,19.0,67,0.00,,---,0.00,VWS V14.00,2013-03-03 04:17:00,
2013-03-02 20:18:00,38.5,28.5,29.99,SSW,199,13.0,19.0,67,0.00,,---,0.00,VWS V14.00,2013-03-03 04:18:00,
2013-03-02 20:19:00,38.5,28.9,29.99,SSW,200,11.0,19.0,68,0.00,,---,0.00,VWS V14.00,2013-03-03 04:19:00,
2013-03-02 20:20:00,38.5,28.9,29.99,SSW,200,11.0,19.0,68,0.00,,---,0.00,VWS V14.00,2013-03-03 04:20:00,
2013-03-02 20:21:00,38.5,28.9,29.99,SSW,199,8.0,11.0,68,0.00,,---,0.00,VWS V14.00,2013-03-03 04:21:00,
2013-03-02 20:22:00,38.5,28.9,29.99,South,189,8.0,14.0,68,0.00,,---,0.00,VWS V14.00,2013-03-03 04:22:00,
2013-03-02 20:23:00,38.5,28.9,29.99,South,189,8.0,14.0,68,0.00,,---,0.00,VWS V14.00,2013-03-03 04:23:00,
2013-03-02 20:24:00,38.5,28.9,29.99,South,189,8.0,14.0,68,0.00,,---,0.00,VWS V14.00,2013-03-03 04:24:00,
2013-03-02 20:25:00,38.3,28.7,29.99,SSW,200,9.0,14.0,68,0.00,,---,0.00,VWS V14.00,2013-03-03 04:25:00,
2013-03-02 20:26:00,38.3,28.7,29.99,SSW,212,7.0,14.0,68,0.00,,---,0.00,VWS V14.00,2013-03-03 04:26:00,
2013-03-02 20:27:00,38.3,28.7,29.99,South,186,8.0,14.0,68,0.00,,---,0.00,VWS V14.00,2013-03-03 04:27:00,
2013-03-02 20:28:00,38.3,28.7,29.99,South,186,8.0,14.0,68,0.00,,---,0.00,VWS V14.00,2013-03-03 04:28:00,
2013-03-02 20:29:00,38.3,28.7,29.99,South,186,8.0,14.0,68,0.00,,---,0.00,VWS V14.00,2013-03-03 04:29:00,
2013-03-02 20:30:00,38.3,28.7,29.99,South,186,8.0,14.0,68,0.00,,---,0.00,VWS V14.00,2013-03-03 04:30:00,
2013-03-02 20:31:00,38.3,28.7,29.99,SSW,193,8.0,8.0,68,0.00,,---,0.00,VWS V14.00,2013-03-03 04:31:00,
2013-03-02 20:32:00,38.3,28.7,29.99,SSW,193,8.0,8.0,68,0.00,,---,0.00,VWS V14.00,2013-03-03 04:32:00,
2013-03-02 20:33:00,38.3,28.7,29.99,SSW,193,8.0,8.0,68,0.00,,---,0.00,VWS V14.00,2013-03-03 04:33:00,
2013-03-02 20:34:00,38.3,28.7,29.99,South,184,12.0,12.0,68,0.00,,---,0.00,VWS V14.00,2013-03-03 04:34:00,
2013-03-02 20:35:00,38.3,28.7,29.99,South,184,12.0,12.0,68,0.00,,---,0.00,VWS V14.00,2013-03-03 04:35:00,
2013-03-02 20:36:00,38.3,28.7,29.99,South,184,12.0,12.0,68,0.00,,---,0.00,VWS V14.00,2013-03-03 04:36:00,
2013-03-02 20:37:00,38.3,28.7,29.99,South,184,12.0,12.0,68,0.00,,---,0.00,VWS V14.00,2013-03-03 04:37:00,
2013-03-02 20:38:00,38.8,29.2,29.99,SW,216,11.0,14.0,68,0.00,,---,0.00,VWS V14.00,2013-03-03 04:38:00,
2013-03-02 20:39:00,38.8,29.2,29.99,SW,216,11.0,14.0,68,0.00,,---,0.00,VWS V14.00,2013-03-03 04:39:00,
2013-03-02 20:40:00,38.8,29.2,29.99,SSW,208,6.0,14.0,68,0.00,,---,0.00,VWS V14.00,2013-03-03 04:40:00,
2013-03-02 20:41:00,38.8,29.2,29.99,SSW,208,6.0,6.0,68,0.00,,---,0.00,VWS V14.00,2013-03-03 04:41:00,
2013-03-02 20:42:00,38.8,29.2,29.99,SSW,196,17.0,17.0,68,0.00,,---,0.00,VWS V14.00,2013-03-03 04:42:00,
2013-03-02 20:43:00,38.8,29.5,29.99,SSW,205,8.0,17.0,69,0.00,,---,0.00,VWS V14.00,2013-03-03 04:43:00,
2013-03-02 20:44:00,38.8,29.5,29.99,SSW,199,8.0,17.0,69,0.00,,---,0.00,VWS V14.00,2013-03-03 04:44:00,
2013-03-02 20:45:00,38.8,29.5,29.99,SSW,199,8.0,17.0,69,0.00,,---,0.00,VWS V14.00,2013-03-03 04:45:00,
2013-03-02 20:46:00,38.8,29.5,29.99,SSW,199,8.0,17.0,69,0.00,,---,0.00,VWS V14.00,2013-03-03 04:46:00,
2013-03-02 20:47:00,38.8,29.2,29.99,SSW,213,10.0,17.0,68,0.00,,---,0.00,VWS V14.00,2013-03-03 04:47:00,
2013-03-02 20:48:00,38.8,29.2,29.99,SW,215,7.0,17.0,68,0.00,,---,0.00,VWS V14.00,2013-03-03 04:48:00,
2013-03-02 20:49:00,38.8,29.2,29.99,South,191,6.0,17.0,68,0.00,,---,0.00,VWS V14.00,2013-03-03 04:49:00,
2013-03-02 20:50:00,38.8,29.5,29.99,SSW,205,14.0,17.0,69,0.00,,---,0.00,VWS V14.00,2013-03-03 04:50:00,
2013-03-02 20:51:00,38.8,29.5,29.99,SSW,205,14.0,14.0,69,0.00,,---,0.00,VWS V14.00,2013-03-03 04:51:00,
2013-03-02 20:52:00,38.8,29.5,29.99,SSW,205,14.0,14.0,69,0.00,,---,0.00,VWS V14.00,2013-03-03 04:52:00,
2013-03-02 20:53:00,38.8,29.5,29.99,South,185,12.0,14.0,69,0.00,,---,0.00,VWS V14.00,2013-03-03 04:53:00,
2013-03-02 20:54:00,38.6,29.3,29.99,SSW,202,8.0,14.0,69,0.00,,---,0.00,VWS V14.00,2013-03-03 04:54:00,
2013-03-02 20:55:00,38.6,29.3,29.99,South,188,12.0,14.0,69,0.00,,---,0.00,VWS V14.00,2013-03-03 04:55:00,
2013-03-02 20:56:00,38.6,29.3,29.99,South,191,10.0,14.0,69,0.00,,---,0.00,VWS V14.00,2013-03-03 04:56:00,
2013-03-02 20:57:00,38.8,29.5,29.99,SW,227,8.0,14.0,69,0.00,,---,0.00,VWS V14.00,2013-03-03 04:57:00,
2013-03-02 20:58:00,38.8,29.5,29.99,SW,227,8.0,14.0,69,0.00,,---,0.00,VWS V14.00,2013-03-03 04:58:00,
2013-03-02 20:59:00,38.8,29.5,29.99,South,185,12.0,14.0,69,0.00,,---,0.00,VWS V14.00,2013-03-03 04:59:00,
2013-03-02 21:00:00,38.8,29.5,29.99,South,185,12.0,14.0,69,0.00,,---,0.00,VWS V14.00,2013-03-03 05:00:00,
2013-03-02 21:01:00,38.8,29.5,29.99,South,185,12.0,12.0,69,0.00,,---,0.00,VWS V14.00,2013-03-03 05:01:00,
2013-03-02 21:02:00,38.8,29.5,29.99,SSW,199,11.0,13.0,69,0.00,,---,0.00,VWS V14.00,2013-03-03 05:02:00,
2013-03-02 21:03:00,38.8,29.5,29.99,SSW,192,10.0,13.0,69,0.00,,---,0.00,VWS V14.00,2013-03-03 05:03:00,
2013-03-02 21:04:00,38.8,29.2,29.99,South,185,7.0,13.0,68,0.00,,---,0.00,VWS V14.00,2013-03-03 05:04:00,
2013-03-02 21:05:00,38.8,29.2,29.99,SSW,192,6.0,13.0,68,0.00,,---,0.00,VWS V14.00,2013-03-03 05:05:00,
2013-03-02 21:06:00,38.6,29.0,29.99,South,188,5.0,13.0,68,0.00,,---,0.00,VWS V14.00,2013-03-03 05:06:00,
2013-03-02 21:07:00,38.6,29.0,29.99,South,188,5.0,13.0,68,0.00,,---,0.00,VWS V14.00,2013-03-03 05:07:00,
2013-03-02 21:08:00,38.6,29.0,29.99,South,188,5.0,13.0,68,0.00,,---,0.00,VWS V14.00,2013-03-03 05:08:00,
2013-03-02 21:09:00,38.6,29.0,29.99,South,188,5.0,13.0,68,0.00,,---,0.00,VWS V14.00,2013-03-03 05:09:00,
2013-03-02 21:10:00,38.6,29.0,29.99,South,181,10.0,13.0,68,0.00,,---,0.00,VWS V14.00,2013-03-03 05:10:00,
2013-03-02 21:11:00,38.6,29.0,29.99,South,181,10.0,10.0,68,0.00,,---,0.00,VWS V14.00,2013-03-03 05:11:00,
2013-03-02 21:12:00,38.6,29.0,29.99,SSW,198,6.0,10.0,68,0.00,,---,0.00,VWS V14.00,2013-03-03 05:12:00,
2013-03-02 21:13:00,38.8,29.2,29.99,SSW,198,5.0,10.0,68,0.00,,---,0.00,VWS V14.00,2013-03-03 05:13:00,
2013-03-02 21:14:00,38.8,29.5,29.99,South,189,12.0,12.0,69,0.00,,---,0.00,VWS V14.00,2013-03-03 05:14:00,
2013-03-02 21:15:00,38.8,29.5,29.99,SW,219,6.0,12.0,69,0.00,,---,0.00,VWS V14.00,2013-03-03 05:15:00,
2013-03-02 21:16:00,38.8,29.5,29.99,SSW,192,5.0,12.0,69,0.00,,---,0.00,VWS V14.00,2013-03-03 05:16:00,
2013-03-02 21:17:00,38.8,29.2,29.99,SSW,192,1.0,12.0,68,0.00,,---,0.00,VWS V14.00,2013-03-03 05:17:00,
2013-03-02 21:18:00,38.8,29.2,29.99,SSW,192,3.0,12.0,68,0.00,,---,0.00,VWS V14.00,2013-03-03 05:18:00,
2013-03-02 21:19:00,38.8,29.2,29.99,SSW,192,5.0,12.0,68,0.00,,---,0.00,VWS V14.00,2013-03-03 05:19:00,
2013-03-02 21:20:00,38.6,29.0,29.99,SSW,199,5.0,12.0,68,0.00,,---,0.00,VWS V14.00,2013-03-03 05:20:00,
2013-03-02 21:21:00,38.6,29.0,29.99,SSW,208,10.0,12.0,68,0.00,,---,0.00,VWS V14.00,2013-03-03 05:21:00,
2013-03-02 21:22:00,38.6,29.0,29.99,SSW,199,10.0,12.0,68,0.00,,---,0.00,VWS V14.00,2013-03-03 05:22:00,
2013-03-02 21:23:00,38.6,29.0,29.99,SSW,199,11.0,12.0,68,0.00,,---,0.00,VWS V14.00,2013-03-03 05:23:00,
2013-03-02 21:24:00,38.6,29.0,29.99,South,182,7.0,12.0,68,0.00,,---,0.00,VWS V14.00,2013-03-03 05:24:00,
2013-03-02 21:25:00,38.6,29.0,29.99,South,182,7.0,12.0,68,0.00,,---,0.00,VWS V14.00,2013-03-03 05:25:00,
2013-03-02 21:26:00,38.6,29.0,29.99,SSW,202,10.0,12.0,68,0.00,,---,0.00,VWS V14.00,2013-03-03 05:26:00,
2013-03-02 21:27:00,38.6,27.9,29.99,SSW,212,3.0,12.0,65,0.00,,---,0.00,VWS V14.00,2013-03-03 05:27:00,
2013-03-02 21:28:00,38.6,27.9,29.99,SSW,212,3.0,12.0,65,0.00,,---,0.00,VWS V14.00,2013-03-03 05:28:00,
2013-03-02 21:29:00,38.6,27.9,29.98,SSW,200,4.0,12.0,65,0.00,,---,0.00,VWS V14.00,2013-03-03 05:29:00,
2013-03-02 21:30:00,38.6,27.9,29.98,SSW,195,12.0,14.0,65,0.00,,---,0.00,VWS V14.00,2013-03-03 05:30:00,
2013-03-02 21:31:00,38.6,27.9,29.98,SSW,202,13.0,18.0,65,0.00,,---,0.00,VWS V14.00,2013-03-03 05:31:00,
2013-03-02 21:32:00,38.6,29.0,29.98,South,191,14.0,18.0,68,0.00,,---,0.00,VWS V14.00,2013-03-03 05:32:00,
2013-03-02 21:33:00,38.6,29.0,29.98,SSW,206,11.0,18.0,68,0.00,,---,0.00,VWS V14.00,2013-03-03 05:33:00,
2013-03-02 21:34:00,38.6,29.0,29.98,SSW,193,13.0,18.0,68,0.00,,---,0.00,VWS V14.00,2013-03-03 05:34:00,
2013-03-02 21:35:00,38.8,29.2,29.98,South,189,7.0,18.0,68,0.00,,---,0.00,VWS V14.00,2013-03-03 05:35:00,
2013-03-02 21:36:00,38.8,29.2,29.98,South,188,11.0,18.0,68,0.00,,---,0.00,VWS V14.00,2013-03-03 05:36:00,
2013-03-02 21:37:00,38.8,29.2,29.98,SSW,205,12.0,18.0,68,0.00,,---,0.00,VWS V14.00,2013-03-03 05:37:00,
2013-03-02 21:38:00,38.8,29.2,29.98,SSW,200,10.0,18.0,68,0.00,,---,0.00,VWS V14.00,2013-03-03 05:38:00,
2013-03-02 21:39:00,38.8,29.2,29.98,SSW,193,12.0,18.0,68,0.00,,---,0.00,VWS V14.00,2013-03-03 05:39:00,
2013-03-02 21:40:00,38.8,29.2,29.98,SW,215,8.0,18.0,68,0.00,,---,0.00,VWS V14.00,2013-03-03 05:40:00,
2013-03-02 21:41:00,38.8,29.2,29.98,SSW,195,17.0,18.0,68,0.00,,---,0.00,VWS V14.00,2013-03-03 05:41:00,
2013-03-02 21:42:00,38.8,29.2,29.98,SSW,196,8.0,18.0,68,0.00,,---,0.00,VWS V14.00,2013-03-03 05:42:00,
2013-03-02 21:43:00,38.8,29.2,29.98,SSW,205,11.0,18.0,68,0.00,,---,0.00,VWS V14.00,2013-03-03 05:43:00,
2013-03-02 21:44:00,38.8,28.8,29.97,SSW,195,14.0,19.0,67,0.00,,---,0.00,VWS V14.00,2013-03-03 05:44:00,
2013-03-02 21:45:00,39.1,29.1,29.97,South,182,10.0,19.0,67,0.00,,---,0.00,VWS V14.00,2013-03-03 05:45:00,
2013-03-02 21:46:00,39.1,29.1,29.97,SW,220,14.0,19.0,67,0.00,,---,0.00,VWS V14.00,2013-03-03 05:46:00,
2013-03-02 21:47:00,38.9,28.9,29.97,SSW,198,12.0,19.0,67,0.00,,---,0.00,VWS V14.00,2013-03-03 05:47:00,
2013-03-02 21:48:00,39.1,29.1,29.97,South,191,13.0,19.0,67,0.00,,---,0.00,VWS V14.00,2013-03-03 05:48:00,
2013-03-02 21:49:00,39.1,28.7,29.97,South,191,11.0,19.0,66,0.00,,---,0.00,VWS V14.00,2013-03-03 05:49:00,
2013-03-02 21:50:00,39.1,28.7,29.97,SSW,202,9.0,19.0,66,0.00,,---,0.00,VWS V14.00,2013-03-03 05:50:00,
2013-03-02 21:51:00,39.1,28.7,29.97,SSW,199,10.0,18.0,66,0.00,,---,0.00,VWS V14.00,2013-03-03 05:51:00,
2013-03-02 21:52:00,39.1,28.7,29.97,SSW,195,15.0,18.0,66,0.00,,---,0.00,VWS V14.00,2013-03-03 05:52:00,
2013-03-02 21:53:00,39.1,28.3,29.97,South,178,10.0,19.0,65,0.00,,---,0.00,VWS V14.00,2013-03-03 05:53:00,
2013-03-02 21:54:00,39.1,28.3,29.97,SSW,203,11.0,19.0,65,0.00,,---,0.00,VWS V14.00,2013-03-03 05:54:00,
2013-03-02 21:55:00,38.9,28.5,29.97,South,179,7.0,19.0,66,0.00,,---,0.00,VWS V14.00,2013-03-03 05:55:00,
2013-03-02 21:56:00,38.9,28.1,29.97,South,188,10.0,19.0,65,0.00,,---,0.00,VWS V14.00,2013-03-03 05:56:00,
2013-03-02 21:57:00,38.8,29.2,29.97,SSW,199,12.0,19.0,68,0.00,,---,0.00,VWS V14.00,2013-03-03 05:57:00,
2013-03-02 21:58:00,38.9,28.5,29.97,South,191,10.0,19.0,66,0.00,,---,0.00,VWS V14.00,2013-03-03 05:58:00,
2013-03-02 21:59:00,38.8,28.4,29.97,SSW,208,7.0,19.0,66,0.00,,---,0.00,VWS V14.00,2013-03-03 05:59:00,
2013-03-02 22:00:00,38.8,28.4,29.97,SW,216,7.0,19.0,66,0.00,,---,0.00,VWS V14.00,2013-03-03 06:00:00,
2013-03-02 22:01:00,38.8,28.4,29.97,SSW,200,7.0,8.0,66,0.00,,---,0.00,VWS V14.00,2013-03-03 06:01:00,
2013-03-02 22:02:00,38.8,28.4,29.97,SSW,205,10.0,13.0,66,0.00,,---,0.00,VWS V14.00,2013-03-03 06:02:00,
2013-03-02 22:03:00,38.8,28.4,29.97,South,181,12.0,13.0,66,0.00,,---,0.00,VWS V14.00,2013-03-03 06:03:00,
2013-03-02 22:04:00,38.8,28.4,29.97,SSW,205,9.0,13.0,66,0.00,,---,0.00,VWS V14.00,2013-03-03 06:04:00,
2013-03-02 22:05:00,38.8,28.4,29.97,SSW,206,7.0,13.0,66,0.00,,---,0.00,VWS V14.00,2013-03-03 06:05:00,
2013-03-02 22:06:00,38.8,28.4,29.97,South,191,10.0,13.0,66,0.00,,---,0.00,VWS V14.00,2013-03-03 06:06:00,
2013-03-02 22:07:00,38.8,28.4,29.97,South,191,10.0,13.0,66,0.00,,---,0.00,VWS V14.00,2013-03-03 06:07:00,
2013-03-02 22:08:00,38.5,28.1,29.97,SSW,212,10.0,13.0,66,0.00,,---,0.00,VWS V14.00,2013-03-03 06:08:00,
2013-03-02 22:09:00,38.5,28.1,29.97,SSW,200,8.0,13.0,66,0.00,,---,0.00,VWS V14.00,2013-03-03 06:09:00,
2013-03-02 22:10:00,38.5,28.1,29.97,SSW,200,8.0,13.0,66,0.00,,---,0.00,VWS V14.00,2013-03-03 06:10:00,
2013-03-02 22:11:00,38.3,28.0,29.97,SSW,203,11.0,11.0,66,0.00,,---,0.00,VWS V14.00,2013-03-03 06:11:00,
2013-03-02 22:12:00,38.3,28.0,29.97,SSW,203,11.0,11.0,66,0.00,,---,0.00,VWS V14.00,2013-03-03 06:12:00,
2013-03-02 22:13:00,38.2,27.9,29.97,South,189,12.0,12.0,66,0.00,,---,0.00,VWS V14.00,2013-03-03 06:13:00,
2013-03-02 22:14:00,38.2,27.9,29.98,SSW,193,11.0,12.0,66,0.00,,---,0.00,VWS V14.00,2013-03-03 06:14:00,
2013-03-02 22:15:00,38.2,27.9,29.98,SSW,200,12.0,12.0,66,0.00,,---,0.00,VWS V14.00,2013-03-03 06:15:00,
2013-03-02 22:16:00,38.2,27.9,29.98,SSW,205,11.0,12.0,66,0.00,,---,0.00,VWS V14.00,2013-03-03 06:16:00,
2013-03-02 22:17:00,38.2,28.6,29.98,SSW,210,10.0,14.0,68,0.00,,---,0.00,VWS V14.00,2013-03-03 06:17:00,
2013-03-02 22:18:00,38.2,28.6,29.98,SSW,202,10.0,14.0,68,0.00,,---,0.00,VWS V14.00,2013-03-03 06:18:00,
2013-03-02 22:19:00,38.2,28.6,29.98,SSW,202,10.0,14.0,68,0.00,,---,0.00,VWS V14.00,2013-03-03 06:19:00,
2013-03-02 22:20:00,38.2,28.6,29.98,SSW,210,14.0,14.0,68,0.00,,---,0.00,VWS V14.00,2013-03-03 06:20:00,
2013-03-02 22:21:00,38.2,28.6,29.98,SW,217,8.0,18.0,68,0.00,,---,0.00,VWS V14.00,2013-03-03 06:21:00,
2013-03-02 22:22:00,38.2,28.6,29.98,SW,217,8.0,18.0,68,0.00,,---,0.00,VWS V14.00,2013-03-03 06:22:00,
2013-03-02 22:23:00,38.2,28.6,29.98,SSW,199,6.0,18.0,68,0.00,,---,0.00,VWS V14.00,2013-03-03 06:23:00,
2013-03-02 22:24:00,38.2,28.6,29.98,SSW,203,10.0,18.0,68,0.00,,---,0.00,VWS V14.00,2013-03-03 06:24:00,
2013-03-02 22:25:00,38.2,28.6,29.98,SSW,203,10.0,18.0,68,0.00,,---,0.00,VWS V14.00,2013-03-03 06:25:00,
2013-03-02 22:26:00,38.2,28.6,29.98,SSW,203,10.0,18.0,68,0.00,,---,0.00,VWS V14.00,2013-03-03 06:26:00,
2013-03-02 22:27:00,38.2,28.6,29.98,SSW,203,10.0,18.0,68,0.00,,---,0.00,VWS V14.00,2013-03-03 06:27:00,
2013-03-02 22:28:00,38.2,28.2,29.98,South,189,12.0,18.0,67,0.00,,---,0.00,VWS V14.00,2013-03-03 06:28:00,
2013-03-02 22:29:00,38.2,28.2,29.98,SSW,192,10.0,18.0,67,0.00,,---,0.00,VWS V14.00,2013-03-03 06:29:00,
2013-03-02 22:30:00,38.2,28.2,29.98,SSW,192,10.0,18.0,67,0.00,,---,0.00,VWS V14.00,2013-03-03 06:30:00,
2013-03-02 22:31:00,38.2,28.2,29.98,SSW,193,12.0,12.0,67,0.00,,---,0.00,VWS V14.00,2013-03-03 06:31:00,
2013-03-02 22:32:00,38.3,28.3,29.98,South,191,12.0,12.0,67,0.00,,---,0.00,VWS V14.00,2013-03-03 06:32:00,
2013-03-02 22:33:00,38.3,28.3,29.98,SSW,208,12.0,14.0,67,0.00,,---,0.00,VWS V14.00,2013-03-03 06:33:00,
2013-03-02 22:34:00,38.3,28.3,29.98,SSW,208,12.0,14.0,67,0.00,,---,0.00,VWS V14.00,2013-03-03 06:34:00,
2013-03-02 22:35:00,38.3,28.3,29.98,South,184,8.0,14.0,67,0.00,,---,0.00,VWS V14.00,2013-03-03 06:35:00,
2013-03-02 22:36:00,38.2,28.2,29.98,SSW,202,11.0,17.0,67,0.00,,---,0.00,VWS V14.00,2013-03-03 06:36:00,
2013-03-02 22:37:00,38.2,28.2,29.98,South,182,12.0,17.0,67,0.00,,---,0.00,VWS V14.00,2013-03-03 06:37:00,
2013-03-02 22:38:00,38.2,28.2,29.98,South,182,12.0,17.0,67,0.00,,---,0.00,VWS V14.00,2013-03-03 06:38:00,
2013-03-02 22:39:00,38.2,28.2,29.98,South,182,12.0,17.0,67,0.00,,---,0.00,VWS V14.00,2013-03-03 06:39:00,
2013-03-02 22:40:00,38.0,28.0,29.98,SSW,213,10.0,17.0,67,0.00,,---,0.00,VWS V14.00,2013-03-03 06:40:00,
2013-03-02 22:41:00,38.2,28.2,29.98,South,191,10.0,17.0,67,0.00,,---,0.00,VWS V14.00,2013-03-03 06:41:00,
2013-03-02 22:42:00,38.2,28.2,29.98,SSW,208,11.0,17.0,67,0.00,,---,0.00,VWS V14.00,2013-03-03 06:42:00,
2013-03-02 22:43:00,38.2,28.2,29.98,SSW,195,10.0,17.0,67,0.00,,---,0.00,VWS V14.00,2013-03-03 06:43:00,
2013-03-02 22:44:00,38.2,28.2,29.99,South,188,7.0,17.0,67,0.00,,---,0.00,VWS V14.00,2013-03-03 06:44:00,
2013-03-02 22:45:00,38.2,28.2,29.99,South,188,7.0,17.0,67,0.00,,---,0.00,VWS V14.00,2013-03-03 06:45:00,
2013-03-02 22:46:00,38.2,28.2,29.99,SSW,199,12.0,17.0,67,0.00,,---,0.00,VWS V14.00,2013-03-03 06:46:00,
2013-03-02 22:47:00,38.2,28.2,29.99,SSW,199,12.0,17.0,67,0.00,,---,0.00,VWS V14.00,2013-03-03 06:47:00,
2013-03-02 22:48:00,38.2,27.9,29.99,SSW,203,12.0,17.0,66,0.00,,---,0.00,VWS V14.00,2013-03-03 06:48:00,
2013-03-02 22:49:00,38.2,27.9,29.99,SSW,209,10.0,17.0,66,0.00,,---,0.00,VWS V14.00,2013-03-03 06:49:00,
2013-03-02 22:50:00,38.2,27.9,29.99,SSW,192,10.0,17.0,66,0.00,,---,0.00,VWS V14.00,2013-03-03 06:50:00,
2013-03-02 22:51:00,38.2,27.5,29.99,SSW,212,7.0,13.0,65,0.00,,---,0.00,VWS V14.00,2013-03-03 06:51:00,
2013-03-02 22:52:00,38.2,27.5,29.99,South,189,7.0,13.0,65,0.00,,---,0.00,VWS V14.00,2013-03-03 06:52:00,
2013-03-02 22:53:00,38.2,27.5,29.99,South,188,7.0,13.0,65,0.00,,---,0.00,VWS V14.00,2013-03-03 06:53:00,
2013-03-02 22:54:00,38.2,27.5,29.99,SSW,210,10.0,13.0,65,0.00,,---,0.00,VWS V14.00,2013-03-03 06:54:00,
2013-03-02 22:55:00,38.2,27.5,29.99,SSW,210,10.0,13.0,65,0.00,,---,0.00,VWS V14.00,2013-03-03 06:55:00,
2013-03-02 22:56:00,38.2,27.5,29.99,SSW,210,10.0,13.0,65,0.00,,---,0.00,VWS V14.00,2013-03-03 06:56:00,
2013-03-02 22:57:00,38.2,27.5,29.99,SSW,198,6.0,13.0,65,0.00,,---,0.00,VWS V14.00,2013-03-03 06:57:00,
2013-03-02 22:58:00,38.2,27.5,29.99,SSW,198,6.0,13.0,65,0.00,,---,0.00,VWS V14.00,2013-03-03 06:58:00,
2013-03-02 22:59:00,38.2,28.6,29.99,South,179,10.0,13.0,68,0.00,,---,0.00,VWS V14.00,2013-03-03 06:59:00,
2013-03-02 23:00:00,38.2,28.6,29.99,SSW,209,10.0,13.0,68,0.00,,---,0.00,VWS V14.00,2013-03-03 07:00:00,
2013-03-02 23:01:00,38.2,28.6,29.99,SSW,199,10.0,10.0,68,0.00,,---,0.00,VWS V14.00,2013-03-03 07:01:00,
2013-03-02 23:02:00,38.2,28.6,29.99,SSW,199,10.0,10.0,68,0.00,,---,0.00,VWS V14.00,2013-03-03 07:02:00,
2013-03-02 23:03:00,37.8,28.2,29.99,South,185,7.0,10.0,68,0.00,,---,0.00,VWS V14.00,2013-03-03 07:03:00,
2013-03-02 23:04:00,37.8,28.2,29.99,South,185,7.0,10.0,68,0.00,,---,0.00,VWS V14.00,2013-03-03 07:04:00,
2013-03-02 23:05:00,37.8,28.2,29.99,SSW,199,10.0,10.0,68,0.00,,---,0.00,VWS V14.00,2013-03-03 07:05:00,
2013-03-02 23:06:00,37.6,28.0,29.99,SSW,193,7.0,10.0,68,0.00,,---,0.00,VWS V14.00,2013-03-03 07:06:00,
2013-03-02 23:07:00,37.8,28.2,29.99,SSW,196,12.0,12.0,68,0.00,,---,0.00,VWS V14.00,2013-03-03 07:07:00,
2013-03-02 23:08:00,37.8,28.2,29.99,SSW,196,12.0,12.0,68,0.00,,---,0.00,VWS V14.00,2013-03-03 07:08:00,
2013-03-02 23:09:00,37.8,28.2,29.99,South,188,8.0,12.0,68,0.00,,---,0.00,VWS V14.00,2013-03-03 07:09:00,
2013-03-02 23:10:00,37.8,28.2,29.99,South,189,7.0,12.0,68,0.00,,---,0.00,VWS V14.00,2013-03-03 07:10:00,
2013-03-02 23:11:00,37.8,28.2,29.99,South,186,10.0,10.0,68,0.00,,---,0.00,VWS V14.00,2013-03-03 07:11:00,
2013-03-02 23:12:00,37.8,28.2,29.99,South,186,10.0,10.0,68,0.00,,---,0.00,VWS V14.00,2013-03-03 07:12:00,
2013-03-02 23:13:00,37.8,28.2,29.99,South,186,10.0,10.0,68,0.00,,---,0.00,VWS V14.00,2013-03-03 07:13:00,
2013-03-02 23:14:00,37.8,28.2,29.99,SSW,198,12.0,12.0,68,0.00,,---,0.00,VWS V14.00,2013-03-03 07:14:00,
2013-03-02 23:15:00,37.8,28.2,29.99,SSW,198,12.0,12.0,68,0.00,,---,0.00,VWS V14.00,2013-03-03 07:15:00,
2013-03-02 23:16:00,37.8,28.2,29.99,SSW,198,12.0,12.0,68,0.00,,---,0.00,VWS V14.00,2013-03-03 07:16:00,
2013-03-02 23:17:00,37.8,28.2,29.99,SSW,198,12.0,12.0,68,0.00,,---,0.00,VWS V14.00,2013-03-03 07:17:00,
2013-03-02 23:18:00,37.8,28.2,29.99,SSW,198,12.0,12.0,68,0.00,,---,0.00,VWS V14.00,2013-03-03 07:18:00,
2013-03-02 23:19:00,37.8,28.2,29.99,SSW,198,11.0,12.0,68,0.00,,---,0.00,VWS V14.00,2013-03-03 07:19:00,
2013-03-02 23:20:00,37.8,28.2,29.99,South,179,10.0,12.0,68,0.00,,---,0.00,VWS V14.00,2013-03-03 07:20:00,
2013-03-02 23:21:00,37.8,28.2,29.99,South,179,10.0,10.0,68,0.00,,---,0.00,VWS V14.00,2013-03-03 07:21:00,
2013-03-02 23:22:00,37.8,28.2,29.99,South,185,5.0,10.0,68,0.00,,---,0.00,VWS V14.00,2013-03-03 07:22:00,
2013-03-02 23:23:00,37.8,28.2,29.99,South,185,5.0,10.0,68,0.00,,---,0.00,VWS V14.00,2013-03-03 07:23:00,
2013-03-02 23:24:00,37.8,28.2,29.99,South,189,7.0,10.0,68,0.00,,---,0.00,VWS V14.00,2013-03-03 07:24:00,
2013-03-02 23:25:00,37.8,28.2,29.99,South,189,7.0,10.0,68,0.00,,---,0.00,VWS V14.00,2013-03-03 07:25:00,
2013-03-02 23:26:00,37.8,28.2,29.99,South,189,7.0,10.0,68,0.00,,---,0.00,VWS V14.00,2013-03-03 07:26:00,
2013-03-02 23:27:00,37.8,28.2,29.99,South,178,8.0,10.0,68,0.00,,---,0.00,VWS V14.00,2013-03-03 07:27:00,
2013-03-02 23:28:00,37.8,28.2,29.99,South,178,8.0,10.0,68,0.00,,---,0.00,VWS V14.00,2013-03-03 07:28:00,
2013-03-02 23:29:00,37.8,28.2,29.99,SSW,198,6.0,10.0,68,0.00,,---,0.00,VWS V14.00,2013-03-03 07:29:00,
2013-03-02 23:30:00,37.8,28.2,29.99,SSW,198,6.0,10.0,68,0.00,,---,0.00,VWS V14.00,2013-03-03 07:30:00,
2013-03-02 23:31:00,37.8,28.2,29.99,SSW,198,6.0,6.0,68,0.00,,---,0.00,VWS V14.00,2013-03-03 07:31:00,
2013-03-02 23:32:00,37.8,28.2,29.99,SSW,198,6.0,6.0,68,0.00,,---,0.00,VWS V14.00,2013-03-03 07:32:00,
2013-03-02 23:33:00,37.8,28.2,29.99,South,189,5.0,6.0,68,0.00,,---,0.00,VWS V14.00,2013-03-03 07:33:00,
2013-03-02 23:34:00,37.6,28.4,29.99,SSW,192,1.0,6.0,69,0.00,,---,0.00,VWS V14.00,2013-03-03 07:34:00,
2013-03-02 23:35:00,37.6,28.4,29.99,SSW,192,1.0,6.0,69,0.00,,---,0.00,VWS V14.00,2013-03-03 07:35:00,
2013-03-02 23:36:00,37.5,28.3,29.99,SSW,192,2.0,6.0,69,0.00,,---,0.00,VWS V14.00,2013-03-03 07:36:00,
2013-03-02 23:37:00,37.5,28.3,29.99,SSW,192,2.0,6.0,69,0.00,,---,0.00,VWS V14.00,2013-03-03 07:37:00,
2013-03-02 23:38:00,37.5,28.3,29.99,SSW,192,0.0,6.0,69,0.00,,---,0.00,VWS V14.00,2013-03-03 07:38:00,
2013-03-02 23:39:00,37.5,28.3,29.99,SSW,192,3.0,6.0,69,0.00,,---,0.00,VWS V14.00,2013-03-03 07:39:00,
2013-03-02 23:40:00,37.3,28.1,29.99,SSW,192,0.0,6.0,69,0.00,,---,0.00,VWS V14.00,2013-03-03 07:40:00,
2013-03-02 23:41:00,37.3,28.1,29.99,SSW,192,0.0,0.0,69,0.00,,---,0.00,VWS V14.00,2013-03-03 07:41:00,
2013-03-02 23:42:00,37.2,28.3,29.99,SSW,192,0.0,0.0,70,0.00,,---,0.00,VWS V14.00,2013-03-03 07:42:00,
2013-03-02 23:43:00,37.0,27.8,29.99,SSW,192,0.0,0.0,69,0.00,,---,0.00,VWS V14.00,2013-03-03 07:43:00,
2013-03-02 23:44:00,37.0,27.8,30.00,SSW,192,0.0,0.0,69,0.00,,---,0.00,VWS V14.00,2013-03-03 07:44:00,
2013-03-02 23:45:00,36.9,28.0,30.00,SSW,192,0.0,0.0,70,0.00,,---,0.00,VWS V14.00,2013-03-03 07:45:00,
2013-03-02 23:46:00,36.8,28.0,30.00,SSW,192,0.0,0.0,70,0.00,,---,0.00,VWS V14.00,2013-03-03 07:46:00,
2013-03-02 23:47:00,36.8,28.0,30.00,SSW,192,0.0,0.0,70,0.00,,---,0.00,VWS V14.00,2013-03-03 07:47:00,
2013-03-02 23:48:00,36.8,28.0,30.00,SSW,192,0.0,0.0,70,0.00,,---,0.00,VWS V14.00,2013-03-03 07:48:00,
2013-03-02 23:49:00,36.6,27.8,30.00,SSW,192,0.0,0.0,70,0.00,,---,0.00,VWS V14.00,2013-03-03 07:49:00,
2013-03-02 23:50:00,36.6,27.8,30.00,SSW,192,0.0,0.0,70,0.00,,---,0.00,VWS V14.00,2013-03-03 07:50:00,
2013-03-02 23:51:00,36.6,27.8,30.00,SSW,192,0.0,0.0,70,0.00,,---,0.00,VWS V14.00,2013-03-03 07:51:00,
2013-03-02 23:52:00,36.5,27.7,30.00,SSW,192,0.0,0.0,70,0.00,,---,0.00,VWS V14.00,2013-03-03 07:52:00,
2013-03-02 23:53:00,36.5,27.7,30.00,SSW,192,0.0,0.0,70,0.00,,---,0.00,VWS V14.00,2013-03-03 07:53:00,
2013-03-02 23:54:00,36.3,27.5,30.00,SSW,192,0.0,0.0,70,0.00,,---,0.00,VWS V14.00,2013-03-03 07:54:00,
2013-03-02 23:55:00,36.3,27.8,30.00,SSW,192,0.0,1.0,71,0.00,,---,0.00,VWS V14.00,2013-03-03 07:55:00,
2013-03-02 23:56:00,36.3,27.8,30.00,SSW,192,0.0,1.0,71,0.00,,---,0.00,VWS V14.00,2013-03-03 07:56:00,
2013-03-02 23:57:00,36.3,27.8,30.00,SSW,192,0.0,1.0,71,0.00,,---,0.00,VWS V14.00,2013-03-03 07:57:00,
2013-03-02 23:58:00,36.2,27.7,30.00,SSW,192,0.0,1.0,71,0.00,,---,0.00,VWS V14.00,2013-03-03 07:58:00,
2013-03-02 23:59:00,36.2,27.7,30.00,SSW,192,0.0,1.0,71,0.00,,---,0.00,VWS V14.00,2013-03-03 07:59:00,